<?xml version="1.0" encoding="UTF-8" standalone="no" ?>
<gpx xmlns="http://www.topografix.com/GPX/1/1" xmlns:xsi="http://www.w3.org/2001/XMLSchema-instance" xsi:schemaLocation="http://www.topografix.com/GPX/1/1 http://www.topografix.com/GPX/1/1/gpx.xsd" version="1.1" creator="VisuGPX - https://www.visugpx.com">
  <metadata>
    <name>rando roller du 2015 11 02 au 2015 12 14</name>
    <desc><![CDATA[cumul des parcours]]></desc>
  </metadata>
  <trk>
    <name><![CDATA[lundi 2015 12 07]]></name>
    <trkseg>
      <trkpt lat="48.85741" lon="2.34733">
        <ele>40.400001525879</ele>
        <time>2015-12-07T19:23:45Z</time>
      </trkpt>
      <trkpt lat="48.85742" lon="2.34719">
        <ele>40.400001525879</ele>
        <time>2015-12-07T19:23:58Z</time>
      </trkpt>
      <trkpt lat="48.85745" lon="2.34715">
        <ele>40.20000076294</ele>
        <time>2015-12-07T19:24:01Z</time>
      </trkpt>
      <trkpt lat="48.85753" lon="2.34717">
        <ele>39.79999923706</ele>
        <time>2015-12-07T19:24:05Z</time>
      </trkpt>
      <trkpt lat="48.85773" lon="2.34721">
        <ele>39</ele>
        <time>2015-12-07T19:24:14Z</time>
      </trkpt>
      <trkpt lat="48.85788" lon="2.34701">
        <ele>39.599998474121</ele>
        <time>2015-12-07T19:24:21Z</time>
      </trkpt>
      <trkpt lat="48.85797" lon="2.34677">
        <ele>40.20000076294</ele>
        <time>2015-12-07T19:24:28Z</time>
      </trkpt>
      <trkpt lat="48.85801" lon="2.3465">
        <ele>42.400001525879</ele>
        <time>2015-12-07T19:24:34Z</time>
      </trkpt>
      <trkpt lat="48.85809" lon="2.34624">
        <ele>46.20000076294</ele>
        <time>2015-12-07T19:24:40Z</time>
      </trkpt>
      <trkpt lat="48.85819" lon="2.346">
        <ele>47.79999923706</ele>
        <time>2015-12-07T19:24:45Z</time>
      </trkpt>
      <trkpt lat="48.85824" lon="2.34589">
        <ele>48.400001525879</ele>
        <time>2015-12-07T19:24:49Z</time>
      </trkpt>
      <trkpt lat="48.85843" lon="2.34592">
        <ele>49.79999923706</ele>
        <time>2015-12-07T19:24:57Z</time>
      </trkpt>
      <trkpt lat="48.85845" lon="2.34593">
        <ele>50</ele>
        <time>2015-12-07T19:24:58Z</time>
      </trkpt>
      <trkpt lat="48.85853" lon="2.34588">
        <ele>50.599998474121</ele>
        <time>2015-12-07T19:25:01Z</time>
      </trkpt>
      <trkpt lat="48.85867" lon="2.34565">
        <ele>50.400001525879</ele>
        <time>2015-12-07T19:25:08Z</time>
      </trkpt>
      <trkpt lat="48.85881" lon="2.34548">
        <ele>49.79999923706</ele>
        <time>2015-12-07T19:25:13Z</time>
      </trkpt>
      <trkpt lat="48.85885" lon="2.34521">
        <ele>49</ele>
        <time>2015-12-07T19:25:19Z</time>
      </trkpt>
      <trkpt lat="48.85896" lon="2.34498">
        <ele>49.400001525879</ele>
        <time>2015-12-07T19:25:25Z</time>
      </trkpt>
      <trkpt lat="48.8589" lon="2.34493">
        <ele>49.20000076294</ele>
        <time>2015-12-07T19:25:27Z</time>
      </trkpt>
      <trkpt lat="48.85864" lon="2.34486">
        <ele>48.20000076294</ele>
        <time>2015-12-07T19:25:34Z</time>
      </trkpt>
      <trkpt lat="48.85842" lon="2.34477">
        <ele>46.79999923706</ele>
        <time>2015-12-07T19:25:38Z</time>
      </trkpt>
      <trkpt lat="48.85831" lon="2.34473">
        <ele>45.79999923706</ele>
        <time>2015-12-07T19:25:40Z</time>
      </trkpt>
      <trkpt lat="48.85838" lon="2.3445">
        <ele>46.20000076294</ele>
        <time>2015-12-07T19:25:45Z</time>
      </trkpt>
      <trkpt lat="48.8585" lon="2.34428">
        <ele>46.79999923706</ele>
        <time>2015-12-07T19:25:49Z</time>
      </trkpt>
      <trkpt lat="48.8586" lon="2.34404">
        <ele>48</ele>
        <time>2015-12-07T19:25:53Z</time>
      </trkpt>
      <trkpt lat="48.85853" lon="2.34375">
        <ele>49.79999923706</ele>
        <time>2015-12-07T19:25:59Z</time>
      </trkpt>
      <trkpt lat="48.85835" lon="2.34368">
        <ele>48.20000076294</ele>
        <time>2015-12-07T19:26:04Z</time>
      </trkpt>
      <trkpt lat="48.85825" lon="2.34353">
        <ele>48</ele>
        <time>2015-12-07T19:26:10Z</time>
      </trkpt>
      <trkpt lat="48.8583" lon="2.34331">
        <ele>50.599998474121</ele>
        <time>2015-12-07T19:26:17Z</time>
      </trkpt>
      <trkpt lat="48.85836" lon="2.34305">
        <ele>52.599998474121</ele>
        <time>2015-12-07T19:26:24Z</time>
      </trkpt>
      <trkpt lat="48.85848" lon="2.34284">
        <ele>57</ele>
        <time>2015-12-07T19:26:30Z</time>
      </trkpt>
      <trkpt lat="48.85853" lon="2.34256">
        <ele>60.599998474121</ele>
        <time>2015-12-07T19:26:39Z</time>
      </trkpt>
      <trkpt lat="48.8586" lon="2.34238">
        <ele>61</ele>
        <time>2015-12-07T19:26:48Z</time>
      </trkpt>
      <trkpt lat="48.85862" lon="2.34233">
        <ele>60.599998474121</ele>
        <time>2015-12-07T19:26:51Z</time>
      </trkpt>
      <trkpt lat="48.85863" lon="2.34231">
        <ele>60.400001525879</ele>
        <time>2015-12-07T19:26:53Z</time>
      </trkpt>
      <trkpt lat="48.85872" lon="2.34206">
        <ele>58</ele>
        <time>2015-12-07T19:27:07Z</time>
      </trkpt>
      <trkpt lat="48.85876" lon="2.34201">
        <ele>57.400001525879</ele>
        <time>2015-12-07T19:27:10Z</time>
      </trkpt>
      <trkpt lat="48.85886" lon="2.34197">
        <ele>56</ele>
        <time>2015-12-07T19:27:15Z</time>
      </trkpt>
      <trkpt lat="48.85901" lon="2.34197">
        <ele>54.79999923706</ele>
        <time>2015-12-07T19:27:22Z</time>
      </trkpt>
      <trkpt lat="48.85907" lon="2.34203">
        <ele>54.599998474121</ele>
        <time>2015-12-07T19:27:27Z</time>
      </trkpt>
      <trkpt lat="48.85926" lon="2.34214">
        <ele>53.599998474121</ele>
        <time>2015-12-07T19:27:34Z</time>
      </trkpt>
      <trkpt lat="48.85944" lon="2.34215">
        <ele>52.20000076294</ele>
        <time>2015-12-07T19:27:39Z</time>
      </trkpt>
      <trkpt lat="48.85965" lon="2.34219">
        <ele>50.79999923706</ele>
        <time>2015-12-07T19:27:44Z</time>
      </trkpt>
      <trkpt lat="48.85984" lon="2.34226">
        <ele>49.79999923706</ele>
        <time>2015-12-07T19:27:49Z</time>
      </trkpt>
      <trkpt lat="48.86004" lon="2.3423">
        <ele>48.599998474121</ele>
        <time>2015-12-07T19:27:55Z</time>
      </trkpt>
      <trkpt lat="48.86016" lon="2.34224">
        <ele>48.20000076294</ele>
        <time>2015-12-07T19:28:01Z</time>
      </trkpt>
      <trkpt lat="48.86024" lon="2.34224">
        <ele>48</ele>
        <time>2015-12-07T19:28:12Z</time>
      </trkpt>
      <trkpt lat="48.8603" lon="2.34231">
        <ele>48</ele>
        <time>2015-12-07T19:28:17Z</time>
      </trkpt>
      <trkpt lat="48.86042" lon="2.34235">
        <ele>48.20000076294</ele>
        <time>2015-12-07T19:28:40Z</time>
      </trkpt>
      <trkpt lat="48.8605" lon="2.34233">
        <ele>48.400001525879</ele>
        <time>2015-12-07T19:28:46Z</time>
      </trkpt>
      <trkpt lat="48.86069" lon="2.3424">
        <ele>48.599998474121</ele>
        <time>2015-12-07T19:28:55Z</time>
      </trkpt>
      <trkpt lat="48.86087" lon="2.34242">
        <ele>48.79999923706</ele>
        <time>2015-12-07T19:29:00Z</time>
      </trkpt>
      <trkpt lat="48.86105" lon="2.34244">
        <ele>49</ele>
        <time>2015-12-07T19:29:06Z</time>
      </trkpt>
      <trkpt lat="48.86123" lon="2.34238">
        <ele>49</ele>
        <time>2015-12-07T19:29:13Z</time>
      </trkpt>
      <trkpt lat="48.86142" lon="2.34229">
        <ele>49.20000076294</ele>
        <time>2015-12-07T19:29:19Z</time>
      </trkpt>
      <trkpt lat="48.86162" lon="2.34232">
        <ele>49.400001525879</ele>
        <time>2015-12-07T19:29:27Z</time>
      </trkpt>
      <trkpt lat="48.86182" lon="2.34238">
        <ele>49.79999923706</ele>
        <time>2015-12-07T19:29:31Z</time>
      </trkpt>
      <trkpt lat="48.862" lon="2.34248">
        <ele>49.79999923706</ele>
        <time>2015-12-07T19:29:35Z</time>
      </trkpt>
      <trkpt lat="48.86217" lon="2.34239">
        <ele>49.599998474121</ele>
        <time>2015-12-07T19:29:40Z</time>
      </trkpt>
      <trkpt lat="48.86228" lon="2.34217">
        <ele>49.599998474121</ele>
        <time>2015-12-07T19:29:45Z</time>
      </trkpt>
      <trkpt lat="48.86238" lon="2.3419">
        <ele>49.599998474121</ele>
        <time>2015-12-07T19:29:51Z</time>
      </trkpt>
      <trkpt lat="48.86249" lon="2.34168">
        <ele>50</ele>
        <time>2015-12-07T19:29:56Z</time>
      </trkpt>
      <trkpt lat="48.86269" lon="2.34168">
        <ele>50</ele>
        <time>2015-12-07T19:30:03Z</time>
      </trkpt>
      <trkpt lat="48.86287" lon="2.34177">
        <ele>50</ele>
        <time>2015-12-07T19:30:08Z</time>
      </trkpt>
      <trkpt lat="48.86306" lon="2.34185">
        <ele>49.79999923706</ele>
        <time>2015-12-07T19:30:13Z</time>
      </trkpt>
      <trkpt lat="48.86322" lon="2.34203">
        <ele>49.79999923706</ele>
        <time>2015-12-07T19:30:21Z</time>
      </trkpt>
      <trkpt lat="48.86341" lon="2.34212">
        <ele>49.79999923706</ele>
        <time>2015-12-07T19:30:26Z</time>
      </trkpt>
      <trkpt lat="48.8636" lon="2.34218">
        <ele>49.599998474121</ele>
        <time>2015-12-07T19:30:32Z</time>
      </trkpt>
      <trkpt lat="48.86381" lon="2.34224">
        <ele>49.20000076294</ele>
        <time>2015-12-07T19:30:37Z</time>
      </trkpt>
      <trkpt lat="48.86403" lon="2.34231">
        <ele>48.599998474121</ele>
        <time>2015-12-07T19:30:41Z</time>
      </trkpt>
      <trkpt lat="48.86421" lon="2.34247">
        <ele>48.400001525879</ele>
        <time>2015-12-07T19:30:44Z</time>
      </trkpt>
      <trkpt lat="48.8644" lon="2.34256">
        <ele>48</ele>
        <time>2015-12-07T19:30:48Z</time>
      </trkpt>
      <trkpt lat="48.8646" lon="2.34264">
        <ele>47.599998474121</ele>
        <time>2015-12-07T19:30:53Z</time>
      </trkpt>
      <trkpt lat="48.86478" lon="2.34274">
        <ele>47.20000076294</ele>
        <time>2015-12-07T19:30:59Z</time>
      </trkpt>
      <trkpt lat="48.86493" lon="2.34285">
        <ele>47</ele>
        <time>2015-12-07T19:31:05Z</time>
      </trkpt>
      <trkpt lat="48.86511" lon="2.34292">
        <ele>46.599998474121</ele>
        <time>2015-12-07T19:31:11Z</time>
      </trkpt>
      <trkpt lat="48.86532" lon="2.34293">
        <ele>46.599998474121</ele>
        <time>2015-12-07T19:31:17Z</time>
      </trkpt>
      <trkpt lat="48.8655" lon="2.34305">
        <ele>46.599998474121</ele>
        <time>2015-12-07T19:31:22Z</time>
      </trkpt>
      <trkpt lat="48.86564" lon="2.34327">
        <ele>46.599998474121</ele>
        <time>2015-12-07T19:31:25Z</time>
      </trkpt>
      <trkpt lat="48.86584" lon="2.34339">
        <ele>46.79999923706</ele>
        <time>2015-12-07T19:31:30Z</time>
      </trkpt>
      <trkpt lat="48.86605" lon="2.34348">
        <ele>47.20000076294</ele>
        <time>2015-12-07T19:31:35Z</time>
      </trkpt>
      <trkpt lat="48.86626" lon="2.34351">
        <ele>48</ele>
        <time>2015-12-07T19:31:41Z</time>
      </trkpt>
      <trkpt lat="48.86644" lon="2.34366">
        <ele>48.79999923706</ele>
        <time>2015-12-07T19:31:46Z</time>
      </trkpt>
      <trkpt lat="48.86661" lon="2.34373">
        <ele>49.79999923706</ele>
        <time>2015-12-07T19:31:50Z</time>
      </trkpt>
      <trkpt lat="48.8668" lon="2.34375">
        <ele>51</ele>
        <time>2015-12-07T19:31:54Z</time>
      </trkpt>
      <trkpt lat="48.86698" lon="2.34376">
        <ele>51.20000076294</ele>
        <time>2015-12-07T19:31:58Z</time>
      </trkpt>
      <trkpt lat="48.86719" lon="2.34368">
        <ele>50.79999923706</ele>
        <time>2015-12-07T19:32:03Z</time>
      </trkpt>
      <trkpt lat="48.86727" lon="2.34365">
        <ele>50.599998474121</ele>
        <time>2015-12-07T19:32:05Z</time>
      </trkpt>
      <trkpt lat="48.86746" lon="2.34356">
        <ele>50.400001525879</ele>
        <time>2015-12-07T19:32:10Z</time>
      </trkpt>
      <trkpt lat="48.86764" lon="2.34351">
        <ele>50</ele>
        <time>2015-12-07T19:32:14Z</time>
      </trkpt>
      <trkpt lat="48.8677" lon="2.3435">
        <ele>49.79999923706</ele>
        <time>2015-12-07T19:32:15Z</time>
      </trkpt>
      <trkpt lat="48.86791" lon="2.34342">
        <ele>49.20000076294</ele>
        <time>2015-12-07T19:32:19Z</time>
      </trkpt>
      <trkpt lat="48.86811" lon="2.34332">
        <ele>49.400001525879</ele>
        <time>2015-12-07T19:32:23Z</time>
      </trkpt>
      <trkpt lat="48.86829" lon="2.34322">
        <ele>49.599998474121</ele>
        <time>2015-12-07T19:32:27Z</time>
      </trkpt>
      <trkpt lat="48.86848" lon="2.34313">
        <ele>49.20000076294</ele>
        <time>2015-12-07T19:32:31Z</time>
      </trkpt>
      <trkpt lat="48.86855" lon="2.34311">
        <ele>49</ele>
        <time>2015-12-07T19:32:33Z</time>
      </trkpt>
      <trkpt lat="48.86874" lon="2.343">
        <ele>48.79999923706</ele>
        <time>2015-12-07T19:32:38Z</time>
      </trkpt>
      <trkpt lat="48.86895" lon="2.34292">
        <ele>48.599998474121</ele>
        <time>2015-12-07T19:32:42Z</time>
      </trkpt>
      <trkpt lat="48.86914" lon="2.34288">
        <ele>48</ele>
        <time>2015-12-07T19:32:46Z</time>
      </trkpt>
      <trkpt lat="48.86933" lon="2.34278">
        <ele>47.599998474121</ele>
        <time>2015-12-07T19:32:50Z</time>
      </trkpt>
      <trkpt lat="48.86952" lon="2.34273">
        <ele>47.400001525879</ele>
        <time>2015-12-07T19:32:54Z</time>
      </trkpt>
      <trkpt lat="48.86971" lon="2.3427">
        <ele>47.20000076294</ele>
        <time>2015-12-07T19:32:58Z</time>
      </trkpt>
      <trkpt lat="48.86991" lon="2.34259">
        <ele>47.20000076294</ele>
        <time>2015-12-07T19:33:02Z</time>
      </trkpt>
      <trkpt lat="48.86997" lon="2.34257">
        <ele>47.20000076294</ele>
        <time>2015-12-07T19:33:03Z</time>
      </trkpt>
      <trkpt lat="48.87015" lon="2.34258">
        <ele>47.20000076294</ele>
        <time>2015-12-07T19:33:07Z</time>
      </trkpt>
      <trkpt lat="48.87022" lon="2.34259">
        <ele>47.20000076294</ele>
        <time>2015-12-07T19:33:09Z</time>
      </trkpt>
      <trkpt lat="48.87039" lon="2.34264">
        <ele>47.20000076294</ele>
        <time>2015-12-07T19:33:13Z</time>
      </trkpt>
      <trkpt lat="48.8706" lon="2.34275">
        <ele>47.400001525879</ele>
        <time>2015-12-07T19:33:18Z</time>
      </trkpt>
      <trkpt lat="48.87079" lon="2.34281">
        <ele>47.599998474121</ele>
        <time>2015-12-07T19:33:23Z</time>
      </trkpt>
      <trkpt lat="48.87099" lon="2.34286">
        <ele>48</ele>
        <time>2015-12-07T19:33:29Z</time>
      </trkpt>
      <trkpt lat="48.87102" lon="2.34288">
        <ele>48</ele>
        <time>2015-12-07T19:33:30Z</time>
      </trkpt>
      <trkpt lat="48.87123" lon="2.3429">
        <ele>47.79999923706</ele>
        <time>2015-12-07T19:33:34Z</time>
      </trkpt>
      <trkpt lat="48.87126" lon="2.34293">
        <ele>47.79999923706</ele>
        <time>2015-12-07T19:33:36Z</time>
      </trkpt>
      <trkpt lat="48.87141" lon="2.34298">
        <ele>47.599998474121</ele>
        <time>2015-12-07T19:33:42Z</time>
      </trkpt>
      <trkpt lat="48.87147" lon="2.34301">
        <ele>47.599998474121</ele>
        <time>2015-12-07T19:33:44Z</time>
      </trkpt>
      <trkpt lat="48.87168" lon="2.34307">
        <ele>47.400001525879</ele>
        <time>2015-12-07T19:33:49Z</time>
      </trkpt>
      <trkpt lat="48.87189" lon="2.34311">
        <ele>47.400001525879</ele>
        <time>2015-12-07T19:33:54Z</time>
      </trkpt>
      <trkpt lat="48.87207" lon="2.34312">
        <ele>47.20000076294</ele>
        <time>2015-12-07T19:33:58Z</time>
      </trkpt>
      <trkpt lat="48.87229" lon="2.34308">
        <ele>47</ele>
        <time>2015-12-07T19:34:03Z</time>
      </trkpt>
      <trkpt lat="48.87251" lon="2.34308">
        <ele>46.79999923706</ele>
        <time>2015-12-07T19:34:08Z</time>
      </trkpt>
      <trkpt lat="48.87269" lon="2.34304">
        <ele>46.599998474121</ele>
        <time>2015-12-07T19:34:15Z</time>
      </trkpt>
      <trkpt lat="48.87289" lon="2.34296">
        <ele>46.79999923706</ele>
        <time>2015-12-07T19:34:21Z</time>
      </trkpt>
      <trkpt lat="48.8731" lon="2.3429">
        <ele>47</ele>
        <time>2015-12-07T19:34:27Z</time>
      </trkpt>
      <trkpt lat="48.87329" lon="2.3428">
        <ele>47</ele>
        <time>2015-12-07T19:34:30Z</time>
      </trkpt>
      <trkpt lat="48.87349" lon="2.34267">
        <ele>46.79999923706</ele>
        <time>2015-12-07T19:34:33Z</time>
      </trkpt>
      <trkpt lat="48.87367" lon="2.34254">
        <ele>46.79999923706</ele>
        <time>2015-12-07T19:34:37Z</time>
      </trkpt>
      <trkpt lat="48.87391" lon="2.34242">
        <ele>46.20000076294</ele>
        <time>2015-12-07T19:34:41Z</time>
      </trkpt>
      <trkpt lat="48.87399" lon="2.34233">
        <ele>46</ele>
        <time>2015-12-07T19:34:44Z</time>
      </trkpt>
      <trkpt lat="48.87414" lon="2.34226">
        <ele>45.599998474121</ele>
        <time>2015-12-07T19:34:53Z</time>
      </trkpt>
      <trkpt lat="48.87418" lon="2.34233">
        <ele>45.599998474121</ele>
        <time>2015-12-07T19:34:56Z</time>
      </trkpt>
      <trkpt lat="48.87431" lon="2.34251">
        <ele>45.20000076294</ele>
        <time>2015-12-07T19:35:02Z</time>
      </trkpt>
      <trkpt lat="48.87448" lon="2.34262">
        <ele>44.79999923706</ele>
        <time>2015-12-07T19:35:06Z</time>
      </trkpt>
      <trkpt lat="48.87466" lon="2.34274">
        <ele>44.599998474121</ele>
        <time>2015-12-07T19:35:10Z</time>
      </trkpt>
      <trkpt lat="48.87483" lon="2.34294">
        <ele>44.400001525879</ele>
        <time>2015-12-07T19:35:15Z</time>
      </trkpt>
      <trkpt lat="48.87502" lon="2.34309">
        <ele>44.20000076294</ele>
        <time>2015-12-07T19:35:19Z</time>
      </trkpt>
      <trkpt lat="48.8752" lon="2.34327">
        <ele>44</ele>
        <time>2015-12-07T19:35:24Z</time>
      </trkpt>
      <trkpt lat="48.87539" lon="2.34342">
        <ele>44.400001525879</ele>
        <time>2015-12-07T19:35:30Z</time>
      </trkpt>
      <trkpt lat="48.87545" lon="2.3435">
        <ele>44.599998474121</ele>
        <time>2015-12-07T19:35:31Z</time>
      </trkpt>
      <trkpt lat="48.87563" lon="2.3436">
        <ele>45</ele>
        <time>2015-12-07T19:35:34Z</time>
      </trkpt>
      <trkpt lat="48.87567" lon="2.34365">
        <ele>45.20000076294</ele>
        <time>2015-12-07T19:35:35Z</time>
      </trkpt>
      <trkpt lat="48.87582" lon="2.34379">
        <ele>45.599998474121</ele>
        <time>2015-12-07T19:35:39Z</time>
      </trkpt>
      <trkpt lat="48.87586" lon="2.34395">
        <ele>45.599998474121</ele>
        <time>2015-12-07T19:35:43Z</time>
      </trkpt>
      <trkpt lat="48.87595" lon="2.34412">
        <ele>45.79999923706</ele>
        <time>2015-12-07T19:35:47Z</time>
      </trkpt>
      <trkpt lat="48.87614" lon="2.34421">
        <ele>46.400001525879</ele>
        <time>2015-12-07T19:35:52Z</time>
      </trkpt>
      <trkpt lat="48.87627" lon="2.34423">
        <ele>46.79999923706</ele>
        <time>2015-12-07T19:35:56Z</time>
      </trkpt>
      <trkpt lat="48.87629" lon="2.34423">
        <ele>46.79999923706</ele>
        <time>2015-12-07T19:35:57Z</time>
      </trkpt>
      <trkpt lat="48.87648" lon="2.34428">
        <ele>47.400001525879</ele>
        <time>2015-12-07T19:36:05Z</time>
      </trkpt>
      <trkpt lat="48.87669" lon="2.34434">
        <ele>48</ele>
        <time>2015-12-07T19:36:12Z</time>
      </trkpt>
      <trkpt lat="48.87691" lon="2.3444">
        <ele>48.599998474121</ele>
        <time>2015-12-07T19:36:17Z</time>
      </trkpt>
      <trkpt lat="48.87711" lon="2.34445">
        <ele>49.20000076294</ele>
        <time>2015-12-07T19:36:21Z</time>
      </trkpt>
      <trkpt lat="48.87731" lon="2.34449">
        <ele>50.20000076294</ele>
        <time>2015-12-07T19:36:24Z</time>
      </trkpt>
      <trkpt lat="48.87751" lon="2.3445">
        <ele>51.599998474121</ele>
        <time>2015-12-07T19:36:27Z</time>
      </trkpt>
      <trkpt lat="48.8777" lon="2.34456">
        <ele>52.79999923706</ele>
        <time>2015-12-07T19:36:31Z</time>
      </trkpt>
      <trkpt lat="48.87788" lon="2.34471">
        <ele>53.599998474121</ele>
        <time>2015-12-07T19:36:39Z</time>
      </trkpt>
      <trkpt lat="48.87804" lon="2.34484">
        <ele>54.20000076294</ele>
        <time>2015-12-07T19:36:47Z</time>
      </trkpt>
      <trkpt lat="48.87814" lon="2.34494">
        <ele>54.599998474121</ele>
        <time>2015-12-07T19:36:51Z</time>
      </trkpt>
      <trkpt lat="48.8782" lon="2.34499">
        <ele>54.79999923706</ele>
        <time>2015-12-07T19:36:55Z</time>
      </trkpt>
      <trkpt lat="48.87827" lon="2.34506">
        <ele>55.400001525879</ele>
        <time>2015-12-07T19:37:07Z</time>
      </trkpt>
      <trkpt lat="48.87828" lon="2.34506">
        <ele>55.400001525879</ele>
        <time>2015-12-07T19:37:22Z</time>
      </trkpt>
      <trkpt lat="48.87835" lon="2.34514">
        <ele>56.20000076294</ele>
        <time>2015-12-07T19:37:55Z</time>
      </trkpt>
      <trkpt lat="48.87841" lon="2.34521">
        <ele>56.599998474121</ele>
        <time>2015-12-07T19:38:02Z</time>
      </trkpt>
      <trkpt lat="48.87843" lon="2.34525">
        <ele>56.79999923706</ele>
        <time>2015-12-07T19:38:05Z</time>
      </trkpt>
      <trkpt lat="48.87861" lon="2.34519">
        <ele>57.79999923706</ele>
        <time>2015-12-07T19:38:12Z</time>
      </trkpt>
      <trkpt lat="48.87864" lon="2.3452">
        <ele>58</ele>
        <time>2015-12-07T19:38:13Z</time>
      </trkpt>
      <trkpt lat="48.8788" lon="2.34534">
        <ele>59</ele>
        <time>2015-12-07T19:38:22Z</time>
      </trkpt>
      <trkpt lat="48.87898" lon="2.34547">
        <ele>60.20000076294</ele>
        <time>2015-12-07T19:38:29Z</time>
      </trkpt>
      <trkpt lat="48.87921" lon="2.3456">
        <ele>61.599998474121</ele>
        <time>2015-12-07T19:38:35Z</time>
      </trkpt>
      <trkpt lat="48.87931" lon="2.34561">
        <ele>62.400001525879</ele>
        <time>2015-12-07T19:38:37Z</time>
      </trkpt>
      <trkpt lat="48.87947" lon="2.34553">
        <ele>63.400001525879</ele>
        <time>2015-12-07T19:38:41Z</time>
      </trkpt>
      <trkpt lat="48.87959" lon="2.34537">
        <ele>64.199996948242</ele>
        <time>2015-12-07T19:38:46Z</time>
      </trkpt>
      <trkpt lat="48.87977" lon="2.34523">
        <ele>65.199996948242</ele>
        <time>2015-12-07T19:38:51Z</time>
      </trkpt>
      <trkpt lat="48.87989" lon="2.34507">
        <ele>66</ele>
        <time>2015-12-07T19:38:56Z</time>
      </trkpt>
      <trkpt lat="48.87995" lon="2.34492">
        <ele>66.400001525879</ele>
        <time>2015-12-07T19:38:59Z</time>
      </trkpt>
      <trkpt lat="48.88009" lon="2.34468">
        <ele>67.400001525879</ele>
        <time>2015-12-07T19:39:04Z</time>
      </trkpt>
      <trkpt lat="48.88018" lon="2.34441">
        <ele>68.400001525879</ele>
        <time>2015-12-07T19:39:10Z</time>
      </trkpt>
      <trkpt lat="48.88025" lon="2.3441">
        <ele>69</ele>
        <time>2015-12-07T19:39:15Z</time>
      </trkpt>
      <trkpt lat="48.88018" lon="2.3438">
        <ele>68.400001525879</ele>
        <time>2015-12-07T19:39:20Z</time>
      </trkpt>
      <trkpt lat="48.8802" lon="2.34348">
        <ele>68</ele>
        <time>2015-12-07T19:39:25Z</time>
      </trkpt>
      <trkpt lat="48.88027" lon="2.34321">
        <ele>68</ele>
        <time>2015-12-07T19:39:29Z</time>
      </trkpt>
      <trkpt lat="48.88029" lon="2.34315">
        <ele>68</ele>
        <time>2015-12-07T19:39:30Z</time>
      </trkpt>
      <trkpt lat="48.88034" lon="2.34296">
        <ele>68.199996948242</ele>
        <time>2015-12-07T19:39:33Z</time>
      </trkpt>
      <trkpt lat="48.88037" lon="2.34264">
        <ele>67.800003051758</ele>
        <time>2015-12-07T19:39:38Z</time>
      </trkpt>
      <trkpt lat="48.88038" lon="2.34258">
        <ele>67.800003051758</ele>
        <time>2015-12-07T19:39:39Z</time>
      </trkpt>
      <trkpt lat="48.88041" lon="2.34232">
        <ele>68</ele>
        <time>2015-12-07T19:39:42Z</time>
      </trkpt>
      <trkpt lat="48.88045" lon="2.34202">
        <ele>69.199996948242</ele>
        <time>2015-12-07T19:39:46Z</time>
      </trkpt>
      <trkpt lat="48.88047" lon="2.34171">
        <ele>70.199996948242</ele>
        <time>2015-12-07T19:39:50Z</time>
      </trkpt>
      <trkpt lat="48.88053" lon="2.3414">
        <ele>70</ele>
        <time>2015-12-07T19:39:54Z</time>
      </trkpt>
      <trkpt lat="48.88058" lon="2.34107">
        <ele>70</ele>
        <time>2015-12-07T19:39:58Z</time>
      </trkpt>
      <trkpt lat="48.88051" lon="2.34077">
        <ele>70</ele>
        <time>2015-12-07T19:40:01Z</time>
      </trkpt>
      <trkpt lat="48.88052" lon="2.34045">
        <ele>69.199996948242</ele>
        <time>2015-12-07T19:40:05Z</time>
      </trkpt>
      <trkpt lat="48.88057" lon="2.34012">
        <ele>68.599998474121</ele>
        <time>2015-12-07T19:40:10Z</time>
      </trkpt>
      <trkpt lat="48.88063" lon="2.33985">
        <ele>68.199996948242</ele>
        <time>2015-12-07T19:40:14Z</time>
      </trkpt>
      <trkpt lat="48.88073" lon="2.33957">
        <ele>68.199996948242</ele>
        <time>2015-12-07T19:40:18Z</time>
      </trkpt>
      <trkpt lat="48.88081" lon="2.33933">
        <ele>67.800003051758</ele>
        <time>2015-12-07T19:40:22Z</time>
      </trkpt>
      <trkpt lat="48.88093" lon="2.33908">
        <ele>67.599998474121</ele>
        <time>2015-12-07T19:40:26Z</time>
      </trkpt>
      <trkpt lat="48.88106" lon="2.33883">
        <ele>68.400001525879</ele>
        <time>2015-12-07T19:40:30Z</time>
      </trkpt>
      <trkpt lat="48.88117" lon="2.33856">
        <ele>69</ele>
        <time>2015-12-07T19:40:35Z</time>
      </trkpt>
      <trkpt lat="48.88115" lon="2.3385">
        <ele>69</ele>
        <time>2015-12-07T19:40:36Z</time>
      </trkpt>
      <trkpt lat="48.88119" lon="2.33832">
        <ele>69</ele>
        <time>2015-12-07T19:40:39Z</time>
      </trkpt>
      <trkpt lat="48.88113" lon="2.33807">
        <ele>68.800003051758</ele>
        <time>2015-12-07T19:40:44Z</time>
      </trkpt>
      <trkpt lat="48.88098" lon="2.3379">
        <ele>68.199996948242</ele>
        <time>2015-12-07T19:40:47Z</time>
      </trkpt>
      <trkpt lat="48.88095" lon="2.3376">
        <ele>67.800003051758</ele>
        <time>2015-12-07T19:40:54Z</time>
      </trkpt>
      <trkpt lat="48.88097" lon="2.33755">
        <ele>67.800003051758</ele>
        <time>2015-12-07T19:40:55Z</time>
      </trkpt>
      <trkpt lat="48.88106" lon="2.33729">
        <ele>67.599998474121</ele>
        <time>2015-12-07T19:41:00Z</time>
      </trkpt>
      <trkpt lat="48.88115" lon="2.33706">
        <ele>67.199996948242</ele>
        <time>2015-12-07T19:41:04Z</time>
      </trkpt>
      <trkpt lat="48.88123" lon="2.3369">
        <ele>66.800003051758</ele>
        <time>2015-12-07T19:41:07Z</time>
      </trkpt>
      <trkpt lat="48.88127" lon="2.3367">
        <ele>66.400001525879</ele>
        <time>2015-12-07T19:41:12Z</time>
      </trkpt>
      <trkpt lat="48.88124" lon="2.3365">
        <ele>65.800003051758</ele>
        <time>2015-12-07T19:41:17Z</time>
      </trkpt>
      <trkpt lat="48.88128" lon="2.33622">
        <ele>65.199996948242</ele>
        <time>2015-12-07T19:41:22Z</time>
      </trkpt>
      <trkpt lat="48.88137" lon="2.33594">
        <ele>65.400001525879</ele>
        <time>2015-12-07T19:41:27Z</time>
      </trkpt>
      <trkpt lat="48.88146" lon="2.33564">
        <ele>66</ele>
        <time>2015-12-07T19:41:32Z</time>
      </trkpt>
      <trkpt lat="48.88158" lon="2.33536">
        <ele>66.400001525879</ele>
        <time>2015-12-07T19:41:36Z</time>
      </trkpt>
      <trkpt lat="48.88171" lon="2.33509">
        <ele>67.199996948242</ele>
        <time>2015-12-07T19:41:40Z</time>
      </trkpt>
      <trkpt lat="48.88178" lon="2.33488">
        <ele>67.400001525879</ele>
        <time>2015-12-07T19:41:43Z</time>
      </trkpt>
      <trkpt lat="48.88188" lon="2.33459">
        <ele>67</ele>
        <time>2015-12-07T19:41:47Z</time>
      </trkpt>
      <trkpt lat="48.88191" lon="2.33439">
        <ele>66.599998474121</ele>
        <time>2015-12-07T19:41:50Z</time>
      </trkpt>
      <trkpt lat="48.88193" lon="2.33423">
        <ele>66.400001525879</ele>
        <time>2015-12-07T19:41:53Z</time>
      </trkpt>
      <trkpt lat="48.88202" lon="2.33406">
        <ele>66.800003051758</ele>
        <time>2015-12-07T19:41:59Z</time>
      </trkpt>
      <trkpt lat="48.88204" lon="2.334">
        <ele>66.800003051758</ele>
        <time>2015-12-07T19:42:01Z</time>
      </trkpt>
      <trkpt lat="48.88201" lon="2.33381">
        <ele>66.599998474121</ele>
        <time>2015-12-07T19:42:04Z</time>
      </trkpt>
      <trkpt lat="48.88217" lon="2.33364">
        <ele>67.599998474121</ele>
        <time>2015-12-07T19:42:08Z</time>
      </trkpt>
      <trkpt lat="48.88233" lon="2.33351">
        <ele>68.400001525879</ele>
        <time>2015-12-07T19:42:11Z</time>
      </trkpt>
      <trkpt lat="48.88249" lon="2.33335">
        <ele>69</ele>
        <time>2015-12-07T19:42:14Z</time>
      </trkpt>
      <trkpt lat="48.88267" lon="2.33321">
        <ele>69.599998474121</ele>
        <time>2015-12-07T19:42:17Z</time>
      </trkpt>
      <trkpt lat="48.88287" lon="2.33308">
        <ele>70.400001525879</ele>
        <time>2015-12-07T19:42:20Z</time>
      </trkpt>
      <trkpt lat="48.88308" lon="2.33294">
        <ele>70.800003051758</ele>
        <time>2015-12-07T19:42:23Z</time>
      </trkpt>
      <trkpt lat="48.88327" lon="2.33281">
        <ele>71.199996948242</ele>
        <time>2015-12-07T19:42:26Z</time>
      </trkpt>
      <trkpt lat="48.88345" lon="2.3327">
        <ele>71.599998474121</ele>
        <time>2015-12-07T19:42:29Z</time>
      </trkpt>
      <trkpt lat="48.88359" lon="2.33255">
        <ele>72</ele>
        <time>2015-12-07T19:42:39Z</time>
      </trkpt>
      <trkpt lat="48.88373" lon="2.33265">
        <ele>72.199996948242</ele>
        <time>2015-12-07T19:43:09Z</time>
      </trkpt>
      <trkpt lat="48.88377" lon="2.33265">
        <ele>72.199996948242</ele>
        <time>2015-12-07T19:43:12Z</time>
      </trkpt>
      <trkpt lat="48.88388" lon="2.33246">
        <ele>71.599998474121</ele>
        <time>2015-12-07T19:43:25Z</time>
      </trkpt>
      <trkpt lat="48.88394" lon="2.3322">
        <ele>71.199996948242</ele>
        <time>2015-12-07T19:43:31Z</time>
      </trkpt>
      <trkpt lat="48.88401" lon="2.33191">
        <ele>71</ele>
        <time>2015-12-07T19:43:36Z</time>
      </trkpt>
      <trkpt lat="48.88406" lon="2.33163">
        <ele>71</ele>
        <time>2015-12-07T19:43:40Z</time>
      </trkpt>
      <trkpt lat="48.88412" lon="2.33136">
        <ele>71.400001525879</ele>
        <time>2015-12-07T19:43:44Z</time>
      </trkpt>
      <trkpt lat="48.88418" lon="2.33104">
        <ele>72.199996948242</ele>
        <time>2015-12-07T19:43:48Z</time>
      </trkpt>
      <trkpt lat="48.88425" lon="2.33073">
        <ele>72.800003051758</ele>
        <time>2015-12-07T19:43:52Z</time>
      </trkpt>
      <trkpt lat="48.88434" lon="2.33043">
        <ele>72.800003051758</ele>
        <time>2015-12-07T19:43:56Z</time>
      </trkpt>
      <trkpt lat="48.88443" lon="2.33023">
        <ele>73</ele>
        <time>2015-12-07T19:43:59Z</time>
      </trkpt>
      <trkpt lat="48.88452" lon="2.33001">
        <ele>73</ele>
        <time>2015-12-07T19:44:04Z</time>
      </trkpt>
      <trkpt lat="48.88454" lon="2.32995">
        <ele>72.800003051758</ele>
        <time>2015-12-07T19:44:06Z</time>
      </trkpt>
      <trkpt lat="48.8846" lon="2.32982">
        <ele>72.400001525879</ele>
        <time>2015-12-07T19:44:12Z</time>
      </trkpt>
      <trkpt lat="48.88461" lon="2.32979">
        <ele>72.400001525879</ele>
        <time>2015-12-07T19:44:13Z</time>
      </trkpt>
      <trkpt lat="48.88473" lon="2.32957">
        <ele>71.599998474121</ele>
        <time>2015-12-07T19:44:20Z</time>
      </trkpt>
      <trkpt lat="48.8849" lon="2.32941">
        <ele>72.199996948242</ele>
        <time>2015-12-07T19:44:26Z</time>
      </trkpt>
      <trkpt lat="48.88508" lon="2.32932">
        <ele>73</ele>
        <time>2015-12-07T19:44:32Z</time>
      </trkpt>
      <trkpt lat="48.88527" lon="2.32926">
        <ele>73.800003051758</ele>
        <time>2015-12-07T19:44:37Z</time>
      </trkpt>
      <trkpt lat="48.88546" lon="2.32914">
        <ele>74.599998474121</ele>
        <time>2015-12-07T19:44:41Z</time>
      </trkpt>
      <trkpt lat="48.88565" lon="2.329">
        <ele>74.599998474121</ele>
        <time>2015-12-07T19:44:45Z</time>
      </trkpt>
      <trkpt lat="48.88577" lon="2.32889">
        <ele>74.800003051758</ele>
        <time>2015-12-07T19:44:48Z</time>
      </trkpt>
      <trkpt lat="48.88591" lon="2.32878">
        <ele>75.400001525879</ele>
        <time>2015-12-07T19:44:53Z</time>
      </trkpt>
      <trkpt lat="48.88597" lon="2.32874">
        <ele>75.800003051758</ele>
        <time>2015-12-07T19:44:56Z</time>
      </trkpt>
      <trkpt lat="48.88601" lon="2.32869">
        <ele>76.199996948242</ele>
        <time>2015-12-07T19:45:00Z</time>
      </trkpt>
      <trkpt lat="48.88615" lon="2.32845">
        <ele>76.800003051758</ele>
        <time>2015-12-07T19:45:13Z</time>
      </trkpt>
      <trkpt lat="48.88631" lon="2.32827">
        <ele>77.199996948242</ele>
        <time>2015-12-07T19:45:18Z</time>
      </trkpt>
      <trkpt lat="48.88649" lon="2.32807">
        <ele>77</ele>
        <time>2015-12-07T19:45:23Z</time>
      </trkpt>
      <trkpt lat="48.88665" lon="2.32792">
        <ele>77.199996948242</ele>
        <time>2015-12-07T19:45:27Z</time>
      </trkpt>
      <trkpt lat="48.88679" lon="2.32777">
        <ele>77.599998474121</ele>
        <time>2015-12-07T19:45:35Z</time>
      </trkpt>
      <trkpt lat="48.88694" lon="2.32799">
        <ele>77.800003051758</ele>
        <time>2015-12-07T19:45:41Z</time>
      </trkpt>
      <trkpt lat="48.88705" lon="2.32822">
        <ele>77.199996948242</ele>
        <time>2015-12-07T19:45:46Z</time>
      </trkpt>
      <trkpt lat="48.88716" lon="2.32844">
        <ele>76</ele>
        <time>2015-12-07T19:45:50Z</time>
      </trkpt>
      <trkpt lat="48.8873" lon="2.32859">
        <ele>74.400001525879</ele>
        <time>2015-12-07T19:45:54Z</time>
      </trkpt>
      <trkpt lat="48.88751" lon="2.3285">
        <ele>73.800003051758</ele>
        <time>2015-12-07T19:45:58Z</time>
      </trkpt>
      <trkpt lat="48.88763" lon="2.32838">
        <ele>74</ele>
        <time>2015-12-07T19:46:02Z</time>
      </trkpt>
      <trkpt lat="48.8878" lon="2.32822">
        <ele>73.400001525879</ele>
        <time>2015-12-07T19:46:07Z</time>
      </trkpt>
      <trkpt lat="48.88784" lon="2.32809">
        <ele>73</ele>
        <time>2015-12-07T19:46:10Z</time>
      </trkpt>
      <trkpt lat="48.88801" lon="2.32794">
        <ele>71.400001525879</ele>
        <time>2015-12-07T19:46:16Z</time>
      </trkpt>
      <trkpt lat="48.88819" lon="2.32776">
        <ele>70.199996948242</ele>
        <time>2015-12-07T19:46:20Z</time>
      </trkpt>
      <trkpt lat="48.88838" lon="2.32759">
        <ele>69.199996948242</ele>
        <time>2015-12-07T19:46:25Z</time>
      </trkpt>
      <trkpt lat="48.88844" lon="2.32756">
        <ele>68.800003051758</ele>
        <time>2015-12-07T19:46:27Z</time>
      </trkpt>
      <trkpt lat="48.88861" lon="2.32774">
        <ele>67</ele>
        <time>2015-12-07T19:46:32Z</time>
      </trkpt>
      <trkpt lat="48.88869" lon="2.3278">
        <ele>66.599998474121</ele>
        <time>2015-12-07T19:46:34Z</time>
      </trkpt>
      <trkpt lat="48.88878" lon="2.32792">
        <ele>65.800003051758</ele>
        <time>2015-12-07T19:46:38Z</time>
      </trkpt>
      <trkpt lat="48.88891" lon="2.32804">
        <ele>65.199996948242</ele>
        <time>2015-12-07T19:47:12Z</time>
      </trkpt>
      <trkpt lat="48.88908" lon="2.3282">
        <ele>64.199996948242</ele>
        <time>2015-12-07T19:47:17Z</time>
      </trkpt>
      <trkpt lat="48.88927" lon="2.32837">
        <ele>63.20000076294</ele>
        <time>2015-12-07T19:47:21Z</time>
      </trkpt>
      <trkpt lat="48.88948" lon="2.32854">
        <ele>62.79999923706</ele>
        <time>2015-12-07T19:47:25Z</time>
      </trkpt>
      <trkpt lat="48.8897" lon="2.32869">
        <ele>62.79999923706</ele>
        <time>2015-12-07T19:47:29Z</time>
      </trkpt>
      <trkpt lat="48.88974" lon="2.32874">
        <ele>62.79999923706</ele>
        <time>2015-12-07T19:47:30Z</time>
      </trkpt>
      <trkpt lat="48.88987" lon="2.32895">
        <ele>62.79999923706</ele>
        <time>2015-12-07T19:47:34Z</time>
      </trkpt>
      <trkpt lat="48.89" lon="2.32916">
        <ele>62.79999923706</ele>
        <time>2015-12-07T19:47:40Z</time>
      </trkpt>
      <trkpt lat="48.89002" lon="2.32919">
        <ele>62.79999923706</ele>
        <time>2015-12-07T19:47:42Z</time>
      </trkpt>
      <trkpt lat="48.89012" lon="2.32918">
        <ele>62.79999923706</ele>
        <time>2015-12-07T19:49:00Z</time>
      </trkpt>
      <trkpt lat="48.89015" lon="2.32921">
        <ele>62.79999923706</ele>
        <time>2015-12-07T19:49:46Z</time>
      </trkpt>
      <trkpt lat="48.89018" lon="2.32933">
        <ele>63</ele>
        <time>2015-12-07T19:50:30Z</time>
      </trkpt>
      <trkpt lat="48.8902" lon="2.3294">
        <ele>63</ele>
        <time>2015-12-07T19:50:33Z</time>
      </trkpt>
      <trkpt lat="48.89026" lon="2.32969">
        <ele>63</ele>
        <time>2015-12-07T19:50:40Z</time>
      </trkpt>
      <trkpt lat="48.89036" lon="2.32998">
        <ele>63.400001525879</ele>
        <time>2015-12-07T19:50:45Z</time>
      </trkpt>
      <trkpt lat="48.89038" lon="2.33004">
        <ele>63.599998474121</ele>
        <time>2015-12-07T19:50:46Z</time>
      </trkpt>
      <trkpt lat="48.89049" lon="2.33028">
        <ele>64</ele>
        <time>2015-12-07T19:50:50Z</time>
      </trkpt>
      <trkpt lat="48.89058" lon="2.33056">
        <ele>64.800003051758</ele>
        <time>2015-12-07T19:50:54Z</time>
      </trkpt>
      <trkpt lat="48.89068" lon="2.3308">
        <ele>65.599998474121</ele>
        <time>2015-12-07T19:50:58Z</time>
      </trkpt>
      <trkpt lat="48.89075" lon="2.33107">
        <ele>66.599998474121</ele>
        <time>2015-12-07T19:51:02Z</time>
      </trkpt>
      <trkpt lat="48.89086" lon="2.33135">
        <ele>67.800003051758</ele>
        <time>2015-12-07T19:51:07Z</time>
      </trkpt>
      <trkpt lat="48.89094" lon="2.33151">
        <ele>68.400001525879</ele>
        <time>2015-12-07T19:51:10Z</time>
      </trkpt>
      <trkpt lat="48.89106" lon="2.33172">
        <ele>69.199996948242</ele>
        <time>2015-12-07T19:51:14Z</time>
      </trkpt>
      <trkpt lat="48.8912" lon="2.33193">
        <ele>69.599998474121</ele>
        <time>2015-12-07T19:51:18Z</time>
      </trkpt>
      <trkpt lat="48.89132" lon="2.33216">
        <ele>70.199996948242</ele>
        <time>2015-12-07T19:51:22Z</time>
      </trkpt>
      <trkpt lat="48.89134" lon="2.33221">
        <ele>70.400001525879</ele>
        <time>2015-12-07T19:51:23Z</time>
      </trkpt>
      <trkpt lat="48.89139" lon="2.33234">
        <ele>70.599998474121</ele>
        <time>2015-12-07T19:51:25Z</time>
      </trkpt>
      <trkpt lat="48.8915" lon="2.33259">
        <ele>71.199996948242</ele>
        <time>2015-12-07T19:51:29Z</time>
      </trkpt>
      <trkpt lat="48.89159" lon="2.33278">
        <ele>71.800003051758</ele>
        <time>2015-12-07T19:51:32Z</time>
      </trkpt>
      <trkpt lat="48.89171" lon="2.33302">
        <ele>72.400001525879</ele>
        <time>2015-12-07T19:51:36Z</time>
      </trkpt>
      <trkpt lat="48.89182" lon="2.33325">
        <ele>72.800003051758</ele>
        <time>2015-12-07T19:51:40Z</time>
      </trkpt>
      <trkpt lat="48.89183" lon="2.33331">
        <ele>73</ele>
        <time>2015-12-07T19:51:41Z</time>
      </trkpt>
      <trkpt lat="48.89188" lon="2.33341">
        <ele>73.199996948242</ele>
        <time>2015-12-07T19:51:43Z</time>
      </trkpt>
      <trkpt lat="48.89203" lon="2.33355">
        <ele>73.199996948242</ele>
        <time>2015-12-07T19:51:49Z</time>
      </trkpt>
      <trkpt lat="48.89206" lon="2.33356">
        <ele>73.199996948242</ele>
        <time>2015-12-07T19:51:50Z</time>
      </trkpt>
      <trkpt lat="48.89221" lon="2.33356">
        <ele>72.800003051758</ele>
        <time>2015-12-07T19:51:54Z</time>
      </trkpt>
      <trkpt lat="48.89234" lon="2.33359">
        <ele>72.599998474121</ele>
        <time>2015-12-07T19:51:58Z</time>
      </trkpt>
      <trkpt lat="48.89256" lon="2.33366">
        <ele>72.199996948242</ele>
        <time>2015-12-07T19:52:03Z</time>
      </trkpt>
      <trkpt lat="48.89274" lon="2.33366">
        <ele>71.800003051758</ele>
        <time>2015-12-07T19:52:07Z</time>
      </trkpt>
      <trkpt lat="48.89288" lon="2.33367">
        <ele>71.199996948242</ele>
        <time>2015-12-07T19:52:11Z</time>
      </trkpt>
      <trkpt lat="48.89305" lon="2.33347">
        <ele>70.199996948242</ele>
        <time>2015-12-07T19:52:16Z</time>
      </trkpt>
      <trkpt lat="48.89321" lon="2.33325">
        <ele>69.800003051758</ele>
        <time>2015-12-07T19:52:21Z</time>
      </trkpt>
      <trkpt lat="48.89336" lon="2.33308">
        <ele>69.199996948242</ele>
        <time>2015-12-07T19:52:26Z</time>
      </trkpt>
      <trkpt lat="48.89343" lon="2.33301">
        <ele>68.599998474121</ele>
        <time>2015-12-07T19:52:28Z</time>
      </trkpt>
      <trkpt lat="48.8936" lon="2.33282">
        <ele>67.199996948242</ele>
        <time>2015-12-07T19:52:33Z</time>
      </trkpt>
      <trkpt lat="48.89376" lon="2.33266">
        <ele>66.800003051758</ele>
        <time>2015-12-07T19:52:38Z</time>
      </trkpt>
      <trkpt lat="48.89385" lon="2.33261">
        <ele>66.400001525879</ele>
        <time>2015-12-07T19:52:41Z</time>
      </trkpt>
      <trkpt lat="48.89405" lon="2.3327">
        <ele>66.400001525879</ele>
        <time>2015-12-07T19:52:45Z</time>
      </trkpt>
      <trkpt lat="48.89422" lon="2.33289">
        <ele>67.400001525879</ele>
        <time>2015-12-07T19:52:50Z</time>
      </trkpt>
      <trkpt lat="48.89429" lon="2.33307">
        <ele>68.599998474121</ele>
        <time>2015-12-07T19:52:53Z</time>
      </trkpt>
      <trkpt lat="48.89433" lon="2.33319">
        <ele>69.400001525879</ele>
        <time>2015-12-07T19:52:55Z</time>
      </trkpt>
      <trkpt lat="48.89441" lon="2.33346">
        <ele>69.800003051758</ele>
        <time>2015-12-07T19:52:59Z</time>
      </trkpt>
      <trkpt lat="48.89446" lon="2.33373">
        <ele>69</ele>
        <time>2015-12-07T19:53:03Z</time>
      </trkpt>
      <trkpt lat="48.89452" lon="2.33406">
        <ele>68.199996948242</ele>
        <time>2015-12-07T19:53:08Z</time>
      </trkpt>
      <trkpt lat="48.89458" lon="2.33435">
        <ele>67</ele>
        <time>2015-12-07T19:53:12Z</time>
      </trkpt>
      <trkpt lat="48.89459" lon="2.33443">
        <ele>66.800003051758</ele>
        <time>2015-12-07T19:53:13Z</time>
      </trkpt>
      <trkpt lat="48.89462" lon="2.33476">
        <ele>66.199996948242</ele>
        <time>2015-12-07T19:53:17Z</time>
      </trkpt>
      <trkpt lat="48.89468" lon="2.33509">
        <ele>65.599998474121</ele>
        <time>2015-12-07T19:53:21Z</time>
      </trkpt>
      <trkpt lat="48.89475" lon="2.33536">
        <ele>65.400001525879</ele>
        <time>2015-12-07T19:53:25Z</time>
      </trkpt>
      <trkpt lat="48.89476" lon="2.33541">
        <ele>65.400001525879</ele>
        <time>2015-12-07T19:53:26Z</time>
      </trkpt>
      <trkpt lat="48.89483" lon="2.33569">
        <ele>65</ele>
        <time>2015-12-07T19:53:32Z</time>
      </trkpt>
      <trkpt lat="48.89486" lon="2.33596">
        <ele>64.800003051758</ele>
        <time>2015-12-07T19:53:38Z</time>
      </trkpt>
      <trkpt lat="48.89487" lon="2.33601">
        <ele>64.800003051758</ele>
        <time>2015-12-07T19:53:39Z</time>
      </trkpt>
      <trkpt lat="48.8949" lon="2.33632">
        <ele>65</ele>
        <time>2015-12-07T19:53:44Z</time>
      </trkpt>
      <trkpt lat="48.89492" lon="2.33645">
        <ele>64.800003051758</ele>
        <time>2015-12-07T19:53:46Z</time>
      </trkpt>
      <trkpt lat="48.89494" lon="2.33652">
        <ele>64.800003051758</ele>
        <time>2015-12-07T19:53:47Z</time>
      </trkpt>
      <trkpt lat="48.895" lon="2.33673">
        <ele>64.400001525879</ele>
        <time>2015-12-07T19:53:50Z</time>
      </trkpt>
      <trkpt lat="48.89508" lon="2.337">
        <ele>63.79999923706</ele>
        <time>2015-12-07T19:53:54Z</time>
      </trkpt>
      <trkpt lat="48.89513" lon="2.33712">
        <ele>63.599998474121</ele>
        <time>2015-12-07T19:53:56Z</time>
      </trkpt>
      <trkpt lat="48.89514" lon="2.33741">
        <ele>63.400001525879</ele>
        <time>2015-12-07T19:54:02Z</time>
      </trkpt>
      <trkpt lat="48.8952" lon="2.33754">
        <ele>62.79999923706</ele>
        <time>2015-12-07T19:54:10Z</time>
      </trkpt>
      <trkpt lat="48.89528" lon="2.33778">
        <ele>62</ele>
        <time>2015-12-07T19:54:17Z</time>
      </trkpt>
      <trkpt lat="48.89538" lon="2.33807">
        <ele>61.20000076294</ele>
        <time>2015-12-07T19:54:23Z</time>
      </trkpt>
      <trkpt lat="48.89544" lon="2.33839">
        <ele>60</ele>
        <time>2015-12-07T19:54:28Z</time>
      </trkpt>
      <trkpt lat="48.89552" lon="2.33864">
        <ele>59.400001525879</ele>
        <time>2015-12-07T19:54:32Z</time>
      </trkpt>
      <trkpt lat="48.89557" lon="2.33891">
        <ele>59.20000076294</ele>
        <time>2015-12-07T19:54:36Z</time>
      </trkpt>
      <trkpt lat="48.89563" lon="2.33918">
        <ele>59</ele>
        <time>2015-12-07T19:54:40Z</time>
      </trkpt>
      <trkpt lat="48.89568" lon="2.33944">
        <ele>59</ele>
        <time>2015-12-07T19:54:44Z</time>
      </trkpt>
      <trkpt lat="48.89567" lon="2.33971">
        <ele>59.20000076294</ele>
        <time>2015-12-07T19:54:48Z</time>
      </trkpt>
      <trkpt lat="48.89569" lon="2.34002">
        <ele>59.79999923706</ele>
        <time>2015-12-07T19:54:52Z</time>
      </trkpt>
      <trkpt lat="48.8957" lon="2.34032">
        <ele>59.400001525879</ele>
        <time>2015-12-07T19:54:56Z</time>
      </trkpt>
      <trkpt lat="48.89571" lon="2.34046">
        <ele>59.20000076294</ele>
        <time>2015-12-07T19:54:58Z</time>
      </trkpt>
      <trkpt lat="48.89572" lon="2.34074">
        <ele>59</ele>
        <time>2015-12-07T19:55:02Z</time>
      </trkpt>
      <trkpt lat="48.89575" lon="2.34102">
        <ele>59.400001525879</ele>
        <time>2015-12-07T19:55:06Z</time>
      </trkpt>
      <trkpt lat="48.89577" lon="2.34135">
        <ele>60</ele>
        <time>2015-12-07T19:55:11Z</time>
      </trkpt>
      <trkpt lat="48.89578" lon="2.34141">
        <ele>60</ele>
        <time>2015-12-07T19:55:12Z</time>
      </trkpt>
      <trkpt lat="48.8958" lon="2.34171">
        <ele>60</ele>
        <time>2015-12-07T19:55:17Z</time>
      </trkpt>
      <trkpt lat="48.89581" lon="2.34199">
        <ele>60</ele>
        <time>2015-12-07T19:55:21Z</time>
      </trkpt>
      <trkpt lat="48.89581" lon="2.34228">
        <ele>59.79999923706</ele>
        <time>2015-12-07T19:55:25Z</time>
      </trkpt>
      <trkpt lat="48.8958" lon="2.34261">
        <ele>59.400001525879</ele>
        <time>2015-12-07T19:55:29Z</time>
      </trkpt>
      <trkpt lat="48.8958" lon="2.34277">
        <ele>59.20000076294</ele>
        <time>2015-12-07T19:55:31Z</time>
      </trkpt>
      <trkpt lat="48.89579" lon="2.34305">
        <ele>59</ele>
        <time>2015-12-07T19:55:35Z</time>
      </trkpt>
      <trkpt lat="48.8958" lon="2.34317">
        <ele>58.79999923706</ele>
        <time>2015-12-07T19:55:37Z</time>
      </trkpt>
      <trkpt lat="48.8958" lon="2.34346">
        <ele>58.79999923706</ele>
        <time>2015-12-07T19:55:42Z</time>
      </trkpt>
      <trkpt lat="48.8958" lon="2.34374">
        <ele>59.20000076294</ele>
        <time>2015-12-07T19:55:46Z</time>
      </trkpt>
      <trkpt lat="48.89579" lon="2.34394">
        <ele>59.400001525879</ele>
        <time>2015-12-07T19:55:49Z</time>
      </trkpt>
      <trkpt lat="48.89579" lon="2.34424">
        <ele>59.599998474121</ele>
        <time>2015-12-07T19:55:53Z</time>
      </trkpt>
      <trkpt lat="48.89579" lon="2.34457">
        <ele>59.599998474121</ele>
        <time>2015-12-07T19:55:57Z</time>
      </trkpt>
      <trkpt lat="48.89578" lon="2.3449">
        <ele>59.599998474121</ele>
        <time>2015-12-07T19:56:01Z</time>
      </trkpt>
      <trkpt lat="48.89579" lon="2.34521">
        <ele>59.400001525879</ele>
        <time>2015-12-07T19:56:05Z</time>
      </trkpt>
      <trkpt lat="48.89578" lon="2.34528">
        <ele>59.400001525879</ele>
        <time>2015-12-07T19:56:06Z</time>
      </trkpt>
      <trkpt lat="48.89578" lon="2.3456">
        <ele>58.79999923706</ele>
        <time>2015-12-07T19:56:11Z</time>
      </trkpt>
      <trkpt lat="48.89573" lon="2.34587">
        <ele>57.79999923706</ele>
        <time>2015-12-07T19:56:18Z</time>
      </trkpt>
      <trkpt lat="48.89569" lon="2.34605">
        <ele>57.400001525879</ele>
        <time>2015-12-07T19:56:25Z</time>
      </trkpt>
      <trkpt lat="48.89569" lon="2.34611">
        <ele>57.20000076294</ele>
        <time>2015-12-07T19:56:27Z</time>
      </trkpt>
      <trkpt lat="48.89573" lon="2.34624">
        <ele>57</ele>
        <time>2015-12-07T19:56:31Z</time>
      </trkpt>
      <trkpt lat="48.89576" lon="2.34627">
        <ele>56.79999923706</ele>
        <time>2015-12-07T19:56:32Z</time>
      </trkpt>
      <trkpt lat="48.89586" lon="2.34642">
        <ele>56.599998474121</ele>
        <time>2015-12-07T19:56:37Z</time>
      </trkpt>
      <trkpt lat="48.89605" lon="2.34637">
        <ele>56.599998474121</ele>
        <time>2015-12-07T19:56:44Z</time>
      </trkpt>
      <trkpt lat="48.89625" lon="2.34636">
        <ele>56.20000076294</ele>
        <time>2015-12-07T19:56:50Z</time>
      </trkpt>
      <trkpt lat="48.89645" lon="2.34648">
        <ele>55.400001525879</ele>
        <time>2015-12-07T19:56:58Z</time>
      </trkpt>
      <trkpt lat="48.89664" lon="2.34658">
        <ele>54.79999923706</ele>
        <time>2015-12-07T19:57:03Z</time>
      </trkpt>
      <trkpt lat="48.89683" lon="2.34667">
        <ele>54.20000076294</ele>
        <time>2015-12-07T19:57:08Z</time>
      </trkpt>
      <trkpt lat="48.89703" lon="2.34678">
        <ele>53.599998474121</ele>
        <time>2015-12-07T19:57:12Z</time>
      </trkpt>
      <trkpt lat="48.89721" lon="2.34687">
        <ele>53.20000076294</ele>
        <time>2015-12-07T19:57:17Z</time>
      </trkpt>
      <trkpt lat="48.8974" lon="2.34696">
        <ele>52.79999923706</ele>
        <time>2015-12-07T19:57:22Z</time>
      </trkpt>
      <trkpt lat="48.8976" lon="2.34704">
        <ele>52.400001525879</ele>
        <time>2015-12-07T19:57:28Z</time>
      </trkpt>
      <trkpt lat="48.89775" lon="2.34729">
        <ele>52</ele>
        <time>2015-12-07T19:57:31Z</time>
      </trkpt>
      <trkpt lat="48.89781" lon="2.34759">
        <ele>51.400001525879</ele>
        <time>2015-12-07T19:57:34Z</time>
      </trkpt>
      <trkpt lat="48.89787" lon="2.34795">
        <ele>50.20000076294</ele>
        <time>2015-12-07T19:57:38Z</time>
      </trkpt>
      <trkpt lat="48.89789" lon="2.34829">
        <ele>49.20000076294</ele>
        <time>2015-12-07T19:57:41Z</time>
      </trkpt>
      <trkpt lat="48.89792" lon="2.34865">
        <ele>49.20000076294</ele>
        <time>2015-12-07T19:57:44Z</time>
      </trkpt>
      <trkpt lat="48.89792" lon="2.34905">
        <ele>48.20000076294</ele>
        <time>2015-12-07T19:57:47Z</time>
      </trkpt>
      <trkpt lat="48.89792" lon="2.34933">
        <ele>47.599998474121</ele>
        <time>2015-12-07T19:57:49Z</time>
      </trkpt>
      <trkpt lat="48.89793" lon="2.3496">
        <ele>47.79999923706</ele>
        <time>2015-12-07T19:57:51Z</time>
      </trkpt>
      <trkpt lat="48.89791" lon="2.34988">
        <ele>48.20000076294</ele>
        <time>2015-12-07T19:57:53Z</time>
      </trkpt>
      <trkpt lat="48.89792" lon="2.35001">
        <ele>48.20000076294</ele>
        <time>2015-12-07T19:57:54Z</time>
      </trkpt>
      <trkpt lat="48.89792" lon="2.35029">
        <ele>48</ele>
        <time>2015-12-07T19:57:56Z</time>
      </trkpt>
      <trkpt lat="48.89792" lon="2.35057">
        <ele>47.599998474121</ele>
        <time>2015-12-07T19:57:58Z</time>
      </trkpt>
      <trkpt lat="48.89792" lon="2.35085">
        <ele>47.400001525879</ele>
        <time>2015-12-07T19:58:00Z</time>
      </trkpt>
      <trkpt lat="48.89793" lon="2.35112">
        <ele>48.20000076294</ele>
        <time>2015-12-07T19:58:02Z</time>
      </trkpt>
      <trkpt lat="48.89793" lon="2.3514">
        <ele>49.400001525879</ele>
        <time>2015-12-07T19:58:04Z</time>
      </trkpt>
      <trkpt lat="48.89793" lon="2.35177">
        <ele>50.20000076294</ele>
        <time>2015-12-07T19:58:07Z</time>
      </trkpt>
      <trkpt lat="48.89794" lon="2.35213">
        <ele>49.599998474121</ele>
        <time>2015-12-07T19:58:11Z</time>
      </trkpt>
      <trkpt lat="48.89797" lon="2.35245">
        <ele>49</ele>
        <time>2015-12-07T19:58:16Z</time>
      </trkpt>
      <trkpt lat="48.89797" lon="2.3525">
        <ele>49</ele>
        <time>2015-12-07T19:58:18Z</time>
      </trkpt>
      <trkpt lat="48.89802" lon="2.35252">
        <ele>48.599998474121</ele>
        <time>2015-12-07T19:59:02Z</time>
      </trkpt>
      <trkpt lat="48.89819" lon="2.3526">
        <ele>47.20000076294</ele>
        <time>2015-12-07T19:59:12Z</time>
      </trkpt>
      <trkpt lat="48.89837" lon="2.35258">
        <ele>45.599998474121</ele>
        <time>2015-12-07T19:59:37Z</time>
      </trkpt>
      <trkpt lat="48.89856" lon="2.35253">
        <ele>44</ele>
        <time>2015-12-07T19:59:44Z</time>
      </trkpt>
      <trkpt lat="48.89875" lon="2.35249">
        <ele>44.20000076294</ele>
        <time>2015-12-07T19:59:49Z</time>
      </trkpt>
      <trkpt lat="48.89894" lon="2.35247">
        <ele>44.400001525879</ele>
        <time>2015-12-07T19:59:53Z</time>
      </trkpt>
      <trkpt lat="48.89915" lon="2.35245">
        <ele>44.79999923706</ele>
        <time>2015-12-07T19:59:57Z</time>
      </trkpt>
      <trkpt lat="48.89937" lon="2.35238">
        <ele>45.20000076294</ele>
        <time>2015-12-07T20:00:01Z</time>
      </trkpt>
      <trkpt lat="48.89958" lon="2.35231">
        <ele>45.79999923706</ele>
        <time>2015-12-07T20:00:05Z</time>
      </trkpt>
      <trkpt lat="48.89968" lon="2.35227">
        <ele>46.20000076294</ele>
        <time>2015-12-07T20:00:07Z</time>
      </trkpt>
      <trkpt lat="48.89989" lon="2.35225">
        <ele>46.79999923706</ele>
        <time>2015-12-07T20:00:11Z</time>
      </trkpt>
      <trkpt lat="48.90004" lon="2.35223">
        <ele>47.20000076294</ele>
        <time>2015-12-07T20:00:14Z</time>
      </trkpt>
      <trkpt lat="48.90023" lon="2.35218">
        <ele>48.400001525879</ele>
        <time>2015-12-07T20:00:18Z</time>
      </trkpt>
      <trkpt lat="48.90045" lon="2.35213">
        <ele>48.20000076294</ele>
        <time>2015-12-07T20:00:22Z</time>
      </trkpt>
      <trkpt lat="48.90066" lon="2.35201">
        <ele>48.20000076294</ele>
        <time>2015-12-07T20:00:26Z</time>
      </trkpt>
      <trkpt lat="48.90087" lon="2.35194">
        <ele>47.599998474121</ele>
        <time>2015-12-07T20:00:30Z</time>
      </trkpt>
      <trkpt lat="48.90106" lon="2.35179">
        <ele>47.400001525879</ele>
        <time>2015-12-07T20:00:35Z</time>
      </trkpt>
      <trkpt lat="48.90114" lon="2.35184">
        <ele>47</ele>
        <time>2015-12-07T20:00:36Z</time>
      </trkpt>
      <trkpt lat="48.90134" lon="2.35181">
        <ele>46.20000076294</ele>
        <time>2015-12-07T20:00:40Z</time>
      </trkpt>
      <trkpt lat="48.90153" lon="2.35177">
        <ele>45.20000076294</ele>
        <time>2015-12-07T20:00:44Z</time>
      </trkpt>
      <trkpt lat="48.90168" lon="2.35176">
        <ele>44.599998474121</ele>
        <time>2015-12-07T20:00:48Z</time>
      </trkpt>
      <trkpt lat="48.90181" lon="2.35177">
        <ele>44</ele>
        <time>2015-12-07T20:00:51Z</time>
      </trkpt>
      <trkpt lat="48.902" lon="2.35175">
        <ele>43.79999923706</ele>
        <time>2015-12-07T20:00:55Z</time>
      </trkpt>
      <trkpt lat="48.90218" lon="2.35171">
        <ele>42.79999923706</ele>
        <time>2015-12-07T20:00:59Z</time>
      </trkpt>
      <trkpt lat="48.90226" lon="2.3517">
        <ele>42.400001525879</ele>
        <time>2015-12-07T20:01:01Z</time>
      </trkpt>
      <trkpt lat="48.90241" lon="2.35177">
        <ele>41.79999923706</ele>
        <time>2015-12-07T20:01:05Z</time>
      </trkpt>
      <trkpt lat="48.90258" lon="2.3518">
        <ele>41.20000076294</ele>
        <time>2015-12-07T20:01:10Z</time>
      </trkpt>
      <trkpt lat="48.90262" lon="2.35179">
        <ele>41</ele>
        <time>2015-12-07T20:01:11Z</time>
      </trkpt>
      <trkpt lat="48.90274" lon="2.35177">
        <ele>40.400001525879</ele>
        <time>2015-12-07T20:01:14Z</time>
      </trkpt>
      <trkpt lat="48.90282" lon="2.35175">
        <ele>40.20000076294</ele>
        <time>2015-12-07T20:01:16Z</time>
      </trkpt>
      <trkpt lat="48.903" lon="2.35165">
        <ele>39.79999923706</ele>
        <time>2015-12-07T20:01:21Z</time>
      </trkpt>
      <trkpt lat="48.90301" lon="2.35163">
        <ele>39.599998474121</ele>
        <time>2015-12-07T20:01:22Z</time>
      </trkpt>
      <trkpt lat="48.90309" lon="2.3515">
        <ele>40</ele>
        <time>2015-12-07T20:01:27Z</time>
      </trkpt>
      <trkpt lat="48.90316" lon="2.35119">
        <ele>40.599998474121</ele>
        <time>2015-12-07T20:01:33Z</time>
      </trkpt>
      <trkpt lat="48.90319" lon="2.35092">
        <ele>40.79999923706</ele>
        <time>2015-12-07T20:01:38Z</time>
      </trkpt>
      <trkpt lat="48.9032" lon="2.35062">
        <ele>41.20000076294</ele>
        <time>2015-12-07T20:01:43Z</time>
      </trkpt>
      <trkpt lat="48.90322" lon="2.35032">
        <ele>41.400001525879</ele>
        <time>2015-12-07T20:01:47Z</time>
      </trkpt>
      <trkpt lat="48.90328" lon="2.34996">
        <ele>41.79999923706</ele>
        <time>2015-12-07T20:01:51Z</time>
      </trkpt>
      <trkpt lat="48.9033" lon="2.34962">
        <ele>42.400001525879</ele>
        <time>2015-12-07T20:01:55Z</time>
      </trkpt>
      <trkpt lat="48.90331" lon="2.34954">
        <ele>42.599998474121</ele>
        <time>2015-12-07T20:01:56Z</time>
      </trkpt>
      <trkpt lat="48.90335" lon="2.34938">
        <ele>43</ele>
        <time>2015-12-07T20:01:58Z</time>
      </trkpt>
      <trkpt lat="48.9034" lon="2.34908">
        <ele>43.599998474121</ele>
        <time>2015-12-07T20:02:02Z</time>
      </trkpt>
      <trkpt lat="48.90341" lon="2.34888">
        <ele>44</ele>
        <time>2015-12-07T20:02:05Z</time>
      </trkpt>
      <trkpt lat="48.90343" lon="2.34875">
        <ele>44.20000076294</ele>
        <time>2015-12-07T20:02:08Z</time>
      </trkpt>
      <trkpt lat="48.90346" lon="2.3487">
        <ele>44.400001525879</ele>
        <time>2015-12-07T20:02:15Z</time>
      </trkpt>
      <trkpt lat="48.90345" lon="2.3487">
        <ele>44.400001525879</ele>
        <time>2015-12-07T20:02:16Z</time>
      </trkpt>
      <trkpt lat="48.90358" lon="2.34876">
        <ele>43.79999923706</ele>
        <time>2015-12-07T20:02:30Z</time>
      </trkpt>
      <trkpt lat="48.90379" lon="2.34889">
        <ele>43.400001525879</ele>
        <time>2015-12-07T20:02:35Z</time>
      </trkpt>
      <trkpt lat="48.90399" lon="2.34903">
        <ele>42.79999923706</ele>
        <time>2015-12-07T20:02:40Z</time>
      </trkpt>
      <trkpt lat="48.90417" lon="2.34913">
        <ele>42.400001525879</ele>
        <time>2015-12-07T20:02:44Z</time>
      </trkpt>
      <trkpt lat="48.90434" lon="2.34924">
        <ele>41.79999923706</ele>
        <time>2015-12-07T20:02:48Z</time>
      </trkpt>
      <trkpt lat="48.90448" lon="2.34927">
        <ele>41.20000076294</ele>
        <time>2015-12-07T20:02:51Z</time>
      </trkpt>
      <trkpt lat="48.90468" lon="2.34911">
        <ele>41.400001525879</ele>
        <time>2015-12-07T20:02:56Z</time>
      </trkpt>
      <trkpt lat="48.90476" lon="2.34896">
        <ele>41.400001525879</ele>
        <time>2015-12-07T20:02:58Z</time>
      </trkpt>
      <trkpt lat="48.90487" lon="2.3487">
        <ele>41.400001525879</ele>
        <time>2015-12-07T20:03:01Z</time>
      </trkpt>
      <trkpt lat="48.90498" lon="2.34846">
        <ele>41.400001525879</ele>
        <time>2015-12-07T20:03:04Z</time>
      </trkpt>
      <trkpt lat="48.90508" lon="2.34822">
        <ele>41.20000076294</ele>
        <time>2015-12-07T20:03:07Z</time>
      </trkpt>
      <trkpt lat="48.90519" lon="2.34797">
        <ele>40.599998474121</ele>
        <time>2015-12-07T20:03:10Z</time>
      </trkpt>
      <trkpt lat="48.90532" lon="2.3477">
        <ele>40</ele>
        <time>2015-12-07T20:03:13Z</time>
      </trkpt>
      <trkpt lat="48.90543" lon="2.34743">
        <ele>39.79999923706</ele>
        <time>2015-12-07T20:03:16Z</time>
      </trkpt>
      <trkpt lat="48.9055" lon="2.34728">
        <ele>39.599998474121</ele>
        <time>2015-12-07T20:03:19Z</time>
      </trkpt>
      <trkpt lat="48.90558" lon="2.34732">
        <ele>39.599998474121</ele>
        <time>2015-12-07T20:03:24Z</time>
      </trkpt>
      <trkpt lat="48.9056" lon="2.34734">
        <ele>39.599998474121</ele>
        <time>2015-12-07T20:03:25Z</time>
      </trkpt>
      <trkpt lat="48.90579" lon="2.34748">
        <ele>39.400001525879</ele>
        <time>2015-12-07T20:03:31Z</time>
      </trkpt>
      <trkpt lat="48.90583" lon="2.34749">
        <ele>39.20000076294</ele>
        <time>2015-12-07T20:03:32Z</time>
      </trkpt>
      <trkpt lat="48.90596" lon="2.34733">
        <ele>39.20000076294</ele>
        <time>2015-12-07T20:03:36Z</time>
      </trkpt>
      <trkpt lat="48.90603" lon="2.34716">
        <ele>39</ele>
        <time>2015-12-07T20:03:39Z</time>
      </trkpt>
      <trkpt lat="48.90607" lon="2.34705">
        <ele>39</ele>
        <time>2015-12-07T20:03:41Z</time>
      </trkpt>
      <trkpt lat="48.90616" lon="2.34678">
        <ele>38.79999923706</ele>
        <time>2015-12-07T20:03:46Z</time>
      </trkpt>
      <trkpt lat="48.90622" lon="2.3466">
        <ele>38.79999923706</ele>
        <time>2015-12-07T20:03:49Z</time>
      </trkpt>
      <trkpt lat="48.90612" lon="2.34637">
        <ele>39</ele>
        <time>2015-12-07T20:03:54Z</time>
      </trkpt>
      <trkpt lat="48.90608" lon="2.34633">
        <ele>39</ele>
        <time>2015-12-07T20:03:55Z</time>
      </trkpt>
      <trkpt lat="48.90604" lon="2.34631">
        <ele>39</ele>
        <time>2015-12-07T20:03:56Z</time>
      </trkpt>
      <trkpt lat="48.90595" lon="2.34622">
        <ele>38.79999923706</ele>
        <time>2015-12-07T20:03:59Z</time>
      </trkpt>
      <trkpt lat="48.906" lon="2.34603">
        <ele>39</ele>
        <time>2015-12-07T20:04:04Z</time>
      </trkpt>
      <trkpt lat="48.90611" lon="2.34578">
        <ele>39</ele>
        <time>2015-12-07T20:04:08Z</time>
      </trkpt>
      <trkpt lat="48.90622" lon="2.34555">
        <ele>38.599998474121</ele>
        <time>2015-12-07T20:04:12Z</time>
      </trkpt>
      <trkpt lat="48.90631" lon="2.34533">
        <ele>38.20000076294</ele>
        <time>2015-12-07T20:04:16Z</time>
      </trkpt>
      <trkpt lat="48.90636" lon="2.34521">
        <ele>38</ele>
        <time>2015-12-07T20:04:18Z</time>
      </trkpt>
      <trkpt lat="48.90645" lon="2.3449">
        <ele>37.599998474121</ele>
        <time>2015-12-07T20:04:22Z</time>
      </trkpt>
      <trkpt lat="48.90654" lon="2.34465">
        <ele>37.79999923706</ele>
        <time>2015-12-07T20:04:26Z</time>
      </trkpt>
      <trkpt lat="48.90658" lon="2.34455">
        <ele>38</ele>
        <time>2015-12-07T20:04:28Z</time>
      </trkpt>
      <trkpt lat="48.90661" lon="2.34438">
        <ele>38.400001525879</ele>
        <time>2015-12-07T20:04:32Z</time>
      </trkpt>
      <trkpt lat="48.90675" lon="2.34423">
        <ele>38.79999923706</ele>
        <time>2015-12-07T20:04:55Z</time>
      </trkpt>
      <trkpt lat="48.90693" lon="2.34416">
        <ele>39</ele>
        <time>2015-12-07T20:05:00Z</time>
      </trkpt>
      <trkpt lat="48.90714" lon="2.34413">
        <ele>39</ele>
        <time>2015-12-07T20:05:05Z</time>
      </trkpt>
      <trkpt lat="48.90735" lon="2.34411">
        <ele>39</ele>
        <time>2015-12-07T20:05:10Z</time>
      </trkpt>
      <trkpt lat="48.90754" lon="2.3441">
        <ele>39</ele>
        <time>2015-12-07T20:05:13Z</time>
      </trkpt>
      <trkpt lat="48.90766" lon="2.34411">
        <ele>39</ele>
        <time>2015-12-07T20:05:15Z</time>
      </trkpt>
      <trkpt lat="48.90786" lon="2.34413">
        <ele>38.79999923706</ele>
        <time>2015-12-07T20:05:18Z</time>
      </trkpt>
      <trkpt lat="48.90807" lon="2.34417">
        <ele>38.20000076294</ele>
        <time>2015-12-07T20:05:21Z</time>
      </trkpt>
      <trkpt lat="48.90813" lon="2.34416">
        <ele>38</ele>
        <time>2015-12-07T20:05:22Z</time>
      </trkpt>
      <trkpt lat="48.90831" lon="2.34417">
        <ele>37.599998474121</ele>
        <time>2015-12-07T20:05:25Z</time>
      </trkpt>
      <trkpt lat="48.90857" lon="2.34416">
        <ele>37</ele>
        <time>2015-12-07T20:05:29Z</time>
      </trkpt>
      <trkpt lat="48.90875" lon="2.34415">
        <ele>36.79999923706</ele>
        <time>2015-12-07T20:05:32Z</time>
      </trkpt>
      <trkpt lat="48.90899" lon="2.34415">
        <ele>36.400001525879</ele>
        <time>2015-12-07T20:05:36Z</time>
      </trkpt>
      <trkpt lat="48.90918" lon="2.34412">
        <ele>36.20000076294</ele>
        <time>2015-12-07T20:05:39Z</time>
      </trkpt>
      <trkpt lat="48.90942" lon="2.34409">
        <ele>36</ele>
        <time>2015-12-07T20:05:43Z</time>
      </trkpt>
      <trkpt lat="48.90966" lon="2.34404">
        <ele>36.20000076294</ele>
        <time>2015-12-07T20:05:47Z</time>
      </trkpt>
      <trkpt lat="48.90986" lon="2.344">
        <ele>36.400001525879</ele>
        <time>2015-12-07T20:05:50Z</time>
      </trkpt>
      <trkpt lat="48.91008" lon="2.34396">
        <ele>36.599998474121</ele>
        <time>2015-12-07T20:05:54Z</time>
      </trkpt>
      <trkpt lat="48.91028" lon="2.34392">
        <ele>37.599998474121</ele>
        <time>2015-12-07T20:05:58Z</time>
      </trkpt>
      <trkpt lat="48.91046" lon="2.3439">
        <ele>38.20000076294</ele>
        <time>2015-12-07T20:06:01Z</time>
      </trkpt>
      <trkpt lat="48.91068" lon="2.3439">
        <ele>38.599998474121</ele>
        <time>2015-12-07T20:06:05Z</time>
      </trkpt>
      <trkpt lat="48.91074" lon="2.3439">
        <ele>38.79999923706</ele>
        <time>2015-12-07T20:06:06Z</time>
      </trkpt>
      <trkpt lat="48.91095" lon="2.34389">
        <ele>38.599998474121</ele>
        <time>2015-12-07T20:06:10Z</time>
      </trkpt>
      <trkpt lat="48.91115" lon="2.34387">
        <ele>38.20000076294</ele>
        <time>2015-12-07T20:06:14Z</time>
      </trkpt>
      <trkpt lat="48.9113" lon="2.34388">
        <ele>37.79999923706</ele>
        <time>2015-12-07T20:06:17Z</time>
      </trkpt>
      <trkpt lat="48.91151" lon="2.34388">
        <ele>37.400001525879</ele>
        <time>2015-12-07T20:06:21Z</time>
      </trkpt>
      <trkpt lat="48.91163" lon="2.34389">
        <ele>37</ele>
        <time>2015-12-07T20:06:23Z</time>
      </trkpt>
      <trkpt lat="48.91182" lon="2.34389">
        <ele>36.599998474121</ele>
        <time>2015-12-07T20:06:26Z</time>
      </trkpt>
      <trkpt lat="48.91201" lon="2.34392">
        <ele>36.400001525879</ele>
        <time>2015-12-07T20:06:29Z</time>
      </trkpt>
      <trkpt lat="48.91223" lon="2.34394">
        <ele>36.599998474121</ele>
        <time>2015-12-07T20:06:32Z</time>
      </trkpt>
      <trkpt lat="48.91244" lon="2.34399">
        <ele>36.599998474121</ele>
        <time>2015-12-07T20:06:35Z</time>
      </trkpt>
      <trkpt lat="48.91266" lon="2.34406">
        <ele>36.79999923706</ele>
        <time>2015-12-07T20:06:38Z</time>
      </trkpt>
      <trkpt lat="48.91288" lon="2.34406">
        <ele>37.599998474121</ele>
        <time>2015-12-07T20:06:41Z</time>
      </trkpt>
      <trkpt lat="48.91308" lon="2.34408">
        <ele>38.599998474121</ele>
        <time>2015-12-07T20:06:44Z</time>
      </trkpt>
      <trkpt lat="48.91326" lon="2.3441">
        <ele>39.400001525879</ele>
        <time>2015-12-07T20:06:47Z</time>
      </trkpt>
      <trkpt lat="48.9135" lon="2.3441">
        <ele>40.599998474121</ele>
        <time>2015-12-07T20:06:51Z</time>
      </trkpt>
      <trkpt lat="48.9137" lon="2.34408">
        <ele>40.400001525879</ele>
        <time>2015-12-07T20:06:55Z</time>
      </trkpt>
      <trkpt lat="48.91387" lon="2.34408">
        <ele>39.79999923706</ele>
        <time>2015-12-07T20:06:59Z</time>
      </trkpt>
      <trkpt lat="48.91407" lon="2.34411">
        <ele>39.20000076294</ele>
        <time>2015-12-07T20:07:09Z</time>
      </trkpt>
      <trkpt lat="48.91414" lon="2.34411">
        <ele>38.79999923706</ele>
        <time>2015-12-07T20:07:12Z</time>
      </trkpt>
      <trkpt lat="48.91418" lon="2.3441">
        <ele>38.79999923706</ele>
        <time>2015-12-07T20:07:15Z</time>
      </trkpt>
      <trkpt lat="48.91403" lon="2.34425">
        <ele>39</ele>
        <time>2015-12-07T20:07:23Z</time>
      </trkpt>
      <trkpt lat="48.91402" lon="2.34454">
        <ele>38.400001525879</ele>
        <time>2015-12-07T20:07:27Z</time>
      </trkpt>
      <trkpt lat="48.91402" lon="2.34462">
        <ele>38.20000076294</ele>
        <time>2015-12-07T20:07:28Z</time>
      </trkpt>
      <trkpt lat="48.91403" lon="2.34491">
        <ele>36.400001525879</ele>
        <time>2015-12-07T20:07:31Z</time>
      </trkpt>
      <trkpt lat="48.91405" lon="2.34519">
        <ele>35.79999923706</ele>
        <time>2015-12-07T20:07:34Z</time>
      </trkpt>
      <trkpt lat="48.91408" lon="2.34548">
        <ele>35.400001525879</ele>
        <time>2015-12-07T20:07:37Z</time>
      </trkpt>
      <trkpt lat="48.91413" lon="2.34578">
        <ele>35.400001525879</ele>
        <time>2015-12-07T20:07:40Z</time>
      </trkpt>
      <trkpt lat="48.91416" lon="2.34587">
        <ele>35.20000076294</ele>
        <time>2015-12-07T20:07:41Z</time>
      </trkpt>
      <trkpt lat="48.91421" lon="2.34617">
        <ele>34.79999923706</ele>
        <time>2015-12-07T20:07:44Z</time>
      </trkpt>
      <trkpt lat="48.91427" lon="2.34645">
        <ele>34.400001525879</ele>
        <time>2015-12-07T20:07:47Z</time>
      </trkpt>
      <trkpt lat="48.91435" lon="2.34679">
        <ele>34.400001525879</ele>
        <time>2015-12-07T20:07:51Z</time>
      </trkpt>
      <trkpt lat="48.91442" lon="2.34708">
        <ele>34.599998474121</ele>
        <time>2015-12-07T20:07:55Z</time>
      </trkpt>
      <trkpt lat="48.9145" lon="2.34736">
        <ele>34.79999923706</ele>
        <time>2015-12-07T20:07:59Z</time>
      </trkpt>
      <trkpt lat="48.91454" lon="2.3475">
        <ele>34.79999923706</ele>
        <time>2015-12-07T20:08:01Z</time>
      </trkpt>
      <trkpt lat="48.91461" lon="2.3478">
        <ele>35.79999923706</ele>
        <time>2015-12-07T20:08:05Z</time>
      </trkpt>
      <trkpt lat="48.91467" lon="2.34803">
        <ele>36.79999923706</ele>
        <time>2015-12-07T20:08:08Z</time>
      </trkpt>
      <trkpt lat="48.91473" lon="2.34834">
        <ele>37.79999923706</ele>
        <time>2015-12-07T20:08:12Z</time>
      </trkpt>
      <trkpt lat="48.9148" lon="2.34866">
        <ele>38</ele>
        <time>2015-12-07T20:08:16Z</time>
      </trkpt>
      <trkpt lat="48.91483" lon="2.34888">
        <ele>38.400001525879</ele>
        <time>2015-12-07T20:08:19Z</time>
      </trkpt>
      <trkpt lat="48.9149" lon="2.34919">
        <ele>38.599998474121</ele>
        <time>2015-12-07T20:08:24Z</time>
      </trkpt>
      <trkpt lat="48.91496" lon="2.34946">
        <ele>38.79999923706</ele>
        <time>2015-12-07T20:08:28Z</time>
      </trkpt>
      <trkpt lat="48.91504" lon="2.34976">
        <ele>38.599998474121</ele>
        <time>2015-12-07T20:08:32Z</time>
      </trkpt>
      <trkpt lat="48.91506" lon="2.34983">
        <ele>38.599998474121</ele>
        <time>2015-12-07T20:08:33Z</time>
      </trkpt>
      <trkpt lat="48.91517" lon="2.35013">
        <ele>38.400001525879</ele>
        <time>2015-12-07T20:08:37Z</time>
      </trkpt>
      <trkpt lat="48.91525" lon="2.35039">
        <ele>38.400001525879</ele>
        <time>2015-12-07T20:08:40Z</time>
      </trkpt>
      <trkpt lat="48.91532" lon="2.35065">
        <ele>38.400001525879</ele>
        <time>2015-12-07T20:08:43Z</time>
      </trkpt>
      <trkpt lat="48.91538" lon="2.35095">
        <ele>38.599998474121</ele>
        <time>2015-12-07T20:08:46Z</time>
      </trkpt>
      <trkpt lat="48.91544" lon="2.35103">
        <ele>38.599998474121</ele>
        <time>2015-12-07T20:08:47Z</time>
      </trkpt>
      <trkpt lat="48.91541" lon="2.35139">
        <ele>38.599998474121</ele>
        <time>2015-12-07T20:08:50Z</time>
      </trkpt>
      <trkpt lat="48.91542" lon="2.3516">
        <ele>38.599998474121</ele>
        <time>2015-12-07T20:08:52Z</time>
      </trkpt>
      <trkpt lat="48.91542" lon="2.35189">
        <ele>39.599998474121</ele>
        <time>2015-12-07T20:08:55Z</time>
      </trkpt>
      <trkpt lat="48.91539" lon="2.35221">
        <ele>39.599998474121</ele>
        <time>2015-12-07T20:08:59Z</time>
      </trkpt>
      <trkpt lat="48.91537" lon="2.35242">
        <ele>39.400001525879</ele>
        <time>2015-12-07T20:09:03Z</time>
      </trkpt>
      <trkpt lat="48.91536" lon="2.35256">
        <ele>39.400001525879</ele>
        <time>2015-12-07T20:09:07Z</time>
      </trkpt>
      <trkpt lat="48.91534" lon="2.35268">
        <ele>39</ele>
        <time>2015-12-07T20:09:12Z</time>
      </trkpt>
      <trkpt lat="48.91532" lon="2.35272">
        <ele>38.79999923706</ele>
        <time>2015-12-07T20:09:16Z</time>
      </trkpt>
      <trkpt lat="48.91531" lon="2.35279">
        <ele>38.599998474121</ele>
        <time>2015-12-07T20:09:58Z</time>
      </trkpt>
      <trkpt lat="48.91532" lon="2.35307">
        <ele>38</ele>
        <time>2015-12-07T20:10:05Z</time>
      </trkpt>
      <trkpt lat="48.91533" lon="2.35337">
        <ele>37.20000076294</ele>
        <time>2015-12-07T20:10:11Z</time>
      </trkpt>
      <trkpt lat="48.91535" lon="2.35369">
        <ele>37.20000076294</ele>
        <time>2015-12-07T20:10:17Z</time>
      </trkpt>
      <trkpt lat="48.91536" lon="2.35398">
        <ele>37.20000076294</ele>
        <time>2015-12-07T20:10:22Z</time>
      </trkpt>
      <trkpt lat="48.91538" lon="2.35432">
        <ele>37.20000076294</ele>
        <time>2015-12-07T20:10:27Z</time>
      </trkpt>
      <trkpt lat="48.91539" lon="2.35461">
        <ele>37.599998474121</ele>
        <time>2015-12-07T20:10:31Z</time>
      </trkpt>
      <trkpt lat="48.91537" lon="2.3549">
        <ele>38</ele>
        <time>2015-12-07T20:10:35Z</time>
      </trkpt>
      <trkpt lat="48.91536" lon="2.35519">
        <ele>38.400001525879</ele>
        <time>2015-12-07T20:10:39Z</time>
      </trkpt>
      <trkpt lat="48.91537" lon="2.3555">
        <ele>38.79999923706</ele>
        <time>2015-12-07T20:10:43Z</time>
      </trkpt>
      <trkpt lat="48.91539" lon="2.35582">
        <ele>39.20000076294</ele>
        <time>2015-12-07T20:10:47Z</time>
      </trkpt>
      <trkpt lat="48.91541" lon="2.35589">
        <ele>39.20000076294</ele>
        <time>2015-12-07T20:10:48Z</time>
      </trkpt>
      <trkpt lat="48.91542" lon="2.35621">
        <ele>39.79999923706</ele>
        <time>2015-12-07T20:10:52Z</time>
      </trkpt>
      <trkpt lat="48.91542" lon="2.35629">
        <ele>40</ele>
        <time>2015-12-07T20:10:53Z</time>
      </trkpt>
      <trkpt lat="48.91543" lon="2.35637">
        <ele>40.20000076294</ele>
        <time>2015-12-07T20:10:54Z</time>
      </trkpt>
      <trkpt lat="48.91545" lon="2.3567">
        <ele>40.79999923706</ele>
        <time>2015-12-07T20:10:58Z</time>
      </trkpt>
      <trkpt lat="48.91545" lon="2.35701">
        <ele>40.79999923706</ele>
        <time>2015-12-07T20:11:02Z</time>
      </trkpt>
      <trkpt lat="48.91548" lon="2.35729">
        <ele>40.79999923706</ele>
        <time>2015-12-07T20:11:06Z</time>
      </trkpt>
      <trkpt lat="48.91548" lon="2.35742">
        <ele>40.79999923706</ele>
        <time>2015-12-07T20:11:08Z</time>
      </trkpt>
      <trkpt lat="48.91548" lon="2.35765">
        <ele>41</ele>
        <time>2015-12-07T20:11:14Z</time>
      </trkpt>
      <trkpt lat="48.91546" lon="2.35774">
        <ele>41</ele>
        <time>2015-12-07T20:11:18Z</time>
      </trkpt>
      <trkpt lat="48.91548" lon="2.35787">
        <ele>41</ele>
        <time>2015-12-07T20:11:22Z</time>
      </trkpt>
      <trkpt lat="48.91551" lon="2.35815">
        <ele>41</ele>
        <time>2015-12-07T20:11:26Z</time>
      </trkpt>
      <trkpt lat="48.91552" lon="2.35844">
        <ele>40.599998474121</ele>
        <time>2015-12-07T20:11:30Z</time>
      </trkpt>
      <trkpt lat="48.91553" lon="2.35875">
        <ele>39.79999923706</ele>
        <time>2015-12-07T20:11:34Z</time>
      </trkpt>
      <trkpt lat="48.91555" lon="2.35909">
        <ele>38.599998474121</ele>
        <time>2015-12-07T20:11:38Z</time>
      </trkpt>
      <trkpt lat="48.91554" lon="2.35937">
        <ele>37.79999923706</ele>
        <time>2015-12-07T20:11:41Z</time>
      </trkpt>
      <trkpt lat="48.91554" lon="2.35967">
        <ele>36.79999923706</ele>
        <time>2015-12-07T20:11:44Z</time>
      </trkpt>
      <trkpt lat="48.91555" lon="2.36">
        <ele>35.79999923706</ele>
        <time>2015-12-07T20:11:47Z</time>
      </trkpt>
      <trkpt lat="48.91555" lon="2.36034">
        <ele>35.79999923706</ele>
        <time>2015-12-07T20:11:50Z</time>
      </trkpt>
      <trkpt lat="48.91552" lon="2.36071">
        <ele>35.20000076294</ele>
        <time>2015-12-07T20:11:53Z</time>
      </trkpt>
      <trkpt lat="48.91552" lon="2.36105">
        <ele>35.599998474121</ele>
        <time>2015-12-07T20:11:56Z</time>
      </trkpt>
      <trkpt lat="48.91551" lon="2.36136">
        <ele>36.400001525879</ele>
        <time>2015-12-07T20:11:59Z</time>
      </trkpt>
      <trkpt lat="48.91549" lon="2.36167">
        <ele>37</ele>
        <time>2015-12-07T20:12:03Z</time>
      </trkpt>
      <trkpt lat="48.91548" lon="2.36172">
        <ele>36.79999923706</ele>
        <time>2015-12-07T20:12:04Z</time>
      </trkpt>
      <trkpt lat="48.91548" lon="2.36202">
        <ele>37</ele>
        <time>2015-12-07T20:12:09Z</time>
      </trkpt>
      <trkpt lat="48.91548" lon="2.36208">
        <ele>37.20000076294</ele>
        <time>2015-12-07T20:12:10Z</time>
      </trkpt>
      <trkpt lat="48.91549" lon="2.36231">
        <ele>37.400001525879</ele>
        <time>2015-12-07T20:12:14Z</time>
      </trkpt>
      <trkpt lat="48.9155" lon="2.36259">
        <ele>37.20000076294</ele>
        <time>2015-12-07T20:12:18Z</time>
      </trkpt>
      <trkpt lat="48.91549" lon="2.36293">
        <ele>36.400001525879</ele>
        <time>2015-12-07T20:12:22Z</time>
      </trkpt>
      <trkpt lat="48.91548" lon="2.36313">
        <ele>36.20000076294</ele>
        <time>2015-12-07T20:12:24Z</time>
      </trkpt>
      <trkpt lat="48.91549" lon="2.36347">
        <ele>36</ele>
        <time>2015-12-07T20:12:27Z</time>
      </trkpt>
      <trkpt lat="48.9155" lon="2.36383">
        <ele>36.400001525879</ele>
        <time>2015-12-07T20:12:30Z</time>
      </trkpt>
      <trkpt lat="48.9155" lon="2.36422">
        <ele>36.79999923706</ele>
        <time>2015-12-07T20:12:33Z</time>
      </trkpt>
      <trkpt lat="48.91549" lon="2.3645">
        <ele>37.400001525879</ele>
        <time>2015-12-07T20:12:35Z</time>
      </trkpt>
      <trkpt lat="48.91549" lon="2.36478">
        <ele>37.400001525879</ele>
        <time>2015-12-07T20:12:37Z</time>
      </trkpt>
      <trkpt lat="48.91548" lon="2.36505">
        <ele>37.20000076294</ele>
        <time>2015-12-07T20:12:39Z</time>
      </trkpt>
      <trkpt lat="48.91546" lon="2.36533">
        <ele>37</ele>
        <time>2015-12-07T20:12:41Z</time>
      </trkpt>
      <trkpt lat="48.91545" lon="2.3657">
        <ele>37</ele>
        <time>2015-12-07T20:12:44Z</time>
      </trkpt>
      <trkpt lat="48.91545" lon="2.36605">
        <ele>36.79999923706</ele>
        <time>2015-12-07T20:12:47Z</time>
      </trkpt>
      <trkpt lat="48.91545" lon="2.36637">
        <ele>36.79999923706</ele>
        <time>2015-12-07T20:12:50Z</time>
      </trkpt>
      <trkpt lat="48.91544" lon="2.36667">
        <ele>36.599998474121</ele>
        <time>2015-12-07T20:12:53Z</time>
      </trkpt>
      <trkpt lat="48.91543" lon="2.36695">
        <ele>36</ele>
        <time>2015-12-07T20:12:56Z</time>
      </trkpt>
      <trkpt lat="48.91543" lon="2.36713">
        <ele>35.599998474121</ele>
        <time>2015-12-07T20:12:58Z</time>
      </trkpt>
      <trkpt lat="48.91542" lon="2.36746">
        <ele>34.79999923706</ele>
        <time>2015-12-07T20:13:02Z</time>
      </trkpt>
      <trkpt lat="48.91541" lon="2.36776">
        <ele>35.20000076294</ele>
        <time>2015-12-07T20:13:06Z</time>
      </trkpt>
      <trkpt lat="48.9154" lon="2.36803">
        <ele>35.20000076294</ele>
        <time>2015-12-07T20:13:10Z</time>
      </trkpt>
      <trkpt lat="48.91539" lon="2.36835">
        <ele>35.20000076294</ele>
        <time>2015-12-07T20:13:15Z</time>
      </trkpt>
      <trkpt lat="48.91539" lon="2.36865">
        <ele>35</ele>
        <time>2015-12-07T20:13:20Z</time>
      </trkpt>
      <trkpt lat="48.91539" lon="2.36877">
        <ele>34.79999923706</ele>
        <time>2015-12-07T20:13:22Z</time>
      </trkpt>
      <trkpt lat="48.91539" lon="2.36903">
        <ele>34.400001525879</ele>
        <time>2015-12-07T20:13:26Z</time>
      </trkpt>
      <trkpt lat="48.91538" lon="2.36928">
        <ele>34.599998474121</ele>
        <time>2015-12-07T20:13:29Z</time>
      </trkpt>
      <trkpt lat="48.91537" lon="2.36958">
        <ele>35</ele>
        <time>2015-12-07T20:13:32Z</time>
      </trkpt>
      <trkpt lat="48.91536" lon="2.3699">
        <ele>35.400001525879</ele>
        <time>2015-12-07T20:13:35Z</time>
      </trkpt>
      <trkpt lat="48.91536" lon="2.3702">
        <ele>35.20000076294</ele>
        <time>2015-12-07T20:13:38Z</time>
      </trkpt>
      <trkpt lat="48.91535" lon="2.37049">
        <ele>35.20000076294</ele>
        <time>2015-12-07T20:13:41Z</time>
      </trkpt>
      <trkpt lat="48.91533" lon="2.37077">
        <ele>35.20000076294</ele>
        <time>2015-12-07T20:13:44Z</time>
      </trkpt>
      <trkpt lat="48.91533" lon="2.37108">
        <ele>35.79999923706</ele>
        <time>2015-12-07T20:13:48Z</time>
      </trkpt>
      <trkpt lat="48.91532" lon="2.37119">
        <ele>36.20000076294</ele>
        <time>2015-12-07T20:13:50Z</time>
      </trkpt>
      <trkpt lat="48.91523" lon="2.37122">
        <ele>36.400001525879</ele>
        <time>2015-12-07T20:15:01Z</time>
      </trkpt>
      <trkpt lat="48.91525" lon="2.37138">
        <ele>37</ele>
        <time>2015-12-07T20:16:15Z</time>
      </trkpt>
      <trkpt lat="48.91526" lon="2.37166">
        <ele>38</ele>
        <time>2015-12-07T20:16:24Z</time>
      </trkpt>
      <trkpt lat="48.91527" lon="2.37194">
        <ele>38</ele>
        <time>2015-12-07T20:16:31Z</time>
      </trkpt>
      <trkpt lat="48.91526" lon="2.37225">
        <ele>38</ele>
        <time>2015-12-07T20:16:38Z</time>
      </trkpt>
      <trkpt lat="48.91525" lon="2.37257">
        <ele>38</ele>
        <time>2015-12-07T20:16:44Z</time>
      </trkpt>
      <trkpt lat="48.91525" lon="2.3729">
        <ele>37.599998474121</ele>
        <time>2015-12-07T20:16:49Z</time>
      </trkpt>
      <trkpt lat="48.91525" lon="2.37319">
        <ele>37.20000076294</ele>
        <time>2015-12-07T20:16:54Z</time>
      </trkpt>
      <trkpt lat="48.91526" lon="2.3735">
        <ele>37</ele>
        <time>2015-12-07T20:17:00Z</time>
      </trkpt>
      <trkpt lat="48.91526" lon="2.37381">
        <ele>37</ele>
        <time>2015-12-07T20:17:06Z</time>
      </trkpt>
      <trkpt lat="48.91526" lon="2.37411">
        <ele>37</ele>
        <time>2015-12-07T20:17:14Z</time>
      </trkpt>
      <trkpt lat="48.91525" lon="2.37439">
        <ele>37.20000076294</ele>
        <time>2015-12-07T20:17:20Z</time>
      </trkpt>
      <trkpt lat="48.91526" lon="2.37467">
        <ele>37.599998474121</ele>
        <time>2015-12-07T20:17:24Z</time>
      </trkpt>
      <trkpt lat="48.91526" lon="2.37484">
        <ele>37.79999923706</ele>
        <time>2015-12-07T20:17:26Z</time>
      </trkpt>
      <trkpt lat="48.91527" lon="2.37515">
        <ele>38</ele>
        <time>2015-12-07T20:17:30Z</time>
      </trkpt>
      <trkpt lat="48.91526" lon="2.37522">
        <ele>38</ele>
        <time>2015-12-07T20:17:31Z</time>
      </trkpt>
      <trkpt lat="48.91525" lon="2.37554">
        <ele>38</ele>
        <time>2015-12-07T20:17:35Z</time>
      </trkpt>
      <trkpt lat="48.91525" lon="2.37591">
        <ele>37.79999923706</ele>
        <time>2015-12-07T20:17:39Z</time>
      </trkpt>
      <trkpt lat="48.91525" lon="2.37608">
        <ele>37.400001525879</ele>
        <time>2015-12-07T20:17:41Z</time>
      </trkpt>
      <trkpt lat="48.91522" lon="2.37623">
        <ele>37</ele>
        <time>2015-12-07T20:17:43Z</time>
      </trkpt>
      <trkpt lat="48.91519" lon="2.37652">
        <ele>36.20000076294</ele>
        <time>2015-12-07T20:17:47Z</time>
      </trkpt>
      <trkpt lat="48.91519" lon="2.37665">
        <ele>36</ele>
        <time>2015-12-07T20:17:49Z</time>
      </trkpt>
      <trkpt lat="48.91526" lon="2.37687">
        <ele>36</ele>
        <time>2015-12-07T20:17:55Z</time>
      </trkpt>
      <trkpt lat="48.91528" lon="2.37689">
        <ele>36</ele>
        <time>2015-12-07T20:17:56Z</time>
      </trkpt>
      <trkpt lat="48.91543" lon="2.37701">
        <ele>36</ele>
        <time>2015-12-07T20:18:04Z</time>
      </trkpt>
      <trkpt lat="48.91546" lon="2.377">
        <ele>36</ele>
        <time>2015-12-07T20:18:05Z</time>
      </trkpt>
      <trkpt lat="48.91552" lon="2.37699">
        <ele>36</ele>
        <time>2015-12-07T20:18:10Z</time>
      </trkpt>
      <trkpt lat="48.91547" lon="2.37718">
        <ele>36</ele>
        <time>2015-12-07T20:18:36Z</time>
      </trkpt>
      <trkpt lat="48.91545" lon="2.37745">
        <ele>36</ele>
        <time>2015-12-07T20:18:42Z</time>
      </trkpt>
      <trkpt lat="48.91541" lon="2.37773">
        <ele>35.79999923706</ele>
        <time>2015-12-07T20:18:47Z</time>
      </trkpt>
      <trkpt lat="48.91537" lon="2.37804">
        <ele>35.79999923706</ele>
        <time>2015-12-07T20:18:52Z</time>
      </trkpt>
      <trkpt lat="48.91534" lon="2.37836">
        <ele>35.79999923706</ele>
        <time>2015-12-07T20:18:57Z</time>
      </trkpt>
      <trkpt lat="48.91525" lon="2.37864">
        <ele>36.400001525879</ele>
        <time>2015-12-07T20:19:02Z</time>
      </trkpt>
      <trkpt lat="48.9152" lon="2.37895">
        <ele>36.79999923706</ele>
        <time>2015-12-07T20:19:08Z</time>
      </trkpt>
      <trkpt lat="48.91514" lon="2.37926">
        <ele>37</ele>
        <time>2015-12-07T20:19:13Z</time>
      </trkpt>
      <trkpt lat="48.91508" lon="2.37954">
        <ele>37</ele>
        <time>2015-12-07T20:19:17Z</time>
      </trkpt>
      <trkpt lat="48.91501" lon="2.3798">
        <ele>37.20000076294</ele>
        <time>2015-12-07T20:19:21Z</time>
      </trkpt>
      <trkpt lat="48.91495" lon="2.38006">
        <ele>37.599998474121</ele>
        <time>2015-12-07T20:19:25Z</time>
      </trkpt>
      <trkpt lat="48.91492" lon="2.38032">
        <ele>37.79999923706</ele>
        <time>2015-12-07T20:19:29Z</time>
      </trkpt>
      <trkpt lat="48.91489" lon="2.38052">
        <ele>37.79999923706</ele>
        <time>2015-12-07T20:19:33Z</time>
      </trkpt>
      <trkpt lat="48.91484" lon="2.38077">
        <ele>38</ele>
        <time>2015-12-07T20:19:40Z</time>
      </trkpt>
      <trkpt lat="48.91481" lon="2.38098">
        <ele>38.599998474121</ele>
        <time>2015-12-07T20:19:46Z</time>
      </trkpt>
      <trkpt lat="48.91478" lon="2.38104">
        <ele>39</ele>
        <time>2015-12-07T20:19:50Z</time>
      </trkpt>
      <trkpt lat="48.91467" lon="2.38132">
        <ele>39.400001525879</ele>
        <time>2015-12-07T20:20:05Z</time>
      </trkpt>
      <trkpt lat="48.9145" lon="2.38153">
        <ele>39.20000076294</ele>
        <time>2015-12-07T20:20:10Z</time>
      </trkpt>
      <trkpt lat="48.91431" lon="2.3817">
        <ele>39.400001525879</ele>
        <time>2015-12-07T20:20:15Z</time>
      </trkpt>
      <trkpt lat="48.91414" lon="2.38184">
        <ele>40.400001525879</ele>
        <time>2015-12-07T20:20:19Z</time>
      </trkpt>
      <trkpt lat="48.91399" lon="2.38201">
        <ele>41.400001525879</ele>
        <time>2015-12-07T20:20:24Z</time>
      </trkpt>
      <trkpt lat="48.91392" lon="2.38225">
        <ele>41.599998474121</ele>
        <time>2015-12-07T20:20:29Z</time>
      </trkpt>
      <trkpt lat="48.91388" lon="2.38256">
        <ele>41.599998474121</ele>
        <time>2015-12-07T20:20:34Z</time>
      </trkpt>
      <trkpt lat="48.91384" lon="2.38287">
        <ele>41.599998474121</ele>
        <time>2015-12-07T20:20:39Z</time>
      </trkpt>
      <trkpt lat="48.91376" lon="2.38313">
        <ele>41.79999923706</ele>
        <time>2015-12-07T20:20:44Z</time>
      </trkpt>
      <trkpt lat="48.91369" lon="2.38346">
        <ele>41.599998474121</ele>
        <time>2015-12-07T20:20:49Z</time>
      </trkpt>
      <trkpt lat="48.91368" lon="2.38379">
        <ele>41.20000076294</ele>
        <time>2015-12-07T20:20:53Z</time>
      </trkpt>
      <trkpt lat="48.91372" lon="2.38414">
        <ele>40.79999923706</ele>
        <time>2015-12-07T20:20:57Z</time>
      </trkpt>
      <trkpt lat="48.91374" lon="2.38442">
        <ele>40.20000076294</ele>
        <time>2015-12-07T20:21:00Z</time>
      </trkpt>
      <trkpt lat="48.91374" lon="2.38458">
        <ele>40</ele>
        <time>2015-12-07T20:21:02Z</time>
      </trkpt>
      <trkpt lat="48.91372" lon="2.38492">
        <ele>39.79999923706</ele>
        <time>2015-12-07T20:21:06Z</time>
      </trkpt>
      <trkpt lat="48.9137" lon="2.38523">
        <ele>39.79999923706</ele>
        <time>2015-12-07T20:21:10Z</time>
      </trkpt>
      <trkpt lat="48.91369" lon="2.38541">
        <ele>39.400001525879</ele>
        <time>2015-12-07T20:21:13Z</time>
      </trkpt>
      <trkpt lat="48.91365" lon="2.38564">
        <ele>39.20000076294</ele>
        <time>2015-12-07T20:21:18Z</time>
      </trkpt>
      <trkpt lat="48.91357" lon="2.38593">
        <ele>38.79999923706</ele>
        <time>2015-12-07T20:21:23Z</time>
      </trkpt>
      <trkpt lat="48.91356" lon="2.386">
        <ele>38.79999923706</ele>
        <time>2015-12-07T20:21:24Z</time>
      </trkpt>
      <trkpt lat="48.91352" lon="2.3862">
        <ele>38.599998474121</ele>
        <time>2015-12-07T20:21:27Z</time>
      </trkpt>
      <trkpt lat="48.91348" lon="2.3864">
        <ele>38.20000076294</ele>
        <time>2015-12-07T20:21:30Z</time>
      </trkpt>
      <trkpt lat="48.9134" lon="2.38665">
        <ele>38.20000076294</ele>
        <time>2015-12-07T20:21:34Z</time>
      </trkpt>
      <trkpt lat="48.91337" lon="2.38681">
        <ele>38.20000076294</ele>
        <time>2015-12-07T20:21:36Z</time>
      </trkpt>
      <trkpt lat="48.91331" lon="2.38712">
        <ele>38.400001525879</ele>
        <time>2015-12-07T20:21:40Z</time>
      </trkpt>
      <trkpt lat="48.91326" lon="2.38742">
        <ele>38.400001525879</ele>
        <time>2015-12-07T20:21:44Z</time>
      </trkpt>
      <trkpt lat="48.91324" lon="2.38771">
        <ele>38.400001525879</ele>
        <time>2015-12-07T20:21:48Z</time>
      </trkpt>
      <trkpt lat="48.91324" lon="2.38791">
        <ele>38.400001525879</ele>
        <time>2015-12-07T20:21:51Z</time>
      </trkpt>
      <trkpt lat="48.91323" lon="2.38817">
        <ele>38.400001525879</ele>
        <time>2015-12-07T20:21:55Z</time>
      </trkpt>
      <trkpt lat="48.9132" lon="2.38847">
        <ele>38.79999923706</ele>
        <time>2015-12-07T20:22:00Z</time>
      </trkpt>
      <trkpt lat="48.91319" lon="2.38857">
        <ele>39</ele>
        <time>2015-12-07T20:22:02Z</time>
      </trkpt>
      <trkpt lat="48.91304" lon="2.3887">
        <ele>39.400001525879</ele>
        <time>2015-12-07T20:22:08Z</time>
      </trkpt>
      <trkpt lat="48.913" lon="2.38869">
        <ele>39.400001525879</ele>
        <time>2015-12-07T20:22:09Z</time>
      </trkpt>
      <trkpt lat="48.91291" lon="2.38869">
        <ele>39.20000076294</ele>
        <time>2015-12-07T20:22:11Z</time>
      </trkpt>
      <trkpt lat="48.91276" lon="2.38868">
        <ele>39</ele>
        <time>2015-12-07T20:22:14Z</time>
      </trkpt>
      <trkpt lat="48.91257" lon="2.38864">
        <ele>39.20000076294</ele>
        <time>2015-12-07T20:22:17Z</time>
      </trkpt>
      <trkpt lat="48.91236" lon="2.38859">
        <ele>39.400001525879</ele>
        <time>2015-12-07T20:22:20Z</time>
      </trkpt>
      <trkpt lat="48.91218" lon="2.38854">
        <ele>39.599998474121</ele>
        <time>2015-12-07T20:22:23Z</time>
      </trkpt>
      <trkpt lat="48.91199" lon="2.38848">
        <ele>39.79999923706</ele>
        <time>2015-12-07T20:22:26Z</time>
      </trkpt>
      <trkpt lat="48.91178" lon="2.38844">
        <ele>40</ele>
        <time>2015-12-07T20:22:29Z</time>
      </trkpt>
      <trkpt lat="48.91157" lon="2.38839">
        <ele>40</ele>
        <time>2015-12-07T20:22:32Z</time>
      </trkpt>
      <trkpt lat="48.91138" lon="2.38835">
        <ele>40</ele>
        <time>2015-12-07T20:22:35Z</time>
      </trkpt>
      <trkpt lat="48.91121" lon="2.38833">
        <ele>40</ele>
        <time>2015-12-07T20:22:38Z</time>
      </trkpt>
      <trkpt lat="48.91103" lon="2.38829">
        <ele>40</ele>
        <time>2015-12-07T20:22:42Z</time>
      </trkpt>
      <trkpt lat="48.91092" lon="2.38824">
        <ele>40.20000076294</ele>
        <time>2015-12-07T20:22:45Z</time>
      </trkpt>
      <trkpt lat="48.91074" lon="2.38816">
        <ele>40.400001525879</ele>
        <time>2015-12-07T20:22:50Z</time>
      </trkpt>
      <trkpt lat="48.91061" lon="2.38812">
        <ele>40.599998474121</ele>
        <time>2015-12-07T20:22:54Z</time>
      </trkpt>
      <trkpt lat="48.91046" lon="2.38811">
        <ele>41</ele>
        <time>2015-12-07T20:22:58Z</time>
      </trkpt>
      <trkpt lat="48.91038" lon="2.38811">
        <ele>41.20000076294</ele>
        <time>2015-12-07T20:23:00Z</time>
      </trkpt>
      <trkpt lat="48.91018" lon="2.38806">
        <ele>41.400001525879</ele>
        <time>2015-12-07T20:23:05Z</time>
      </trkpt>
      <trkpt lat="48.91001" lon="2.38806">
        <ele>41.599998474121</ele>
        <time>2015-12-07T20:23:09Z</time>
      </trkpt>
      <trkpt lat="48.90983" lon="2.38808">
        <ele>42</ele>
        <time>2015-12-07T20:23:13Z</time>
      </trkpt>
      <trkpt lat="48.90978" lon="2.38808">
        <ele>42</ele>
        <time>2015-12-07T20:23:14Z</time>
      </trkpt>
      <trkpt lat="48.90959" lon="2.3881">
        <ele>42.20000076294</ele>
        <time>2015-12-07T20:23:18Z</time>
      </trkpt>
      <trkpt lat="48.90941" lon="2.38812">
        <ele>42.599998474121</ele>
        <time>2015-12-07T20:23:24Z</time>
      </trkpt>
      <trkpt lat="48.90922" lon="2.38813">
        <ele>42.79999923706</ele>
        <time>2015-12-07T20:23:43Z</time>
      </trkpt>
      <trkpt lat="48.90901" lon="2.38812">
        <ele>43</ele>
        <time>2015-12-07T20:23:47Z</time>
      </trkpt>
      <trkpt lat="48.90878" lon="2.38812">
        <ele>43.20000076294</ele>
        <time>2015-12-07T20:23:51Z</time>
      </trkpt>
      <trkpt lat="48.90855" lon="2.3881">
        <ele>43.400001525879</ele>
        <time>2015-12-07T20:23:55Z</time>
      </trkpt>
      <trkpt lat="48.90834" lon="2.38809">
        <ele>43.20000076294</ele>
        <time>2015-12-07T20:23:59Z</time>
      </trkpt>
      <trkpt lat="48.90816" lon="2.38803">
        <ele>43</ele>
        <time>2015-12-07T20:24:04Z</time>
      </trkpt>
      <trkpt lat="48.90813" lon="2.38802">
        <ele>43</ele>
        <time>2015-12-07T20:24:05Z</time>
      </trkpt>
      <trkpt lat="48.90799" lon="2.38787">
        <ele>42.400001525879</ele>
        <time>2015-12-07T20:24:22Z</time>
      </trkpt>
      <trkpt lat="48.90782" lon="2.38794">
        <ele>42.599998474121</ele>
        <time>2015-12-07T20:24:32Z</time>
      </trkpt>
      <trkpt lat="48.90762" lon="2.38783">
        <ele>42.400001525879</ele>
        <time>2015-12-07T20:24:39Z</time>
      </trkpt>
      <trkpt lat="48.90742" lon="2.38782">
        <ele>42.599998474121</ele>
        <time>2015-12-07T20:24:44Z</time>
      </trkpt>
      <trkpt lat="48.90723" lon="2.3878">
        <ele>42.79999923706</ele>
        <time>2015-12-07T20:24:48Z</time>
      </trkpt>
      <trkpt lat="48.90702" lon="2.38774">
        <ele>42.20000076294</ele>
        <time>2015-12-07T20:24:53Z</time>
      </trkpt>
      <trkpt lat="48.90683" lon="2.38767">
        <ele>42.20000076294</ele>
        <time>2015-12-07T20:24:58Z</time>
      </trkpt>
      <trkpt lat="48.90663" lon="2.3876">
        <ele>43</ele>
        <time>2015-12-07T20:25:05Z</time>
      </trkpt>
      <trkpt lat="48.90643" lon="2.38755">
        <ele>43.79999923706</ele>
        <time>2015-12-07T20:25:11Z</time>
      </trkpt>
      <trkpt lat="48.90623" lon="2.38751">
        <ele>44.400001525879</ele>
        <time>2015-12-07T20:25:15Z</time>
      </trkpt>
      <trkpt lat="48.90604" lon="2.38746">
        <ele>45</ele>
        <time>2015-12-07T20:25:19Z</time>
      </trkpt>
      <trkpt lat="48.90583" lon="2.38744">
        <ele>44.599998474121</ele>
        <time>2015-12-07T20:25:23Z</time>
      </trkpt>
      <trkpt lat="48.90568" lon="2.38744">
        <ele>44.400001525879</ele>
        <time>2015-12-07T20:25:27Z</time>
      </trkpt>
      <trkpt lat="48.90552" lon="2.38738">
        <ele>44</ele>
        <time>2015-12-07T20:25:32Z</time>
      </trkpt>
      <trkpt lat="48.90533" lon="2.38728">
        <ele>43.599998474121</ele>
        <time>2015-12-07T20:25:35Z</time>
      </trkpt>
      <trkpt lat="48.90527" lon="2.38727">
        <ele>43.599998474121</ele>
        <time>2015-12-07T20:25:36Z</time>
      </trkpt>
      <trkpt lat="48.90514" lon="2.38725">
        <ele>43.599998474121</ele>
        <time>2015-12-07T20:25:39Z</time>
      </trkpt>
      <trkpt lat="48.90493" lon="2.3872">
        <ele>43.599998474121</ele>
        <time>2015-12-07T20:25:44Z</time>
      </trkpt>
      <trkpt lat="48.90484" lon="2.38717">
        <ele>43.79999923706</ele>
        <time>2015-12-07T20:25:46Z</time>
      </trkpt>
      <trkpt lat="48.90466" lon="2.38709">
        <ele>43.79999923706</ele>
        <time>2015-12-07T20:25:50Z</time>
      </trkpt>
      <trkpt lat="48.9045" lon="2.38704">
        <ele>43.79999923706</ele>
        <time>2015-12-07T20:25:54Z</time>
      </trkpt>
      <trkpt lat="48.90429" lon="2.38695">
        <ele>44.400001525879</ele>
        <time>2015-12-07T20:25:59Z</time>
      </trkpt>
      <trkpt lat="48.90409" lon="2.38688">
        <ele>45.400001525879</ele>
        <time>2015-12-07T20:26:04Z</time>
      </trkpt>
      <trkpt lat="48.90391" lon="2.38681">
        <ele>46.400001525879</ele>
        <time>2015-12-07T20:26:09Z</time>
      </trkpt>
      <trkpt lat="48.90385" lon="2.38677">
        <ele>46.599998474121</ele>
        <time>2015-12-07T20:26:11Z</time>
      </trkpt>
      <trkpt lat="48.90366" lon="2.38664">
        <ele>47.400001525879</ele>
        <time>2015-12-07T20:26:17Z</time>
      </trkpt>
      <trkpt lat="48.90362" lon="2.38659">
        <ele>47.400001525879</ele>
        <time>2015-12-07T20:26:20Z</time>
      </trkpt>
      <trkpt lat="48.90344" lon="2.3865">
        <ele>47.79999923706</ele>
        <time>2015-12-07T20:26:28Z</time>
      </trkpt>
      <trkpt lat="48.90327" lon="2.38638">
        <ele>48.20000076294</ele>
        <time>2015-12-07T20:26:32Z</time>
      </trkpt>
      <trkpt lat="48.90309" lon="2.38625">
        <ele>48.599998474121</ele>
        <time>2015-12-07T20:26:38Z</time>
      </trkpt>
      <trkpt lat="48.90291" lon="2.38614">
        <ele>49.400001525879</ele>
        <time>2015-12-07T20:26:43Z</time>
      </trkpt>
      <trkpt lat="48.90273" lon="2.38604">
        <ele>50.20000076294</ele>
        <time>2015-12-07T20:26:48Z</time>
      </trkpt>
      <trkpt lat="48.90254" lon="2.38591">
        <ele>49.20000076294</ele>
        <time>2015-12-07T20:26:55Z</time>
      </trkpt>
      <trkpt lat="48.90235" lon="2.3858">
        <ele>48.400001525879</ele>
        <time>2015-12-07T20:27:01Z</time>
      </trkpt>
      <trkpt lat="48.90216" lon="2.38579">
        <ele>48.599998474121</ele>
        <time>2015-12-07T20:27:07Z</time>
      </trkpt>
      <trkpt lat="48.90198" lon="2.3857">
        <ele>48.400001525879</ele>
        <time>2015-12-07T20:27:10Z</time>
      </trkpt>
      <trkpt lat="48.90182" lon="2.38556">
        <ele>48.20000076294</ele>
        <time>2015-12-07T20:27:13Z</time>
      </trkpt>
      <trkpt lat="48.90175" lon="2.3855">
        <ele>48.20000076294</ele>
        <time>2015-12-07T20:27:17Z</time>
      </trkpt>
      <trkpt lat="48.90169" lon="2.38546">
        <ele>48.20000076294</ele>
        <time>2015-12-07T20:27:25Z</time>
      </trkpt>
      <trkpt lat="48.90166" lon="2.38549">
        <ele>48.599998474121</ele>
        <time>2015-12-07T20:27:29Z</time>
      </trkpt>
      <trkpt lat="48.90173" lon="2.3853">
        <ele>47.400001525879</ele>
        <time>2015-12-07T20:28:03Z</time>
      </trkpt>
      <trkpt lat="48.90175" lon="2.38525">
        <ele>47</ele>
        <time>2015-12-07T20:28:06Z</time>
      </trkpt>
      <trkpt lat="48.90191" lon="2.38507">
        <ele>45.400001525879</ele>
        <time>2015-12-07T20:28:20Z</time>
      </trkpt>
      <trkpt lat="48.90207" lon="2.3849">
        <ele>45.400001525879</ele>
        <time>2015-12-07T20:28:28Z</time>
      </trkpt>
      <trkpt lat="48.90225" lon="2.38471">
        <ele>45.599998474121</ele>
        <time>2015-12-07T20:28:37Z</time>
      </trkpt>
      <trkpt lat="48.90241" lon="2.3845">
        <ele>45.400001525879</ele>
        <time>2015-12-07T20:28:43Z</time>
      </trkpt>
      <trkpt lat="48.90244" lon="2.38445">
        <ele>45.400001525879</ele>
        <time>2015-12-07T20:28:44Z</time>
      </trkpt>
      <trkpt lat="48.9026" lon="2.38427">
        <ele>45.20000076294</ele>
        <time>2015-12-07T20:28:48Z</time>
      </trkpt>
      <trkpt lat="48.90275" lon="2.38411">
        <ele>45</ele>
        <time>2015-12-07T20:28:51Z</time>
      </trkpt>
      <trkpt lat="48.90289" lon="2.38394">
        <ele>45</ele>
        <time>2015-12-07T20:28:54Z</time>
      </trkpt>
      <trkpt lat="48.90298" lon="2.38383">
        <ele>45.20000076294</ele>
        <time>2015-12-07T20:28:56Z</time>
      </trkpt>
      <trkpt lat="48.90312" lon="2.38362">
        <ele>45</ele>
        <time>2015-12-07T20:29:00Z</time>
      </trkpt>
      <trkpt lat="48.90328" lon="2.38342">
        <ele>44.599998474121</ele>
        <time>2015-12-07T20:29:04Z</time>
      </trkpt>
      <trkpt lat="48.90333" lon="2.38338">
        <ele>44.599998474121</ele>
        <time>2015-12-07T20:29:05Z</time>
      </trkpt>
      <trkpt lat="48.9035" lon="2.38321">
        <ele>44.599998474121</ele>
        <time>2015-12-07T20:29:09Z</time>
      </trkpt>
      <trkpt lat="48.90359" lon="2.38312">
        <ele>44.400001525879</ele>
        <time>2015-12-07T20:29:11Z</time>
      </trkpt>
      <trkpt lat="48.90377" lon="2.38291">
        <ele>43.599998474121</ele>
        <time>2015-12-07T20:29:15Z</time>
      </trkpt>
      <trkpt lat="48.90396" lon="2.38271">
        <ele>42.79999923706</ele>
        <time>2015-12-07T20:29:19Z</time>
      </trkpt>
      <trkpt lat="48.9041" lon="2.38257">
        <ele>42.400001525879</ele>
        <time>2015-12-07T20:29:22Z</time>
      </trkpt>
      <trkpt lat="48.90429" lon="2.38239">
        <ele>42.20000076294</ele>
        <time>2015-12-07T20:29:26Z</time>
      </trkpt>
      <trkpt lat="48.90446" lon="2.38221">
        <ele>42.400001525879</ele>
        <time>2015-12-07T20:29:30Z</time>
      </trkpt>
      <trkpt lat="48.90465" lon="2.38202">
        <ele>42.79999923706</ele>
        <time>2015-12-07T20:29:34Z</time>
      </trkpt>
      <trkpt lat="48.90469" lon="2.38197">
        <ele>43</ele>
        <time>2015-12-07T20:29:35Z</time>
      </trkpt>
      <trkpt lat="48.90486" lon="2.38178">
        <ele>43</ele>
        <time>2015-12-07T20:29:39Z</time>
      </trkpt>
      <trkpt lat="48.90503" lon="2.38159">
        <ele>43</ele>
        <time>2015-12-07T20:29:43Z</time>
      </trkpt>
      <trkpt lat="48.90512" lon="2.38151">
        <ele>42.79999923706</ele>
        <time>2015-12-07T20:29:45Z</time>
      </trkpt>
      <trkpt lat="48.9053" lon="2.38131">
        <ele>43.599998474121</ele>
        <time>2015-12-07T20:29:49Z</time>
      </trkpt>
      <trkpt lat="48.90547" lon="2.38115">
        <ele>44.400001525879</ele>
        <time>2015-12-07T20:29:52Z</time>
      </trkpt>
      <trkpt lat="48.90565" lon="2.38097">
        <ele>44.599998474121</ele>
        <time>2015-12-07T20:29:55Z</time>
      </trkpt>
      <trkpt lat="48.90583" lon="2.38076">
        <ele>44.599998474121</ele>
        <time>2015-12-07T20:29:58Z</time>
      </trkpt>
      <trkpt lat="48.90595" lon="2.38062">
        <ele>44.79999923706</ele>
        <time>2015-12-07T20:30:00Z</time>
      </trkpt>
      <trkpt lat="48.90608" lon="2.3805">
        <ele>45</ele>
        <time>2015-12-07T20:30:02Z</time>
      </trkpt>
      <trkpt lat="48.90621" lon="2.38038">
        <ele>45</ele>
        <time>2015-12-07T20:30:04Z</time>
      </trkpt>
      <trkpt lat="48.9064" lon="2.3802">
        <ele>44.79999923706</ele>
        <time>2015-12-07T20:30:07Z</time>
      </trkpt>
      <trkpt lat="48.90654" lon="2.38007">
        <ele>44.599998474121</ele>
        <time>2015-12-07T20:30:09Z</time>
      </trkpt>
      <trkpt lat="48.90674" lon="2.37988">
        <ele>44</ele>
        <time>2015-12-07T20:30:12Z</time>
      </trkpt>
      <trkpt lat="48.90694" lon="2.37968">
        <ele>44</ele>
        <time>2015-12-07T20:30:15Z</time>
      </trkpt>
      <trkpt lat="48.90713" lon="2.37949">
        <ele>44.20000076294</ele>
        <time>2015-12-07T20:30:18Z</time>
      </trkpt>
      <trkpt lat="48.90732" lon="2.37929">
        <ele>44.400001525879</ele>
        <time>2015-12-07T20:30:21Z</time>
      </trkpt>
      <trkpt lat="48.9075" lon="2.3791">
        <ele>44.599998474121</ele>
        <time>2015-12-07T20:30:24Z</time>
      </trkpt>
      <trkpt lat="48.90768" lon="2.37892">
        <ele>44.599998474121</ele>
        <time>2015-12-07T20:30:27Z</time>
      </trkpt>
      <trkpt lat="48.90784" lon="2.37876">
        <ele>44.400001525879</ele>
        <time>2015-12-07T20:30:30Z</time>
      </trkpt>
      <trkpt lat="48.90802" lon="2.37856">
        <ele>43.79999923706</ele>
        <time>2015-12-07T20:30:34Z</time>
      </trkpt>
      <trkpt lat="48.9082" lon="2.37838">
        <ele>44</ele>
        <time>2015-12-07T20:30:38Z</time>
      </trkpt>
      <trkpt lat="48.90835" lon="2.37823">
        <ele>43.79999923706</ele>
        <time>2015-12-07T20:30:42Z</time>
      </trkpt>
      <trkpt lat="48.90839" lon="2.3782">
        <ele>43.79999923706</ele>
        <time>2015-12-07T20:30:43Z</time>
      </trkpt>
      <trkpt lat="48.90847" lon="2.37816">
        <ele>43.79999923706</ele>
        <time>2015-12-07T20:30:45Z</time>
      </trkpt>
      <trkpt lat="48.90863" lon="2.37817">
        <ele>44</ele>
        <time>2015-12-07T20:30:49Z</time>
      </trkpt>
      <trkpt lat="48.90873" lon="2.37822">
        <ele>44</ele>
        <time>2015-12-07T20:30:52Z</time>
      </trkpt>
      <trkpt lat="48.90881" lon="2.37809">
        <ele>44</ele>
        <time>2015-12-07T20:31:26Z</time>
      </trkpt>
      <trkpt lat="48.90886" lon="2.37782">
        <ele>43.79999923706</ele>
        <time>2015-12-07T20:31:33Z</time>
      </trkpt>
      <trkpt lat="48.9089" lon="2.37775">
        <ele>43.599998474121</ele>
        <time>2015-12-07T20:31:35Z</time>
      </trkpt>
      <trkpt lat="48.90905" lon="2.3776">
        <ele>42.400001525879</ele>
        <time>2015-12-07T20:31:40Z</time>
      </trkpt>
      <trkpt lat="48.90925" lon="2.37743">
        <ele>41.400001525879</ele>
        <time>2015-12-07T20:31:45Z</time>
      </trkpt>
      <trkpt lat="48.90942" lon="2.37725">
        <ele>40.79999923706</ele>
        <time>2015-12-07T20:31:49Z</time>
      </trkpt>
      <trkpt lat="48.90961" lon="2.37703">
        <ele>41</ele>
        <time>2015-12-07T20:31:53Z</time>
      </trkpt>
      <trkpt lat="48.9098" lon="2.37683">
        <ele>40.599998474121</ele>
        <time>2015-12-07T20:31:56Z</time>
      </trkpt>
      <trkpt lat="48.91002" lon="2.37664">
        <ele>40</ele>
        <time>2015-12-07T20:31:59Z</time>
      </trkpt>
      <trkpt lat="48.91024" lon="2.37642">
        <ele>39.400001525879</ele>
        <time>2015-12-07T20:32:02Z</time>
      </trkpt>
      <trkpt lat="48.91047" lon="2.37621">
        <ele>39.20000076294</ele>
        <time>2015-12-07T20:32:05Z</time>
      </trkpt>
      <trkpt lat="48.91064" lon="2.37608">
        <ele>39.20000076294</ele>
        <time>2015-12-07T20:32:07Z</time>
      </trkpt>
      <trkpt lat="48.91081" lon="2.37594">
        <ele>39.599998474121</ele>
        <time>2015-12-07T20:32:09Z</time>
      </trkpt>
      <trkpt lat="48.91097" lon="2.37579">
        <ele>39.79999923706</ele>
        <time>2015-12-07T20:32:11Z</time>
      </trkpt>
      <trkpt lat="48.9112" lon="2.37557">
        <ele>39.599998474121</ele>
        <time>2015-12-07T20:32:14Z</time>
      </trkpt>
      <trkpt lat="48.91144" lon="2.37537">
        <ele>39.400001525879</ele>
        <time>2015-12-07T20:32:17Z</time>
      </trkpt>
      <trkpt lat="48.91168" lon="2.3752">
        <ele>40.20000076294</ele>
        <time>2015-12-07T20:32:20Z</time>
      </trkpt>
      <trkpt lat="48.91189" lon="2.37502">
        <ele>41</ele>
        <time>2015-12-07T20:32:23Z</time>
      </trkpt>
      <trkpt lat="48.91213" lon="2.37485">
        <ele>40.400001525879</ele>
        <time>2015-12-07T20:32:26Z</time>
      </trkpt>
      <trkpt lat="48.9123" lon="2.37474">
        <ele>39.79999923706</ele>
        <time>2015-12-07T20:32:28Z</time>
      </trkpt>
      <trkpt lat="48.91246" lon="2.37464">
        <ele>39.400001525879</ele>
        <time>2015-12-07T20:32:30Z</time>
      </trkpt>
      <trkpt lat="48.91266" lon="2.37451">
        <ele>38.79999923706</ele>
        <time>2015-12-07T20:32:33Z</time>
      </trkpt>
      <trkpt lat="48.91271" lon="2.37447">
        <ele>38.79999923706</ele>
        <time>2015-12-07T20:32:34Z</time>
      </trkpt>
      <trkpt lat="48.91291" lon="2.37431">
        <ele>38.599998474121</ele>
        <time>2015-12-07T20:32:38Z</time>
      </trkpt>
      <trkpt lat="48.91312" lon="2.37417">
        <ele>38.599998474121</ele>
        <time>2015-12-07T20:32:42Z</time>
      </trkpt>
      <trkpt lat="48.91331" lon="2.37403">
        <ele>38.400001525879</ele>
        <time>2015-12-07T20:32:46Z</time>
      </trkpt>
      <trkpt lat="48.91349" lon="2.37391">
        <ele>38.20000076294</ele>
        <time>2015-12-07T20:32:50Z</time>
      </trkpt>
      <trkpt lat="48.91369" lon="2.37379">
        <ele>38.20000076294</ele>
        <time>2015-12-07T20:32:55Z</time>
      </trkpt>
      <trkpt lat="48.91377" lon="2.37376">
        <ele>38.20000076294</ele>
        <time>2015-12-07T20:32:57Z</time>
      </trkpt>
      <trkpt lat="48.91387" lon="2.37373">
        <ele>38.400001525879</ele>
        <time>2015-12-07T20:33:00Z</time>
      </trkpt>
      <trkpt lat="48.91405" lon="2.37377">
        <ele>38.599998474121</ele>
        <time>2015-12-07T20:33:05Z</time>
      </trkpt>
      <trkpt lat="48.91426" lon="2.3738">
        <ele>38.79999923706</ele>
        <time>2015-12-07T20:33:10Z</time>
      </trkpt>
      <trkpt lat="48.91434" lon="2.37382">
        <ele>39</ele>
        <time>2015-12-07T20:33:12Z</time>
      </trkpt>
      <trkpt lat="48.91443" lon="2.37383">
        <ele>39</ele>
        <time>2015-12-07T20:33:14Z</time>
      </trkpt>
      <trkpt lat="48.91458" lon="2.37384">
        <ele>38.599998474121</ele>
        <time>2015-12-07T20:33:17Z</time>
      </trkpt>
      <trkpt lat="48.91477" lon="2.37387">
        <ele>38.20000076294</ele>
        <time>2015-12-07T20:33:21Z</time>
      </trkpt>
      <trkpt lat="48.91495" lon="2.3739">
        <ele>37.599998474121</ele>
        <time>2015-12-07T20:33:25Z</time>
      </trkpt>
      <trkpt lat="48.91514" lon="2.37398">
        <ele>37.20000076294</ele>
        <time>2015-12-07T20:33:31Z</time>
      </trkpt>
      <trkpt lat="48.91528" lon="2.37412">
        <ele>37</ele>
        <time>2015-12-07T20:34:12Z</time>
      </trkpt>
      <trkpt lat="48.91546" lon="2.37416">
        <ele>37</ele>
        <time>2015-12-07T20:34:18Z</time>
      </trkpt>
      <trkpt lat="48.91566" lon="2.37422">
        <ele>37</ele>
        <time>2015-12-07T20:34:24Z</time>
      </trkpt>
      <trkpt lat="48.91583" lon="2.37434">
        <ele>37</ele>
        <time>2015-12-07T20:34:29Z</time>
      </trkpt>
      <trkpt lat="48.916" lon="2.37449">
        <ele>37</ele>
        <time>2015-12-07T20:34:34Z</time>
      </trkpt>
      <trkpt lat="48.91616" lon="2.37465">
        <ele>37</ele>
        <time>2015-12-07T20:34:38Z</time>
      </trkpt>
      <trkpt lat="48.91631" lon="2.37486">
        <ele>37</ele>
        <time>2015-12-07T20:34:43Z</time>
      </trkpt>
      <trkpt lat="48.91649" lon="2.37496">
        <ele>37</ele>
        <time>2015-12-07T20:34:49Z</time>
      </trkpt>
      <trkpt lat="48.91668" lon="2.37495">
        <ele>37</ele>
        <time>2015-12-07T20:34:54Z</time>
      </trkpt>
      <trkpt lat="48.91688" lon="2.37494">
        <ele>37</ele>
        <time>2015-12-07T20:34:59Z</time>
      </trkpt>
      <trkpt lat="48.91708" lon="2.37492">
        <ele>37</ele>
        <time>2015-12-07T20:35:04Z</time>
      </trkpt>
      <trkpt lat="48.91729" lon="2.37485">
        <ele>37</ele>
        <time>2015-12-07T20:35:08Z</time>
      </trkpt>
      <trkpt lat="48.9175" lon="2.37481">
        <ele>37</ele>
        <time>2015-12-07T20:35:12Z</time>
      </trkpt>
      <trkpt lat="48.91757" lon="2.37479">
        <ele>37</ele>
        <time>2015-12-07T20:35:14Z</time>
      </trkpt>
      <trkpt lat="48.91777" lon="2.37476">
        <ele>36.400001525879</ele>
        <time>2015-12-07T20:35:19Z</time>
      </trkpt>
      <trkpt lat="48.91782" lon="2.37474">
        <ele>36.400001525879</ele>
        <time>2015-12-07T20:35:21Z</time>
      </trkpt>
      <trkpt lat="48.91792" lon="2.37471">
        <ele>36.400001525879</ele>
        <time>2015-12-07T20:35:24Z</time>
      </trkpt>
      <trkpt lat="48.91804" lon="2.37466">
        <ele>36.20000076294</ele>
        <time>2015-12-07T20:35:28Z</time>
      </trkpt>
      <trkpt lat="48.91821" lon="2.37458">
        <ele>36</ele>
        <time>2015-12-07T20:35:33Z</time>
      </trkpt>
      <trkpt lat="48.9184" lon="2.37454">
        <ele>36.20000076294</ele>
        <time>2015-12-07T20:35:38Z</time>
      </trkpt>
      <trkpt lat="48.91859" lon="2.37449">
        <ele>36.400001525879</ele>
        <time>2015-12-07T20:35:43Z</time>
      </trkpt>
      <trkpt lat="48.91877" lon="2.37442">
        <ele>36</ele>
        <time>2015-12-07T20:35:48Z</time>
      </trkpt>
      <trkpt lat="48.91895" lon="2.37424">
        <ele>35.599998474121</ele>
        <time>2015-12-07T20:35:54Z</time>
      </trkpt>
      <trkpt lat="48.91911" lon="2.37401">
        <ele>35.400001525879</ele>
        <time>2015-12-07T20:35:59Z</time>
      </trkpt>
      <trkpt lat="48.91926" lon="2.37381">
        <ele>35.400001525879</ele>
        <time>2015-12-07T20:36:04Z</time>
      </trkpt>
      <trkpt lat="48.91943" lon="2.37358">
        <ele>35.599998474121</ele>
        <time>2015-12-07T20:36:09Z</time>
      </trkpt>
      <trkpt lat="48.91959" lon="2.37335">
        <ele>35.79999923706</ele>
        <time>2015-12-07T20:36:14Z</time>
      </trkpt>
      <trkpt lat="48.91973" lon="2.37314">
        <ele>35.599998474121</ele>
        <time>2015-12-07T20:36:18Z</time>
      </trkpt>
      <trkpt lat="48.91976" lon="2.37309">
        <ele>35.599998474121</ele>
        <time>2015-12-07T20:36:19Z</time>
      </trkpt>
      <trkpt lat="48.9199" lon="2.37283">
        <ele>35.20000076294</ele>
        <time>2015-12-07T20:36:23Z</time>
      </trkpt>
      <trkpt lat="48.92003" lon="2.37258">
        <ele>34.599998474121</ele>
        <time>2015-12-07T20:36:27Z</time>
      </trkpt>
      <trkpt lat="48.92013" lon="2.3724">
        <ele>34.400001525879</ele>
        <time>2015-12-07T20:36:30Z</time>
      </trkpt>
      <trkpt lat="48.9203" lon="2.37231">
        <ele>34.400001525879</ele>
        <time>2015-12-07T20:36:34Z</time>
      </trkpt>
      <trkpt lat="48.92042" lon="2.3725">
        <ele>34.79999923706</ele>
        <time>2015-12-07T20:36:38Z</time>
      </trkpt>
      <trkpt lat="48.92049" lon="2.37265">
        <ele>34.79999923706</ele>
        <time>2015-12-07T20:36:41Z</time>
      </trkpt>
      <trkpt lat="48.92067" lon="2.37268">
        <ele>35.599998474121</ele>
        <time>2015-12-07T20:36:47Z</time>
      </trkpt>
      <trkpt lat="48.92069" lon="2.37265">
        <ele>35.79999923706</ele>
        <time>2015-12-07T20:36:48Z</time>
      </trkpt>
      <trkpt lat="48.92071" lon="2.37262">
        <ele>36</ele>
        <time>2015-12-07T20:36:49Z</time>
      </trkpt>
      <trkpt lat="48.92071" lon="2.37239">
        <ele>36.400001525879</ele>
        <time>2015-12-07T20:36:54Z</time>
      </trkpt>
      <trkpt lat="48.92059" lon="2.37225">
        <ele>36</ele>
        <time>2015-12-07T20:37:01Z</time>
      </trkpt>
      <trkpt lat="48.92048" lon="2.37237">
        <ele>35.400001525879</ele>
        <time>2015-12-07T20:37:10Z</time>
      </trkpt>
      <trkpt lat="48.92049" lon="2.37257">
        <ele>35</ele>
        <time>2015-12-07T20:37:17Z</time>
      </trkpt>
      <trkpt lat="48.92063" lon="2.37272">
        <ele>35.400001525879</ele>
        <time>2015-12-07T20:37:28Z</time>
      </trkpt>
      <trkpt lat="48.92067" lon="2.37272">
        <ele>35.400001525879</ele>
        <time>2015-12-07T20:37:33Z</time>
      </trkpt>
      <trkpt lat="48.92062" lon="2.37298">
        <ele>35</ele>
        <time>2015-12-07T20:38:43Z</time>
      </trkpt>
      <trkpt lat="48.92066" lon="2.37327">
        <ele>35.400001525879</ele>
        <time>2015-12-07T20:38:49Z</time>
      </trkpt>
      <trkpt lat="48.92068" lon="2.3736">
        <ele>36.20000076294</ele>
        <time>2015-12-07T20:38:55Z</time>
      </trkpt>
      <trkpt lat="48.92074" lon="2.37387">
        <ele>36.79999923706</ele>
        <time>2015-12-07T20:38:59Z</time>
      </trkpt>
      <trkpt lat="48.92081" lon="2.37417">
        <ele>36.79999923706</ele>
        <time>2015-12-07T20:39:04Z</time>
      </trkpt>
      <trkpt lat="48.92087" lon="2.37445">
        <ele>37</ele>
        <time>2015-12-07T20:39:09Z</time>
      </trkpt>
      <trkpt lat="48.92092" lon="2.37474">
        <ele>37.20000076294</ele>
        <time>2015-12-07T20:39:14Z</time>
      </trkpt>
      <trkpt lat="48.92097" lon="2.37501">
        <ele>37.79999923706</ele>
        <time>2015-12-07T20:39:19Z</time>
      </trkpt>
      <trkpt lat="48.92104" lon="2.37527">
        <ele>37.599998474121</ele>
        <time>2015-12-07T20:39:24Z</time>
      </trkpt>
      <trkpt lat="48.92115" lon="2.3755">
        <ele>37.599998474121</ele>
        <time>2015-12-07T20:39:32Z</time>
      </trkpt>
      <trkpt lat="48.92119" lon="2.37577">
        <ele>37.400001525879</ele>
        <time>2015-12-07T20:39:43Z</time>
      </trkpt>
      <trkpt lat="48.92126" lon="2.37604">
        <ele>37.20000076294</ele>
        <time>2015-12-07T20:39:52Z</time>
      </trkpt>
      <trkpt lat="48.92128" lon="2.37633">
        <ele>36.599998474121</ele>
        <time>2015-12-07T20:39:58Z</time>
      </trkpt>
      <trkpt lat="48.92126" lon="2.37663">
        <ele>35.79999923706</ele>
        <time>2015-12-07T20:40:03Z</time>
      </trkpt>
      <trkpt lat="48.92113" lon="2.3769">
        <ele>35</ele>
        <time>2015-12-07T20:40:08Z</time>
      </trkpt>
      <trkpt lat="48.921" lon="2.37709">
        <ele>34.599998474121</ele>
        <time>2015-12-07T20:40:12Z</time>
      </trkpt>
      <trkpt lat="48.92084" lon="2.37725">
        <ele>34.599998474121</ele>
        <time>2015-12-07T20:40:16Z</time>
      </trkpt>
      <trkpt lat="48.92066" lon="2.37737">
        <ele>34.599998474121</ele>
        <time>2015-12-07T20:40:20Z</time>
      </trkpt>
      <trkpt lat="48.92048" lon="2.37749">
        <ele>34.79999923706</ele>
        <time>2015-12-07T20:40:24Z</time>
      </trkpt>
      <trkpt lat="48.9203" lon="2.37759">
        <ele>35</ele>
        <time>2015-12-07T20:40:28Z</time>
      </trkpt>
      <trkpt lat="48.92012" lon="2.37771">
        <ele>34.79999923706</ele>
        <time>2015-12-07T20:40:32Z</time>
      </trkpt>
      <trkpt lat="48.91994" lon="2.37785">
        <ele>34.599998474121</ele>
        <time>2015-12-07T20:40:36Z</time>
      </trkpt>
      <trkpt lat="48.91974" lon="2.37799">
        <ele>35</ele>
        <time>2015-12-07T20:40:40Z</time>
      </trkpt>
      <trkpt lat="48.91958" lon="2.37814">
        <ele>36</ele>
        <time>2015-12-07T20:40:44Z</time>
      </trkpt>
      <trkpt lat="48.9194" lon="2.37829">
        <ele>37</ele>
        <time>2015-12-07T20:40:48Z</time>
      </trkpt>
      <trkpt lat="48.9192" lon="2.37843">
        <ele>36.599998474121</ele>
        <time>2015-12-07T20:40:52Z</time>
      </trkpt>
      <trkpt lat="48.91899" lon="2.37856">
        <ele>36.20000076294</ele>
        <time>2015-12-07T20:40:56Z</time>
      </trkpt>
      <trkpt lat="48.91879" lon="2.37871">
        <ele>36</ele>
        <time>2015-12-07T20:41:00Z</time>
      </trkpt>
      <trkpt lat="48.9186" lon="2.37885">
        <ele>36</ele>
        <time>2015-12-07T20:41:04Z</time>
      </trkpt>
      <trkpt lat="48.91849" lon="2.37892">
        <ele>36</ele>
        <time>2015-12-07T20:41:06Z</time>
      </trkpt>
      <trkpt lat="48.91828" lon="2.37906">
        <ele>36</ele>
        <time>2015-12-07T20:41:10Z</time>
      </trkpt>
      <trkpt lat="48.91822" lon="2.3791">
        <ele>36</ele>
        <time>2015-12-07T20:41:11Z</time>
      </trkpt>
      <trkpt lat="48.91805" lon="2.3792">
        <ele>36</ele>
        <time>2015-12-07T20:41:14Z</time>
      </trkpt>
      <trkpt lat="48.91787" lon="2.37931">
        <ele>36</ele>
        <time>2015-12-07T20:41:17Z</time>
      </trkpt>
      <trkpt lat="48.91768" lon="2.37943">
        <ele>35.79999923706</ele>
        <time>2015-12-07T20:41:20Z</time>
      </trkpt>
      <trkpt lat="48.9175" lon="2.37954">
        <ele>35.400001525879</ele>
        <time>2015-12-07T20:41:23Z</time>
      </trkpt>
      <trkpt lat="48.91731" lon="2.37966">
        <ele>35.20000076294</ele>
        <time>2015-12-07T20:41:26Z</time>
      </trkpt>
      <trkpt lat="48.91713" lon="2.37978">
        <ele>35</ele>
        <time>2015-12-07T20:41:29Z</time>
      </trkpt>
      <trkpt lat="48.91701" lon="2.37986">
        <ele>35</ele>
        <time>2015-12-07T20:41:31Z</time>
      </trkpt>
      <trkpt lat="48.91684" lon="2.38">
        <ele>35</ele>
        <time>2015-12-07T20:41:34Z</time>
      </trkpt>
      <trkpt lat="48.91664" lon="2.38011">
        <ele>35.400001525879</ele>
        <time>2015-12-07T20:41:37Z</time>
      </trkpt>
      <trkpt lat="48.91646" lon="2.38023">
        <ele>35.79999923706</ele>
        <time>2015-12-07T20:41:40Z</time>
      </trkpt>
      <trkpt lat="48.91627" lon="2.38036">
        <ele>36</ele>
        <time>2015-12-07T20:41:43Z</time>
      </trkpt>
      <trkpt lat="48.91609" lon="2.38054">
        <ele>36</ele>
        <time>2015-12-07T20:41:46Z</time>
      </trkpt>
      <trkpt lat="48.91591" lon="2.38068">
        <ele>36.20000076294</ele>
        <time>2015-12-07T20:41:49Z</time>
      </trkpt>
      <trkpt lat="48.91567" lon="2.38081">
        <ele>36.400001525879</ele>
        <time>2015-12-07T20:41:52Z</time>
      </trkpt>
      <trkpt lat="48.91546" lon="2.38096">
        <ele>37</ele>
        <time>2015-12-07T20:41:55Z</time>
      </trkpt>
      <trkpt lat="48.91539" lon="2.381">
        <ele>37</ele>
        <time>2015-12-07T20:41:56Z</time>
      </trkpt>
      <trkpt lat="48.91522" lon="2.3811">
        <ele>38</ele>
        <time>2015-12-07T20:41:59Z</time>
      </trkpt>
      <trkpt lat="48.915" lon="2.38117">
        <ele>38.79999923706</ele>
        <time>2015-12-07T20:42:03Z</time>
      </trkpt>
      <trkpt lat="48.91487" lon="2.38124">
        <ele>39.400001525879</ele>
        <time>2015-12-07T20:42:06Z</time>
      </trkpt>
      <trkpt lat="48.91481" lon="2.38128">
        <ele>39.400001525879</ele>
        <time>2015-12-07T20:42:08Z</time>
      </trkpt>
      <trkpt lat="48.9147" lon="2.38143">
        <ele>39.400001525879</ele>
        <time>2015-12-07T20:42:15Z</time>
      </trkpt>
      <trkpt lat="48.91467" lon="2.38152">
        <ele>39.400001525879</ele>
        <time>2015-12-07T20:42:19Z</time>
      </trkpt>
      <trkpt lat="48.91454" lon="2.38168">
        <ele>39.20000076294</ele>
        <time>2015-12-07T20:42:27Z</time>
      </trkpt>
      <trkpt lat="48.91438" lon="2.38186">
        <ele>39.599998474121</ele>
        <time>2015-12-07T20:42:33Z</time>
      </trkpt>
      <trkpt lat="48.91421" lon="2.38201">
        <ele>40.599998474121</ele>
        <time>2015-12-07T20:42:39Z</time>
      </trkpt>
      <trkpt lat="48.91405" lon="2.38216">
        <ele>41.400001525879</ele>
        <time>2015-12-07T20:42:44Z</time>
      </trkpt>
      <trkpt lat="48.91389" lon="2.38231">
        <ele>41.599998474121</ele>
        <time>2015-12-07T20:42:49Z</time>
      </trkpt>
      <trkpt lat="48.91374" lon="2.38251">
        <ele>41.79999923706</ele>
        <time>2015-12-07T20:42:54Z</time>
      </trkpt>
      <trkpt lat="48.91358" lon="2.38271">
        <ele>42</ele>
        <time>2015-12-07T20:43:00Z</time>
      </trkpt>
      <trkpt lat="48.91339" lon="2.3829">
        <ele>42.400001525879</ele>
        <time>2015-12-07T20:43:05Z</time>
      </trkpt>
      <trkpt lat="48.91319" lon="2.38307">
        <ele>42.599998474121</ele>
        <time>2015-12-07T20:43:09Z</time>
      </trkpt>
      <trkpt lat="48.91298" lon="2.38316">
        <ele>42.400001525879</ele>
        <time>2015-12-07T20:43:12Z</time>
      </trkpt>
      <trkpt lat="48.91281" lon="2.38331">
        <ele>42</ele>
        <time>2015-12-07T20:43:16Z</time>
      </trkpt>
      <trkpt lat="48.91271" lon="2.38338">
        <ele>42</ele>
        <time>2015-12-07T20:43:20Z</time>
      </trkpt>
      <trkpt lat="48.9126" lon="2.38343">
        <ele>41.79999923706</ele>
        <time>2015-12-07T20:43:24Z</time>
      </trkpt>
      <trkpt lat="48.91244" lon="2.38356">
        <ele>41.79999923706</ele>
        <time>2015-12-07T20:43:29Z</time>
      </trkpt>
      <trkpt lat="48.91241" lon="2.3836">
        <ele>41.599998474121</ele>
        <time>2015-12-07T20:43:30Z</time>
      </trkpt>
      <trkpt lat="48.91226" lon="2.38376">
        <ele>41.400001525879</ele>
        <time>2015-12-07T20:43:34Z</time>
      </trkpt>
      <trkpt lat="48.91208" lon="2.38394">
        <ele>41.20000076294</ele>
        <time>2015-12-07T20:43:38Z</time>
      </trkpt>
      <trkpt lat="48.91192" lon="2.38412">
        <ele>41</ele>
        <time>2015-12-07T20:43:42Z</time>
      </trkpt>
      <trkpt lat="48.91173" lon="2.38431">
        <ele>41</ele>
        <time>2015-12-07T20:43:46Z</time>
      </trkpt>
      <trkpt lat="48.91154" lon="2.3845">
        <ele>41</ele>
        <time>2015-12-07T20:43:50Z</time>
      </trkpt>
      <trkpt lat="48.91137" lon="2.38469">
        <ele>41</ele>
        <time>2015-12-07T20:43:54Z</time>
      </trkpt>
      <trkpt lat="48.9112" lon="2.38487">
        <ele>41</ele>
        <time>2015-12-07T20:43:58Z</time>
      </trkpt>
      <trkpt lat="48.91103" lon="2.38505">
        <ele>41.400001525879</ele>
        <time>2015-12-07T20:44:03Z</time>
      </trkpt>
      <trkpt lat="48.91097" lon="2.38511">
        <ele>41.599998474121</ele>
        <time>2015-12-07T20:44:05Z</time>
      </trkpt>
      <trkpt lat="48.9108" lon="2.38522">
        <ele>42.599998474121</ele>
        <time>2015-12-07T20:44:12Z</time>
      </trkpt>
      <trkpt lat="48.91062" lon="2.38522">
        <ele>43</ele>
        <time>2015-12-07T20:44:38Z</time>
      </trkpt>
      <trkpt lat="48.9105" lon="2.38532">
        <ele>43.20000076294</ele>
        <time>2015-12-07T20:44:56Z</time>
      </trkpt>
      <trkpt lat="48.91034" lon="2.38553">
        <ele>42.599998474121</ele>
        <time>2015-12-07T20:45:03Z</time>
      </trkpt>
      <trkpt lat="48.9102" lon="2.3857">
        <ele>42</ele>
        <time>2015-12-07T20:45:08Z</time>
      </trkpt>
      <trkpt lat="48.91002" lon="2.38589">
        <ele>42</ele>
        <time>2015-12-07T20:45:13Z</time>
      </trkpt>
      <trkpt lat="48.90987" lon="2.38604">
        <ele>41.79999923706</ele>
        <time>2015-12-07T20:45:17Z</time>
      </trkpt>
      <trkpt lat="48.9097" lon="2.38622">
        <ele>41.599998474121</ele>
        <time>2015-12-07T20:45:21Z</time>
      </trkpt>
      <trkpt lat="48.90953" lon="2.38639">
        <ele>41.79999923706</ele>
        <time>2015-12-07T20:45:25Z</time>
      </trkpt>
      <trkpt lat="48.90937" lon="2.38655">
        <ele>42.400001525879</ele>
        <time>2015-12-07T20:45:29Z</time>
      </trkpt>
      <trkpt lat="48.90922" lon="2.38673">
        <ele>42.599998474121</ele>
        <time>2015-12-07T20:45:33Z</time>
      </trkpt>
      <trkpt lat="48.90905" lon="2.38691">
        <ele>43</ele>
        <time>2015-12-07T20:45:37Z</time>
      </trkpt>
      <trkpt lat="48.90885" lon="2.3871">
        <ele>43</ele>
        <time>2015-12-07T20:45:41Z</time>
      </trkpt>
      <trkpt lat="48.90867" lon="2.38727">
        <ele>42.599998474121</ele>
        <time>2015-12-07T20:45:45Z</time>
      </trkpt>
      <trkpt lat="48.90863" lon="2.38732">
        <ele>42.599998474121</ele>
        <time>2015-12-07T20:45:46Z</time>
      </trkpt>
      <trkpt lat="48.90854" lon="2.38741">
        <ele>42</ele>
        <time>2015-12-07T20:45:48Z</time>
      </trkpt>
      <trkpt lat="48.90842" lon="2.3875">
        <ele>41.79999923706</ele>
        <time>2015-12-07T20:45:51Z</time>
      </trkpt>
      <trkpt lat="48.90827" lon="2.38767">
        <ele>42</ele>
        <time>2015-12-07T20:45:55Z</time>
      </trkpt>
      <trkpt lat="48.9081" lon="2.38783">
        <ele>42.20000076294</ele>
        <time>2015-12-07T20:45:59Z</time>
      </trkpt>
      <trkpt lat="48.90795" lon="2.38798">
        <ele>42.79999923706</ele>
        <time>2015-12-07T20:46:03Z</time>
      </trkpt>
      <trkpt lat="48.9078" lon="2.38814">
        <ele>43.400001525879</ele>
        <time>2015-12-07T20:46:07Z</time>
      </trkpt>
      <trkpt lat="48.90762" lon="2.38826">
        <ele>43.79999923706</ele>
        <time>2015-12-07T20:46:12Z</time>
      </trkpt>
      <trkpt lat="48.9076" lon="2.38828">
        <ele>43.599998474121</ele>
        <time>2015-12-07T20:46:13Z</time>
      </trkpt>
      <trkpt lat="48.90746" lon="2.38846">
        <ele>43.599998474121</ele>
        <time>2015-12-07T20:46:18Z</time>
      </trkpt>
      <trkpt lat="48.90742" lon="2.3885">
        <ele>43.599998474121</ele>
        <time>2015-12-07T20:46:19Z</time>
      </trkpt>
      <trkpt lat="48.90732" lon="2.38857">
        <ele>43.599998474121</ele>
        <time>2015-12-07T20:46:21Z</time>
      </trkpt>
      <trkpt lat="48.90717" lon="2.38879">
        <ele>43.79999923706</ele>
        <time>2015-12-07T20:46:25Z</time>
      </trkpt>
      <trkpt lat="48.90712" lon="2.38883">
        <ele>43.79999923706</ele>
        <time>2015-12-07T20:46:26Z</time>
      </trkpt>
      <trkpt lat="48.90694" lon="2.389">
        <ele>43.79999923706</ele>
        <time>2015-12-07T20:46:30Z</time>
      </trkpt>
      <trkpt lat="48.90676" lon="2.38918">
        <ele>44</ele>
        <time>2015-12-07T20:46:34Z</time>
      </trkpt>
      <trkpt lat="48.90662" lon="2.38935">
        <ele>44.20000076294</ele>
        <time>2015-12-07T20:46:38Z</time>
      </trkpt>
      <trkpt lat="48.90645" lon="2.38954">
        <ele>44.400001525879</ele>
        <time>2015-12-07T20:46:43Z</time>
      </trkpt>
      <trkpt lat="48.9063" lon="2.38966">
        <ele>44.20000076294</ele>
        <time>2015-12-07T20:46:47Z</time>
      </trkpt>
      <trkpt lat="48.90611" lon="2.38981">
        <ele>44</ele>
        <time>2015-12-07T20:46:52Z</time>
      </trkpt>
      <trkpt lat="48.90597" lon="2.38992">
        <ele>44.400001525879</ele>
        <time>2015-12-07T20:46:55Z</time>
      </trkpt>
      <trkpt lat="48.90581" lon="2.39007">
        <ele>45</ele>
        <time>2015-12-07T20:46:59Z</time>
      </trkpt>
      <trkpt lat="48.90568" lon="2.39019">
        <ele>45.599998474121</ele>
        <time>2015-12-07T20:47:02Z</time>
      </trkpt>
      <trkpt lat="48.90552" lon="2.39034">
        <ele>46.20000076294</ele>
        <time>2015-12-07T20:47:06Z</time>
      </trkpt>
      <trkpt lat="48.90537" lon="2.39046">
        <ele>45.79999923706</ele>
        <time>2015-12-07T20:47:10Z</time>
      </trkpt>
      <trkpt lat="48.90523" lon="2.3906">
        <ele>45.599998474121</ele>
        <time>2015-12-07T20:47:14Z</time>
      </trkpt>
      <trkpt lat="48.90519" lon="2.39063">
        <ele>45.400001525879</ele>
        <time>2015-12-07T20:47:15Z</time>
      </trkpt>
      <trkpt lat="48.90504" lon="2.39078">
        <ele>45.599998474121</ele>
        <time>2015-12-07T20:47:20Z</time>
      </trkpt>
      <trkpt lat="48.90501" lon="2.39081">
        <ele>45.599998474121</ele>
        <time>2015-12-07T20:47:21Z</time>
      </trkpt>
      <trkpt lat="48.90493" lon="2.39088">
        <ele>45.79999923706</ele>
        <time>2015-12-07T20:47:23Z</time>
      </trkpt>
      <trkpt lat="48.90477" lon="2.39102">
        <ele>46.400001525879</ele>
        <time>2015-12-07T20:47:27Z</time>
      </trkpt>
      <trkpt lat="48.90463" lon="2.39116">
        <ele>46.79999923706</ele>
        <time>2015-12-07T20:47:31Z</time>
      </trkpt>
      <trkpt lat="48.90446" lon="2.39133">
        <ele>47</ele>
        <time>2015-12-07T20:47:35Z</time>
      </trkpt>
      <trkpt lat="48.90442" lon="2.39137">
        <ele>47</ele>
        <time>2015-12-07T20:47:36Z</time>
      </trkpt>
      <trkpt lat="48.90424" lon="2.39153">
        <ele>46.79999923706</ele>
        <time>2015-12-07T20:47:40Z</time>
      </trkpt>
      <trkpt lat="48.90408" lon="2.39167">
        <ele>46.20000076294</ele>
        <time>2015-12-07T20:47:44Z</time>
      </trkpt>
      <trkpt lat="48.90392" lon="2.39184">
        <ele>45.79999923706</ele>
        <time>2015-12-07T20:47:49Z</time>
      </trkpt>
      <trkpt lat="48.90388" lon="2.39186">
        <ele>45.79999923706</ele>
        <time>2015-12-07T20:47:50Z</time>
      </trkpt>
      <trkpt lat="48.90384" lon="2.39192">
        <ele>45.599998474121</ele>
        <time>2015-12-07T20:47:52Z</time>
      </trkpt>
      <trkpt lat="48.90375" lon="2.39191">
        <ele>45.79999923706</ele>
        <time>2015-12-07T20:47:56Z</time>
      </trkpt>
      <trkpt lat="48.90368" lon="2.39195">
        <ele>46</ele>
        <time>2015-12-07T20:48:00Z</time>
      </trkpt>
      <trkpt lat="48.90367" lon="2.39197">
        <ele>46</ele>
        <time>2015-12-07T20:48:01Z</time>
      </trkpt>
      <trkpt lat="48.90364" lon="2.39201">
        <ele>46.20000076294</ele>
        <time>2015-12-07T20:48:03Z</time>
      </trkpt>
      <trkpt lat="48.90355" lon="2.3919">
        <ele>46</ele>
        <time>2015-12-07T20:48:42Z</time>
      </trkpt>
      <trkpt lat="48.90339" lon="2.39174">
        <ele>45.599998474121</ele>
        <time>2015-12-07T20:48:47Z</time>
      </trkpt>
      <trkpt lat="48.90335" lon="2.39171">
        <ele>45.400001525879</ele>
        <time>2015-12-07T20:48:48Z</time>
      </trkpt>
      <trkpt lat="48.9032" lon="2.39154">
        <ele>45.400001525879</ele>
        <time>2015-12-07T20:48:52Z</time>
      </trkpt>
      <trkpt lat="48.903" lon="2.39138">
        <ele>45.599998474121</ele>
        <time>2015-12-07T20:48:57Z</time>
      </trkpt>
      <trkpt lat="48.90283" lon="2.39124">
        <ele>45.79999923706</ele>
        <time>2015-12-07T20:49:03Z</time>
      </trkpt>
      <trkpt lat="48.90265" lon="2.39109">
        <ele>46</ele>
        <time>2015-12-07T20:49:10Z</time>
      </trkpt>
      <trkpt lat="48.90248" lon="2.39095">
        <ele>46.400001525879</ele>
        <time>2015-12-07T20:49:16Z</time>
      </trkpt>
      <trkpt lat="48.90231" lon="2.39075">
        <ele>46.599998474121</ele>
        <time>2015-12-07T20:49:22Z</time>
      </trkpt>
      <trkpt lat="48.90215" lon="2.39058">
        <ele>46.599998474121</ele>
        <time>2015-12-07T20:49:27Z</time>
      </trkpt>
      <trkpt lat="48.902" lon="2.39041">
        <ele>46.79999923706</ele>
        <time>2015-12-07T20:49:32Z</time>
      </trkpt>
      <trkpt lat="48.90184" lon="2.39027">
        <ele>47.20000076294</ele>
        <time>2015-12-07T20:49:37Z</time>
      </trkpt>
      <trkpt lat="48.90167" lon="2.3901">
        <ele>47.79999923706</ele>
        <time>2015-12-07T20:49:42Z</time>
      </trkpt>
      <trkpt lat="48.90149" lon="2.38992">
        <ele>48.400001525879</ele>
        <time>2015-12-07T20:49:47Z</time>
      </trkpt>
      <trkpt lat="48.90133" lon="2.38976">
        <ele>49</ele>
        <time>2015-12-07T20:49:52Z</time>
      </trkpt>
      <trkpt lat="48.90115" lon="2.3896">
        <ele>49.79999923706</ele>
        <time>2015-12-07T20:49:58Z</time>
      </trkpt>
      <trkpt lat="48.90106" lon="2.38933">
        <ele>50</ele>
        <time>2015-12-07T20:50:04Z</time>
      </trkpt>
      <trkpt lat="48.901" lon="2.38901">
        <ele>49.599998474121</ele>
        <time>2015-12-07T20:50:10Z</time>
      </trkpt>
      <trkpt lat="48.90094" lon="2.38873">
        <ele>49.20000076294</ele>
        <time>2015-12-07T20:50:16Z</time>
      </trkpt>
      <trkpt lat="48.90095" lon="2.38843">
        <ele>49.400001525879</ele>
        <time>2015-12-07T20:50:22Z</time>
      </trkpt>
      <trkpt lat="48.90104" lon="2.38816">
        <ele>49.79999923706</ele>
        <time>2015-12-07T20:50:30Z</time>
      </trkpt>
      <trkpt lat="48.90111" lon="2.388">
        <ele>50</ele>
        <time>2015-12-07T20:50:38Z</time>
      </trkpt>
      <trkpt lat="48.9011" lon="2.38792">
        <ele>50</ele>
        <time>2015-12-07T20:51:16Z</time>
      </trkpt>
      <trkpt lat="48.90106" lon="2.38764">
        <ele>50</ele>
        <time>2015-12-07T20:51:21Z</time>
      </trkpt>
      <trkpt lat="48.90098" lon="2.38735">
        <ele>49.20000076294</ele>
        <time>2015-12-07T20:51:26Z</time>
      </trkpt>
      <trkpt lat="48.90096" lon="2.3873">
        <ele>48.79999923706</ele>
        <time>2015-12-07T20:51:27Z</time>
      </trkpt>
      <trkpt lat="48.90084" lon="2.3871">
        <ele>47.599998474121</ele>
        <time>2015-12-07T20:51:32Z</time>
      </trkpt>
      <trkpt lat="48.90081" lon="2.38708">
        <ele>47.400001525879</ele>
        <time>2015-12-07T20:51:33Z</time>
      </trkpt>
      <trkpt lat="48.90068" lon="2.38705">
        <ele>46.599998474121</ele>
        <time>2015-12-07T20:51:39Z</time>
      </trkpt>
      <trkpt lat="48.90049" lon="2.38699">
        <ele>45.20000076294</ele>
        <time>2015-12-07T20:51:46Z</time>
      </trkpt>
      <trkpt lat="48.90038" lon="2.38694">
        <ele>44.400001525879</ele>
        <time>2015-12-07T20:51:50Z</time>
      </trkpt>
      <trkpt lat="48.90025" lon="2.38677">
        <ele>43.20000076294</ele>
        <time>2015-12-07T20:51:59Z</time>
      </trkpt>
      <trkpt lat="48.90026" lon="2.3869">
        <ele>43.400001525879</ele>
        <time>2015-12-07T20:52:05Z</time>
      </trkpt>
      <trkpt lat="48.90013" lon="2.38705">
        <ele>43.599998474121</ele>
        <time>2015-12-07T20:52:19Z</time>
      </trkpt>
      <trkpt lat="48.90007" lon="2.3872">
        <ele>43.79999923706</ele>
        <time>2015-12-07T20:52:24Z</time>
      </trkpt>
      <trkpt lat="48.89995" lon="2.38744">
        <ele>44.79999923706</ele>
        <time>2015-12-07T20:52:32Z</time>
      </trkpt>
      <trkpt lat="48.89983" lon="2.38756">
        <ele>45.599998474121</ele>
        <time>2015-12-07T20:52:40Z</time>
      </trkpt>
      <trkpt lat="48.89972" lon="2.38756">
        <ele>46</ele>
        <time>2015-12-07T20:53:28Z</time>
      </trkpt>
      <trkpt lat="48.89956" lon="2.38741">
        <ele>46.20000076294</ele>
        <time>2015-12-07T20:53:40Z</time>
      </trkpt>
      <trkpt lat="48.89939" lon="2.38727">
        <ele>46.20000076294</ele>
        <time>2015-12-07T20:53:52Z</time>
      </trkpt>
      <trkpt lat="48.89922" lon="2.38712">
        <ele>46.599998474121</ele>
        <time>2015-12-07T20:54:00Z</time>
      </trkpt>
      <trkpt lat="48.89906" lon="2.38697">
        <ele>46.79999923706</ele>
        <time>2015-12-07T20:54:07Z</time>
      </trkpt>
      <trkpt lat="48.89889" lon="2.38684">
        <ele>47.20000076294</ele>
        <time>2015-12-07T20:54:14Z</time>
      </trkpt>
      <trkpt lat="48.89872" lon="2.38667">
        <ele>47.400001525879</ele>
        <time>2015-12-07T20:54:21Z</time>
      </trkpt>
      <trkpt lat="48.89856" lon="2.3865">
        <ele>48.20000076294</ele>
        <time>2015-12-07T20:54:27Z</time>
      </trkpt>
      <trkpt lat="48.89841" lon="2.3863">
        <ele>48.79999923706</ele>
        <time>2015-12-07T20:54:33Z</time>
      </trkpt>
      <trkpt lat="48.89823" lon="2.38613">
        <ele>49.400001525879</ele>
        <time>2015-12-07T20:54:40Z</time>
      </trkpt>
      <trkpt lat="48.89808" lon="2.38595">
        <ele>50</ele>
        <time>2015-12-07T20:54:46Z</time>
      </trkpt>
      <trkpt lat="48.89793" lon="2.38572">
        <ele>50.79999923706</ele>
        <time>2015-12-07T20:54:53Z</time>
      </trkpt>
      <trkpt lat="48.89778" lon="2.38559">
        <ele>51.400001525879</ele>
        <time>2015-12-07T20:54:58Z</time>
      </trkpt>
      <trkpt lat="48.89755" lon="2.38548">
        <ele>52.20000076294</ele>
        <time>2015-12-07T20:55:02Z</time>
      </trkpt>
      <trkpt lat="48.89738" lon="2.38534">
        <ele>53</ele>
        <time>2015-12-07T20:55:08Z</time>
      </trkpt>
      <trkpt lat="48.89734" lon="2.38529">
        <ele>53.20000076294</ele>
        <time>2015-12-07T20:55:10Z</time>
      </trkpt>
      <trkpt lat="48.89723" lon="2.38519">
        <ele>53.599998474121</ele>
        <time>2015-12-07T20:55:14Z</time>
      </trkpt>
      <trkpt lat="48.89706" lon="2.38505">
        <ele>54.400001525879</ele>
        <time>2015-12-07T20:55:19Z</time>
      </trkpt>
      <trkpt lat="48.89688" lon="2.38487">
        <ele>54.400001525879</ele>
        <time>2015-12-07T20:55:24Z</time>
      </trkpt>
      <trkpt lat="48.89672" lon="2.38469">
        <ele>53</ele>
        <time>2015-12-07T20:55:28Z</time>
      </trkpt>
      <trkpt lat="48.89656" lon="2.38453">
        <ele>51.599998474121</ele>
        <time>2015-12-07T20:55:32Z</time>
      </trkpt>
      <trkpt lat="48.89642" lon="2.38435">
        <ele>50.20000076294</ele>
        <time>2015-12-07T20:55:36Z</time>
      </trkpt>
      <trkpt lat="48.89637" lon="2.38414">
        <ele>49</ele>
        <time>2015-12-07T20:55:40Z</time>
      </trkpt>
      <trkpt lat="48.89625" lon="2.38402">
        <ele>49</ele>
        <time>2015-12-07T20:55:45Z</time>
      </trkpt>
      <trkpt lat="48.8961" lon="2.38382">
        <ele>49</ele>
        <time>2015-12-07T20:55:53Z</time>
      </trkpt>
      <trkpt lat="48.89595" lon="2.38366">
        <ele>49.20000076294</ele>
        <time>2015-12-07T20:56:03Z</time>
      </trkpt>
      <trkpt lat="48.89581" lon="2.38357">
        <ele>49.400001525879</ele>
        <time>2015-12-07T20:56:14Z</time>
      </trkpt>
      <trkpt lat="48.89572" lon="2.38374">
        <ele>49</ele>
        <time>2015-12-07T20:56:33Z</time>
      </trkpt>
      <trkpt lat="48.89554" lon="2.38387">
        <ele>48.400001525879</ele>
        <time>2015-12-07T20:56:38Z</time>
      </trkpt>
      <trkpt lat="48.89537" lon="2.38397">
        <ele>47.79999923706</ele>
        <time>2015-12-07T20:56:42Z</time>
      </trkpt>
      <trkpt lat="48.89519" lon="2.38409">
        <ele>47.400001525879</ele>
        <time>2015-12-07T20:56:46Z</time>
      </trkpt>
      <trkpt lat="48.895" lon="2.38422">
        <ele>48.20000076294</ele>
        <time>2015-12-07T20:56:50Z</time>
      </trkpt>
      <trkpt lat="48.8948" lon="2.38433">
        <ele>49</ele>
        <time>2015-12-07T20:56:54Z</time>
      </trkpt>
      <trkpt lat="48.89458" lon="2.38447">
        <ele>49.20000076294</ele>
        <time>2015-12-07T20:56:58Z</time>
      </trkpt>
      <trkpt lat="48.89441" lon="2.38457">
        <ele>48.400001525879</ele>
        <time>2015-12-07T20:57:01Z</time>
      </trkpt>
      <trkpt lat="48.8942" lon="2.38468">
        <ele>49</ele>
        <time>2015-12-07T20:57:05Z</time>
      </trkpt>
      <trkpt lat="48.894" lon="2.38478">
        <ele>50.20000076294</ele>
        <time>2015-12-07T20:57:09Z</time>
      </trkpt>
      <trkpt lat="48.89381" lon="2.38489">
        <ele>51.79999923706</ele>
        <time>2015-12-07T20:57:13Z</time>
      </trkpt>
      <trkpt lat="48.89362" lon="2.385">
        <ele>53.599998474121</ele>
        <time>2015-12-07T20:57:17Z</time>
      </trkpt>
      <trkpt lat="48.89357" lon="2.38502">
        <ele>53.79999923706</ele>
        <time>2015-12-07T20:57:18Z</time>
      </trkpt>
      <trkpt lat="48.89338" lon="2.38512">
        <ele>54</ele>
        <time>2015-12-07T20:57:22Z</time>
      </trkpt>
      <trkpt lat="48.89333" lon="2.38515">
        <ele>54</ele>
        <time>2015-12-07T20:57:23Z</time>
      </trkpt>
      <trkpt lat="48.89313" lon="2.38527">
        <ele>54</ele>
        <time>2015-12-07T20:57:27Z</time>
      </trkpt>
      <trkpt lat="48.89292" lon="2.3854">
        <ele>54.599998474121</ele>
        <time>2015-12-07T20:57:31Z</time>
      </trkpt>
      <trkpt lat="48.89287" lon="2.38543">
        <ele>54.79999923706</ele>
        <time>2015-12-07T20:57:32Z</time>
      </trkpt>
      <trkpt lat="48.89269" lon="2.38555">
        <ele>55.20000076294</ele>
        <time>2015-12-07T20:57:36Z</time>
      </trkpt>
      <trkpt lat="48.89259" lon="2.38559">
        <ele>55</ele>
        <time>2015-12-07T20:57:38Z</time>
      </trkpt>
      <trkpt lat="48.89239" lon="2.3855">
        <ele>55</ele>
        <time>2015-12-07T20:57:42Z</time>
      </trkpt>
      <trkpt lat="48.89219" lon="2.38537">
        <ele>55.20000076294</ele>
        <time>2015-12-07T20:57:46Z</time>
      </trkpt>
      <trkpt lat="48.89204" lon="2.38532">
        <ele>55.20000076294</ele>
        <time>2015-12-07T20:57:49Z</time>
      </trkpt>
      <trkpt lat="48.89185" lon="2.38532">
        <ele>55.400001525879</ele>
        <time>2015-12-07T20:57:53Z</time>
      </trkpt>
      <trkpt lat="48.89173" lon="2.38537">
        <ele>55.599998474121</ele>
        <time>2015-12-07T20:57:56Z</time>
      </trkpt>
      <trkpt lat="48.89156" lon="2.38527">
        <ele>55.79999923706</ele>
        <time>2015-12-07T20:58:01Z</time>
      </trkpt>
      <trkpt lat="48.89153" lon="2.38523">
        <ele>55.79999923706</ele>
        <time>2015-12-07T20:58:02Z</time>
      </trkpt>
      <trkpt lat="48.89146" lon="2.38509">
        <ele>55.599998474121</ele>
        <time>2015-12-07T20:58:05Z</time>
      </trkpt>
      <trkpt lat="48.89133" lon="2.38488">
        <ele>55.599998474121</ele>
        <time>2015-12-07T20:58:10Z</time>
      </trkpt>
      <trkpt lat="48.89126" lon="2.38476">
        <ele>55.400001525879</ele>
        <time>2015-12-07T20:58:13Z</time>
      </trkpt>
      <trkpt lat="48.89118" lon="2.38455">
        <ele>55.400001525879</ele>
        <time>2015-12-07T20:58:17Z</time>
      </trkpt>
      <trkpt lat="48.89105" lon="2.38431">
        <ele>55.20000076294</ele>
        <time>2015-12-07T20:58:23Z</time>
      </trkpt>
      <trkpt lat="48.89097" lon="2.38424">
        <ele>55.400001525879</ele>
        <time>2015-12-07T20:58:26Z</time>
      </trkpt>
      <trkpt lat="48.89082" lon="2.38409">
        <ele>55.599998474121</ele>
        <time>2015-12-07T20:58:32Z</time>
      </trkpt>
      <trkpt lat="48.89078" lon="2.38406">
        <ele>55.79999923706</ele>
        <time>2015-12-07T20:58:35Z</time>
      </trkpt>
      <trkpt lat="48.89089" lon="2.38405">
        <ele>55.599998474121</ele>
        <time>2015-12-07T20:58:50Z</time>
      </trkpt>
      <trkpt lat="48.89104" lon="2.38424">
        <ele>55.20000076294</ele>
        <time>2015-12-07T20:58:56Z</time>
      </trkpt>
      <trkpt lat="48.89116" lon="2.38445">
        <ele>55.20000076294</ele>
        <time>2015-12-07T20:59:01Z</time>
      </trkpt>
      <trkpt lat="48.89131" lon="2.38468">
        <ele>55.400001525879</ele>
        <time>2015-12-07T20:59:08Z</time>
      </trkpt>
      <trkpt lat="48.89137" lon="2.38484">
        <ele>55.400001525879</ele>
        <time>2015-12-07T20:59:12Z</time>
      </trkpt>
      <trkpt lat="48.89133" lon="2.38482">
        <ele>55.400001525879</ele>
        <time>2015-12-07T20:59:16Z</time>
      </trkpt>
      <trkpt lat="48.89128" lon="2.38481">
        <ele>55.599998474121</ele>
        <time>2015-12-07T20:59:20Z</time>
      </trkpt>
      <trkpt lat="48.89114" lon="2.38483">
        <ele>55.79999923706</ele>
        <time>2015-12-07T20:59:41Z</time>
      </trkpt>
      <trkpt lat="48.89095" lon="2.38487">
        <ele>56.20000076294</ele>
        <time>2015-12-07T20:59:52Z</time>
      </trkpt>
      <trkpt lat="48.89091" lon="2.38487">
        <ele>56.20000076294</ele>
        <time>2015-12-07T20:59:55Z</time>
      </trkpt>
      <trkpt lat="48.89092" lon="2.385">
        <ele>56.400001525879</ele>
        <time>2015-12-07T21:00:43Z</time>
      </trkpt>
      <trkpt lat="48.89081" lon="2.38488">
        <ele>56.400001525879</ele>
        <time>2015-12-07T21:01:02Z</time>
      </trkpt>
      <trkpt lat="48.89069" lon="2.38465">
        <ele>56.599998474121</ele>
        <time>2015-12-07T21:01:09Z</time>
      </trkpt>
      <trkpt lat="48.89059" lon="2.38451">
        <ele>56.599998474121</ele>
        <time>2015-12-07T21:01:12Z</time>
      </trkpt>
      <trkpt lat="48.89045" lon="2.38426">
        <ele>56.599998474121</ele>
        <time>2015-12-07T21:01:17Z</time>
      </trkpt>
      <trkpt lat="48.89031" lon="2.38402">
        <ele>57</ele>
        <time>2015-12-07T21:01:22Z</time>
      </trkpt>
      <trkpt lat="48.89019" lon="2.38376">
        <ele>57.79999923706</ele>
        <time>2015-12-07T21:01:27Z</time>
      </trkpt>
      <trkpt lat="48.8901" lon="2.38352">
        <ele>58.599998474121</ele>
        <time>2015-12-07T21:01:31Z</time>
      </trkpt>
      <trkpt lat="48.88996" lon="2.38328">
        <ele>59.599998474121</ele>
        <time>2015-12-07T21:01:36Z</time>
      </trkpt>
      <trkpt lat="48.88983" lon="2.38304">
        <ele>60</ele>
        <time>2015-12-07T21:01:41Z</time>
      </trkpt>
      <trkpt lat="48.88974" lon="2.38289">
        <ele>60.400001525879</ele>
        <time>2015-12-07T21:01:44Z</time>
      </trkpt>
      <trkpt lat="48.8896" lon="2.38263">
        <ele>61</ele>
        <time>2015-12-07T21:01:49Z</time>
      </trkpt>
      <trkpt lat="48.8895" lon="2.38246">
        <ele>61.400001525879</ele>
        <time>2015-12-07T21:01:52Z</time>
      </trkpt>
      <trkpt lat="48.88936" lon="2.38224">
        <ele>61.400001525879</ele>
        <time>2015-12-07T21:01:56Z</time>
      </trkpt>
      <trkpt lat="48.88933" lon="2.38217">
        <ele>61.400001525879</ele>
        <time>2015-12-07T21:01:57Z</time>
      </trkpt>
      <trkpt lat="48.88922" lon="2.38188">
        <ele>60.79999923706</ele>
        <time>2015-12-07T21:02:01Z</time>
      </trkpt>
      <trkpt lat="48.88912" lon="2.38161">
        <ele>60.20000076294</ele>
        <time>2015-12-07T21:02:05Z</time>
      </trkpt>
      <trkpt lat="48.88903" lon="2.38137">
        <ele>59.79999923706</ele>
        <time>2015-12-07T21:02:09Z</time>
      </trkpt>
      <trkpt lat="48.88891" lon="2.38113">
        <ele>59.20000076294</ele>
        <time>2015-12-07T21:02:13Z</time>
      </trkpt>
      <trkpt lat="48.88882" lon="2.38096">
        <ele>58.79999923706</ele>
        <time>2015-12-07T21:02:16Z</time>
      </trkpt>
      <trkpt lat="48.88865" lon="2.38069">
        <ele>58</ele>
        <time>2015-12-07T21:02:20Z</time>
      </trkpt>
      <trkpt lat="48.88862" lon="2.38063">
        <ele>57.79999923706</ele>
        <time>2015-12-07T21:02:21Z</time>
      </trkpt>
      <trkpt lat="48.88851" lon="2.38036">
        <ele>56.599998474121</ele>
        <time>2015-12-07T21:02:25Z</time>
      </trkpt>
      <trkpt lat="48.88841" lon="2.38013">
        <ele>55.599998474121</ele>
        <time>2015-12-07T21:02:30Z</time>
      </trkpt>
      <trkpt lat="48.88835" lon="2.38001">
        <ele>55.20000076294</ele>
        <time>2015-12-07T21:02:33Z</time>
      </trkpt>
      <trkpt lat="48.88825" lon="2.37975">
        <ele>55</ele>
        <time>2015-12-07T21:02:40Z</time>
      </trkpt>
      <trkpt lat="48.88822" lon="2.37963">
        <ele>54.79999923706</ele>
        <time>2015-12-07T21:03:29Z</time>
      </trkpt>
      <trkpt lat="48.88808" lon="2.37984">
        <ele>56</ele>
        <time>2015-12-07T21:03:37Z</time>
      </trkpt>
      <trkpt lat="48.88795" lon="2.37983">
        <ele>56.599998474121</ele>
        <time>2015-12-07T21:03:42Z</time>
      </trkpt>
      <trkpt lat="48.8878" lon="2.37962">
        <ele>56.79999923706</ele>
        <time>2015-12-07T21:03:48Z</time>
      </trkpt>
      <trkpt lat="48.88765" lon="2.37936">
        <ele>56.599998474121</ele>
        <time>2015-12-07T21:03:53Z</time>
      </trkpt>
      <trkpt lat="48.88752" lon="2.37913">
        <ele>56.20000076294</ele>
        <time>2015-12-07T21:03:57Z</time>
      </trkpt>
      <trkpt lat="48.88739" lon="2.37892">
        <ele>56.400001525879</ele>
        <time>2015-12-07T21:04:01Z</time>
      </trkpt>
      <trkpt lat="48.88725" lon="2.37866">
        <ele>56.599998474121</ele>
        <time>2015-12-07T21:04:06Z</time>
      </trkpt>
      <trkpt lat="48.8871" lon="2.37841">
        <ele>56.599998474121</ele>
        <time>2015-12-07T21:04:11Z</time>
      </trkpt>
      <trkpt lat="48.88698" lon="2.37821">
        <ele>57</ele>
        <time>2015-12-07T21:04:15Z</time>
      </trkpt>
      <trkpt lat="48.88689" lon="2.37799">
        <ele>57.79999923706</ele>
        <time>2015-12-07T21:04:19Z</time>
      </trkpt>
      <trkpt lat="48.88673" lon="2.37778">
        <ele>59.599998474121</ele>
        <time>2015-12-07T21:04:23Z</time>
      </trkpt>
      <trkpt lat="48.88671" lon="2.37773">
        <ele>60</ele>
        <time>2015-12-07T21:04:24Z</time>
      </trkpt>
      <trkpt lat="48.88665" lon="2.37763">
        <ele>60.79999923706</ele>
        <time>2015-12-07T21:04:26Z</time>
      </trkpt>
      <trkpt lat="48.88655" lon="2.37734">
        <ele>60.599998474121</ele>
        <time>2015-12-07T21:04:31Z</time>
      </trkpt>
      <trkpt lat="48.88645" lon="2.37715">
        <ele>59.599998474121</ele>
        <time>2015-12-07T21:04:35Z</time>
      </trkpt>
      <trkpt lat="48.88635" lon="2.37698">
        <ele>58.79999923706</ele>
        <time>2015-12-07T21:04:39Z</time>
      </trkpt>
      <trkpt lat="48.88629" lon="2.3769">
        <ele>58.599998474121</ele>
        <time>2015-12-07T21:04:41Z</time>
      </trkpt>
      <trkpt lat="48.88615" lon="2.37666">
        <ele>58</ele>
        <time>2015-12-07T21:04:46Z</time>
      </trkpt>
      <trkpt lat="48.88613" lon="2.3766">
        <ele>57.79999923706</ele>
        <time>2015-12-07T21:04:47Z</time>
      </trkpt>
      <trkpt lat="48.88603" lon="2.37636">
        <ele>57.20000076294</ele>
        <time>2015-12-07T21:04:51Z</time>
      </trkpt>
      <trkpt lat="48.88596" lon="2.37618">
        <ele>56.79999923706</ele>
        <time>2015-12-07T21:04:54Z</time>
      </trkpt>
      <trkpt lat="48.88584" lon="2.37593">
        <ele>56.400001525879</ele>
        <time>2015-12-07T21:04:58Z</time>
      </trkpt>
      <trkpt lat="48.88571" lon="2.37568">
        <ele>56.400001525879</ele>
        <time>2015-12-07T21:05:02Z</time>
      </trkpt>
      <trkpt lat="48.88556" lon="2.37546">
        <ele>56.599998474121</ele>
        <time>2015-12-07T21:05:05Z</time>
      </trkpt>
      <trkpt lat="48.8854" lon="2.37523">
        <ele>56.79999923706</ele>
        <time>2015-12-07T21:05:09Z</time>
      </trkpt>
      <trkpt lat="48.88532" lon="2.37511">
        <ele>56.79999923706</ele>
        <time>2015-12-07T21:05:11Z</time>
      </trkpt>
      <trkpt lat="48.88517" lon="2.37487">
        <ele>57</ele>
        <time>2015-12-07T21:05:15Z</time>
      </trkpt>
      <trkpt lat="48.88506" lon="2.37467">
        <ele>57</ele>
        <time>2015-12-07T21:05:18Z</time>
      </trkpt>
      <trkpt lat="48.88498" lon="2.37451">
        <ele>57</ele>
        <time>2015-12-07T21:05:20Z</time>
      </trkpt>
      <trkpt lat="48.88486" lon="2.37431">
        <ele>57.20000076294</ele>
        <time>2015-12-07T21:05:23Z</time>
      </trkpt>
      <trkpt lat="48.88471" lon="2.37403">
        <ele>57.20000076294</ele>
        <time>2015-12-07T21:05:27Z</time>
      </trkpt>
      <trkpt lat="48.8846" lon="2.3738">
        <ele>57.20000076294</ele>
        <time>2015-12-07T21:05:30Z</time>
      </trkpt>
      <trkpt lat="48.88451" lon="2.37358">
        <ele>57.20000076294</ele>
        <time>2015-12-07T21:05:33Z</time>
      </trkpt>
      <trkpt lat="48.88436" lon="2.37334">
        <ele>57.20000076294</ele>
        <time>2015-12-07T21:05:37Z</time>
      </trkpt>
      <trkpt lat="48.88421" lon="2.37308">
        <ele>57.599998474121</ele>
        <time>2015-12-07T21:05:41Z</time>
      </trkpt>
      <trkpt lat="48.88411" lon="2.37283">
        <ele>57.599998474121</ele>
        <time>2015-12-07T21:05:44Z</time>
      </trkpt>
      <trkpt lat="48.884" lon="2.37259">
        <ele>57.599998474121</ele>
        <time>2015-12-07T21:05:47Z</time>
      </trkpt>
      <trkpt lat="48.8839" lon="2.37235">
        <ele>57.599998474121</ele>
        <time>2015-12-07T21:05:50Z</time>
      </trkpt>
      <trkpt lat="48.88379" lon="2.37214">
        <ele>57.79999923706</ele>
        <time>2015-12-07T21:05:53Z</time>
      </trkpt>
      <trkpt lat="48.88373" lon="2.37201">
        <ele>58</ele>
        <time>2015-12-07T21:05:55Z</time>
      </trkpt>
      <trkpt lat="48.8836" lon="2.37176">
        <ele>58</ele>
        <time>2015-12-07T21:05:59Z</time>
      </trkpt>
      <trkpt lat="48.88346" lon="2.37157">
        <ele>58.400001525879</ele>
        <time>2015-12-07T21:06:03Z</time>
      </trkpt>
      <trkpt lat="48.88339" lon="2.37149">
        <ele>58.400001525879</ele>
        <time>2015-12-07T21:06:05Z</time>
      </trkpt>
      <trkpt lat="48.88325" lon="2.37126">
        <ele>58.400001525879</ele>
        <time>2015-12-07T21:06:09Z</time>
      </trkpt>
      <trkpt lat="48.8831" lon="2.37105">
        <ele>58.400001525879</ele>
        <time>2015-12-07T21:06:13Z</time>
      </trkpt>
      <trkpt lat="48.88303" lon="2.37095">
        <ele>58.599998474121</ele>
        <time>2015-12-07T21:06:15Z</time>
      </trkpt>
      <trkpt lat="48.88295" lon="2.37069">
        <ele>57.79999923706</ele>
        <time>2015-12-07T21:06:19Z</time>
      </trkpt>
      <trkpt lat="48.883" lon="2.37047">
        <ele>56.400001525879</ele>
        <time>2015-12-07T21:06:23Z</time>
      </trkpt>
      <trkpt lat="48.88295" lon="2.37042">
        <ele>56.400001525879</ele>
        <time>2015-12-07T21:06:27Z</time>
      </trkpt>
      <trkpt lat="48.88293" lon="2.37042">
        <ele>56.79999923706</ele>
        <time>2015-12-07T21:06:30Z</time>
      </trkpt>
      <trkpt lat="48.88295" lon="2.3703">
        <ele>56</ele>
        <time>2015-12-07T21:07:48Z</time>
      </trkpt>
      <trkpt lat="48.88291" lon="2.37017">
        <ele>55.599998474121</ele>
        <time>2015-12-07T21:07:53Z</time>
      </trkpt>
      <trkpt lat="48.88281" lon="2.36992">
        <ele>55.599998474121</ele>
        <time>2015-12-07T21:08:01Z</time>
      </trkpt>
      <trkpt lat="48.88266" lon="2.36976">
        <ele>56.20000076294</ele>
        <time>2015-12-07T21:08:07Z</time>
      </trkpt>
      <trkpt lat="48.88257" lon="2.3695">
        <ele>56.400001525879</ele>
        <time>2015-12-07T21:08:12Z</time>
      </trkpt>
      <trkpt lat="48.8825" lon="2.36919">
        <ele>56.599998474121</ele>
        <time>2015-12-07T21:08:17Z</time>
      </trkpt>
      <trkpt lat="48.88244" lon="2.36891">
        <ele>56.400001525879</ele>
        <time>2015-12-07T21:08:21Z</time>
      </trkpt>
      <trkpt lat="48.88239" lon="2.36862">
        <ele>57.20000076294</ele>
        <time>2015-12-07T21:08:25Z</time>
      </trkpt>
      <trkpt lat="48.88233" lon="2.36833">
        <ele>58.599998474121</ele>
        <time>2015-12-07T21:08:29Z</time>
      </trkpt>
      <trkpt lat="48.88225" lon="2.36802">
        <ele>58.20000076294</ele>
        <time>2015-12-07T21:08:34Z</time>
      </trkpt>
      <trkpt lat="48.88219" lon="2.36774">
        <ele>58</ele>
        <time>2015-12-07T21:08:39Z</time>
      </trkpt>
      <trkpt lat="48.88214" lon="2.36757">
        <ele>57.400001525879</ele>
        <time>2015-12-07T21:08:43Z</time>
      </trkpt>
      <trkpt lat="48.88211" lon="2.36746">
        <ele>57</ele>
        <time>2015-12-07T21:08:46Z</time>
      </trkpt>
      <trkpt lat="48.88202" lon="2.36721">
        <ele>57.599998474121</ele>
        <time>2015-12-07T21:08:53Z</time>
      </trkpt>
      <trkpt lat="48.8819" lon="2.36698">
        <ele>57.79999923706</ele>
        <time>2015-12-07T21:09:02Z</time>
      </trkpt>
      <trkpt lat="48.88185" lon="2.36669">
        <ele>58.79999923706</ele>
        <time>2015-12-07T21:09:11Z</time>
      </trkpt>
      <trkpt lat="48.88183" lon="2.36659">
        <ele>59</ele>
        <time>2015-12-07T21:09:15Z</time>
      </trkpt>
      <trkpt lat="48.88179" lon="2.36644">
        <ele>58.79999923706</ele>
        <time>2015-12-07T21:09:24Z</time>
      </trkpt>
      <trkpt lat="48.88173" lon="2.36617">
        <ele>58.599998474121</ele>
        <time>2015-12-07T21:09:45Z</time>
      </trkpt>
      <trkpt lat="48.88165" lon="2.36588">
        <ele>58.400001525879</ele>
        <time>2015-12-07T21:09:55Z</time>
      </trkpt>
      <trkpt lat="48.8815" lon="2.36569">
        <ele>58.400001525879</ele>
        <time>2015-12-07T21:10:02Z</time>
      </trkpt>
      <trkpt lat="48.88135" lon="2.36553">
        <ele>58.599998474121</ele>
        <time>2015-12-07T21:10:08Z</time>
      </trkpt>
      <trkpt lat="48.88123" lon="2.36537">
        <ele>58.79999923706</ele>
        <time>2015-12-07T21:10:15Z</time>
      </trkpt>
      <trkpt lat="48.88105" lon="2.3652">
        <ele>59</ele>
        <time>2015-12-07T21:10:36Z</time>
      </trkpt>
      <trkpt lat="48.88087" lon="2.36503">
        <ele>58.599998474121</ele>
        <time>2015-12-07T21:10:41Z</time>
      </trkpt>
      <trkpt lat="48.88073" lon="2.36486">
        <ele>58</ele>
        <time>2015-12-07T21:10:45Z</time>
      </trkpt>
      <trkpt lat="48.88056" lon="2.36472">
        <ele>57.20000076294</ele>
        <time>2015-12-07T21:10:49Z</time>
      </trkpt>
      <trkpt lat="48.8804" lon="2.36453">
        <ele>56.400001525879</ele>
        <time>2015-12-07T21:10:53Z</time>
      </trkpt>
      <trkpt lat="48.88022" lon="2.36437">
        <ele>55.599998474121</ele>
        <time>2015-12-07T21:10:57Z</time>
      </trkpt>
      <trkpt lat="48.88003" lon="2.3642">
        <ele>55.400001525879</ele>
        <time>2015-12-07T21:11:01Z</time>
      </trkpt>
      <trkpt lat="48.87985" lon="2.36404">
        <ele>55.79999923706</ele>
        <time>2015-12-07T21:11:04Z</time>
      </trkpt>
      <trkpt lat="48.8798" lon="2.36399">
        <ele>55.79999923706</ele>
        <time>2015-12-07T21:11:05Z</time>
      </trkpt>
      <trkpt lat="48.87961" lon="2.36378">
        <ele>56.599998474121</ele>
        <time>2015-12-07T21:11:09Z</time>
      </trkpt>
      <trkpt lat="48.87944" lon="2.36356">
        <ele>57.400001525879</ele>
        <time>2015-12-07T21:11:13Z</time>
      </trkpt>
      <trkpt lat="48.87928" lon="2.36336">
        <ele>57.400001525879</ele>
        <time>2015-12-07T21:11:17Z</time>
      </trkpt>
      <trkpt lat="48.87911" lon="2.36315">
        <ele>56.599998474121</ele>
        <time>2015-12-07T21:11:21Z</time>
      </trkpt>
      <trkpt lat="48.87893" lon="2.36298">
        <ele>55.599998474121</ele>
        <time>2015-12-07T21:11:25Z</time>
      </trkpt>
      <trkpt lat="48.87886" lon="2.36287">
        <ele>55</ele>
        <time>2015-12-07T21:11:27Z</time>
      </trkpt>
      <trkpt lat="48.87878" lon="2.36263">
        <ele>54.400001525879</ele>
        <time>2015-12-07T21:11:31Z</time>
      </trkpt>
      <trkpt lat="48.87874" lon="2.36252">
        <ele>54</ele>
        <time>2015-12-07T21:11:33Z</time>
      </trkpt>
      <trkpt lat="48.87866" lon="2.36241">
        <ele>53.20000076294</ele>
        <time>2015-12-07T21:11:36Z</time>
      </trkpt>
      <trkpt lat="48.87851" lon="2.36225">
        <ele>51.79999923706</ele>
        <time>2015-12-07T21:11:41Z</time>
      </trkpt>
      <trkpt lat="48.87847" lon="2.36222">
        <ele>51.79999923706</ele>
        <time>2015-12-07T21:11:42Z</time>
      </trkpt>
      <trkpt lat="48.87831" lon="2.36209">
        <ele>52</ele>
        <time>2015-12-07T21:11:46Z</time>
      </trkpt>
      <trkpt lat="48.87812" lon="2.36197">
        <ele>52</ele>
        <time>2015-12-07T21:11:50Z</time>
      </trkpt>
      <trkpt lat="48.87792" lon="2.36181">
        <ele>52.20000076294</ele>
        <time>2015-12-07T21:11:54Z</time>
      </trkpt>
      <trkpt lat="48.87776" lon="2.36169">
        <ele>52</ele>
        <time>2015-12-07T21:11:57Z</time>
      </trkpt>
      <trkpt lat="48.87759" lon="2.36156">
        <ele>52.79999923706</ele>
        <time>2015-12-07T21:12:00Z</time>
      </trkpt>
      <trkpt lat="48.87738" lon="2.36143">
        <ele>54</ele>
        <time>2015-12-07T21:12:04Z</time>
      </trkpt>
      <trkpt lat="48.87732" lon="2.36139">
        <ele>54.20000076294</ele>
        <time>2015-12-07T21:12:05Z</time>
      </trkpt>
      <trkpt lat="48.87714" lon="2.36126">
        <ele>55</ele>
        <time>2015-12-07T21:12:08Z</time>
      </trkpt>
      <trkpt lat="48.87696" lon="2.36116">
        <ele>56.20000076294</ele>
        <time>2015-12-07T21:12:11Z</time>
      </trkpt>
      <trkpt lat="48.87678" lon="2.36107">
        <ele>55.79999923706</ele>
        <time>2015-12-07T21:12:14Z</time>
      </trkpt>
      <trkpt lat="48.87658" lon="2.36095">
        <ele>54.599998474121</ele>
        <time>2015-12-07T21:12:17Z</time>
      </trkpt>
      <trkpt lat="48.87638" lon="2.36085">
        <ele>53.400001525879</ele>
        <time>2015-12-07T21:12:20Z</time>
      </trkpt>
      <trkpt lat="48.87617" lon="2.36072">
        <ele>52.400001525879</ele>
        <time>2015-12-07T21:12:23Z</time>
      </trkpt>
      <trkpt lat="48.87606" lon="2.36061">
        <ele>52</ele>
        <time>2015-12-07T21:12:25Z</time>
      </trkpt>
      <trkpt lat="48.87591" lon="2.36034">
        <ele>50.79999923706</ele>
        <time>2015-12-07T21:12:29Z</time>
      </trkpt>
      <trkpt lat="48.87589" lon="2.36028">
        <ele>50.599998474121</ele>
        <time>2015-12-07T21:12:30Z</time>
      </trkpt>
      <trkpt lat="48.87588" lon="2.36003">
        <ele>50.400001525879</ele>
        <time>2015-12-07T21:12:34Z</time>
      </trkpt>
      <trkpt lat="48.87589" lon="2.36">
        <ele>50.599998474121</ele>
        <time>2015-12-07T21:12:35Z</time>
      </trkpt>
      <trkpt lat="48.8757" lon="2.35997">
        <ele>49</ele>
        <time>2015-12-07T21:12:45Z</time>
      </trkpt>
      <trkpt lat="48.87567" lon="2.35995">
        <ele>48.599998474121</ele>
        <time>2015-12-07T21:12:46Z</time>
      </trkpt>
      <trkpt lat="48.8756" lon="2.35991">
        <ele>48.20000076294</ele>
        <time>2015-12-07T21:12:48Z</time>
      </trkpt>
      <trkpt lat="48.87546" lon="2.35971">
        <ele>47.20000076294</ele>
        <time>2015-12-07T21:12:53Z</time>
      </trkpt>
      <trkpt lat="48.87542" lon="2.35962">
        <ele>47</ele>
        <time>2015-12-07T21:12:55Z</time>
      </trkpt>
      <trkpt lat="48.87534" lon="2.35942">
        <ele>46.599998474121</ele>
        <time>2015-12-07T21:12:59Z</time>
      </trkpt>
      <trkpt lat="48.87528" lon="2.35934">
        <ele>46.20000076294</ele>
        <time>2015-12-07T21:13:01Z</time>
      </trkpt>
      <trkpt lat="48.8751" lon="2.35917">
        <ele>46.20000076294</ele>
        <time>2015-12-07T21:13:06Z</time>
      </trkpt>
      <trkpt lat="48.87505" lon="2.35914">
        <ele>46.20000076294</ele>
        <time>2015-12-07T21:13:07Z</time>
      </trkpt>
      <trkpt lat="48.87486" lon="2.35904">
        <ele>46.79999923706</ele>
        <time>2015-12-07T21:13:11Z</time>
      </trkpt>
      <trkpt lat="48.87472" lon="2.35895">
        <ele>47.400001525879</ele>
        <time>2015-12-07T21:13:14Z</time>
      </trkpt>
      <trkpt lat="48.87451" lon="2.35881">
        <ele>48</ele>
        <time>2015-12-07T21:13:18Z</time>
      </trkpt>
      <trkpt lat="48.87447" lon="2.35877">
        <ele>48.20000076294</ele>
        <time>2015-12-07T21:13:19Z</time>
      </trkpt>
      <trkpt lat="48.87427" lon="2.35866">
        <ele>48.400001525879</ele>
        <time>2015-12-07T21:13:23Z</time>
      </trkpt>
      <trkpt lat="48.87409" lon="2.35859">
        <ele>48.20000076294</ele>
        <time>2015-12-07T21:13:27Z</time>
      </trkpt>
      <trkpt lat="48.87403" lon="2.35857">
        <ele>48.20000076294</ele>
        <time>2015-12-07T21:13:30Z</time>
      </trkpt>
      <trkpt lat="48.87402" lon="2.35856">
        <ele>48.20000076294</ele>
        <time>2015-12-07T21:13:32Z</time>
      </trkpt>
      <trkpt lat="48.87383" lon="2.35855">
        <ele>47.79999923706</ele>
        <time>2015-12-07T21:13:54Z</time>
      </trkpt>
      <trkpt lat="48.87377" lon="2.35858">
        <ele>47.79999923706</ele>
        <time>2015-12-07T21:13:57Z</time>
      </trkpt>
      <trkpt lat="48.87359" lon="2.35843">
        <ele>48</ele>
        <time>2015-12-07T21:14:09Z</time>
      </trkpt>
      <trkpt lat="48.87355" lon="2.35842">
        <ele>48</ele>
        <time>2015-12-07T21:14:10Z</time>
      </trkpt>
      <trkpt lat="48.87336" lon="2.35833">
        <ele>46.79999923706</ele>
        <time>2015-12-07T21:14:15Z</time>
      </trkpt>
      <trkpt lat="48.87319" lon="2.35832">
        <ele>45.79999923706</ele>
        <time>2015-12-07T21:14:19Z</time>
      </trkpt>
      <trkpt lat="48.87301" lon="2.35824">
        <ele>45</ele>
        <time>2015-12-07T21:14:23Z</time>
      </trkpt>
      <trkpt lat="48.87283" lon="2.35817">
        <ele>44.400001525879</ele>
        <time>2015-12-07T21:14:27Z</time>
      </trkpt>
      <trkpt lat="48.87265" lon="2.35806">
        <ele>44.599998474121</ele>
        <time>2015-12-07T21:14:31Z</time>
      </trkpt>
      <trkpt lat="48.87245" lon="2.35793">
        <ele>46</ele>
        <time>2015-12-07T21:14:35Z</time>
      </trkpt>
      <trkpt lat="48.87229" lon="2.35776">
        <ele>47.400001525879</ele>
        <time>2015-12-07T21:14:39Z</time>
      </trkpt>
      <trkpt lat="48.8721" lon="2.35761">
        <ele>48.79999923706</ele>
        <time>2015-12-07T21:14:43Z</time>
      </trkpt>
      <trkpt lat="48.87191" lon="2.35752">
        <ele>49.599998474121</ele>
        <time>2015-12-07T21:14:47Z</time>
      </trkpt>
      <trkpt lat="48.87173" lon="2.3574">
        <ele>49.20000076294</ele>
        <time>2015-12-07T21:14:52Z</time>
      </trkpt>
      <trkpt lat="48.87168" lon="2.35737">
        <ele>49.20000076294</ele>
        <time>2015-12-07T21:14:53Z</time>
      </trkpt>
      <trkpt lat="48.87151" lon="2.35726">
        <ele>48.400001525879</ele>
        <time>2015-12-07T21:14:58Z</time>
      </trkpt>
      <trkpt lat="48.87133" lon="2.35714">
        <ele>47.79999923706</ele>
        <time>2015-12-07T21:15:03Z</time>
      </trkpt>
      <trkpt lat="48.87126" lon="2.3571">
        <ele>47.400001525879</ele>
        <time>2015-12-07T21:15:05Z</time>
      </trkpt>
      <trkpt lat="48.87111" lon="2.35698">
        <ele>46.79999923706</ele>
        <time>2015-12-07T21:15:09Z</time>
      </trkpt>
      <trkpt lat="48.87091" lon="2.35687">
        <ele>47</ele>
        <time>2015-12-07T21:15:14Z</time>
      </trkpt>
      <trkpt lat="48.87071" lon="2.35685">
        <ele>47.599998474121</ele>
        <time>2015-12-07T21:15:18Z</time>
      </trkpt>
      <trkpt lat="48.87052" lon="2.35677">
        <ele>48.20000076294</ele>
        <time>2015-12-07T21:15:23Z</time>
      </trkpt>
      <trkpt lat="48.87034" lon="2.35663">
        <ele>48.79999923706</ele>
        <time>2015-12-07T21:15:28Z</time>
      </trkpt>
      <trkpt lat="48.87019" lon="2.35651">
        <ele>49</ele>
        <time>2015-12-07T21:15:32Z</time>
      </trkpt>
      <trkpt lat="48.87011" lon="2.35646">
        <ele>49</ele>
        <time>2015-12-07T21:15:34Z</time>
      </trkpt>
      <trkpt lat="48.86991" lon="2.35633">
        <ele>49</ele>
        <time>2015-12-07T21:15:39Z</time>
      </trkpt>
      <trkpt lat="48.86972" lon="2.35618">
        <ele>49</ele>
        <time>2015-12-07T21:15:44Z</time>
      </trkpt>
      <trkpt lat="48.86962" lon="2.3561">
        <ele>49</ele>
        <time>2015-12-07T21:15:47Z</time>
      </trkpt>
      <trkpt lat="48.86942" lon="2.35608">
        <ele>49</ele>
        <time>2015-12-07T21:15:50Z</time>
      </trkpt>
      <trkpt lat="48.86933" lon="2.356">
        <ele>48.79999923706</ele>
        <time>2015-12-07T21:15:53Z</time>
      </trkpt>
      <trkpt lat="48.86922" lon="2.35585">
        <ele>48.599998474121</ele>
        <time>2015-12-07T21:16:00Z</time>
      </trkpt>
      <trkpt lat="48.86919" lon="2.35584">
        <ele>48.599998474121</ele>
        <time>2015-12-07T21:16:02Z</time>
      </trkpt>
      <trkpt lat="48.86906" lon="2.35555">
        <ele>48.400001525879</ele>
        <time>2015-12-07T21:16:26Z</time>
      </trkpt>
      <trkpt lat="48.86891" lon="2.35551">
        <ele>48.20000076294</ele>
        <time>2015-12-07T21:16:41Z</time>
      </trkpt>
      <trkpt lat="48.86882" lon="2.35548">
        <ele>48</ele>
        <time>2015-12-07T21:16:45Z</time>
      </trkpt>
      <trkpt lat="48.86862" lon="2.35543">
        <ele>47.599998474121</ele>
        <time>2015-12-07T21:16:50Z</time>
      </trkpt>
      <trkpt lat="48.86843" lon="2.35536">
        <ele>46.20000076294</ele>
        <time>2015-12-07T21:16:54Z</time>
      </trkpt>
      <trkpt lat="48.86824" lon="2.35531">
        <ele>44.599998474121</ele>
        <time>2015-12-07T21:16:59Z</time>
      </trkpt>
      <trkpt lat="48.86806" lon="2.35522">
        <ele>43</ele>
        <time>2015-12-07T21:17:03Z</time>
      </trkpt>
      <trkpt lat="48.86788" lon="2.35512">
        <ele>41.400001525879</ele>
        <time>2015-12-07T21:17:07Z</time>
      </trkpt>
      <trkpt lat="48.86768" lon="2.35498">
        <ele>39.79999923706</ele>
        <time>2015-12-07T21:17:11Z</time>
      </trkpt>
      <trkpt lat="48.86751" lon="2.35487">
        <ele>40.599998474121</ele>
        <time>2015-12-07T21:17:14Z</time>
      </trkpt>
      <trkpt lat="48.86744" lon="2.35485">
        <ele>40.400001525879</ele>
        <time>2015-12-07T21:17:15Z</time>
      </trkpt>
      <trkpt lat="48.86723" lon="2.35478">
        <ele>40.599998474121</ele>
        <time>2015-12-07T21:17:18Z</time>
      </trkpt>
      <trkpt lat="48.86706" lon="2.35467">
        <ele>41.400001525879</ele>
        <time>2015-12-07T21:17:21Z</time>
      </trkpt>
      <trkpt lat="48.86688" lon="2.3545">
        <ele>42.599998474121</ele>
        <time>2015-12-07T21:17:25Z</time>
      </trkpt>
      <trkpt lat="48.86682" lon="2.35445">
        <ele>43.20000076294</ele>
        <time>2015-12-07T21:17:27Z</time>
      </trkpt>
      <trkpt lat="48.86676" lon="2.35443">
        <ele>43.599998474121</ele>
        <time>2015-12-07T21:17:29Z</time>
      </trkpt>
      <trkpt lat="48.86657" lon="2.3543">
        <ele>45.20000076294</ele>
        <time>2015-12-07T21:17:34Z</time>
      </trkpt>
      <trkpt lat="48.86642" lon="2.3542">
        <ele>46.599998474121</ele>
        <time>2015-12-07T21:17:38Z</time>
      </trkpt>
      <trkpt lat="48.86624" lon="2.35405">
        <ele>47.599998474121</ele>
        <time>2015-12-07T21:17:43Z</time>
      </trkpt>
      <trkpt lat="48.8662" lon="2.35402">
        <ele>47.599998474121</ele>
        <time>2015-12-07T21:17:44Z</time>
      </trkpt>
      <trkpt lat="48.86608" lon="2.35393">
        <ele>48</ele>
        <time>2015-12-07T21:17:49Z</time>
      </trkpt>
      <trkpt lat="48.86591" lon="2.35379">
        <ele>47.400001525879</ele>
        <time>2015-12-07T21:18:29Z</time>
      </trkpt>
      <trkpt lat="48.86571" lon="2.35373">
        <ele>46.79999923706</ele>
        <time>2015-12-07T21:18:37Z</time>
      </trkpt>
      <trkpt lat="48.8655" lon="2.35368">
        <ele>46.400001525879</ele>
        <time>2015-12-07T21:18:43Z</time>
      </trkpt>
      <trkpt lat="48.86533" lon="2.3536">
        <ele>46.20000076294</ele>
        <time>2015-12-07T21:18:48Z</time>
      </trkpt>
      <trkpt lat="48.86515" lon="2.35351">
        <ele>46</ele>
        <time>2015-12-07T21:18:53Z</time>
      </trkpt>
      <trkpt lat="48.86498" lon="2.3534">
        <ele>45.400001525879</ele>
        <time>2015-12-07T21:18:58Z</time>
      </trkpt>
      <trkpt lat="48.8648" lon="2.35331">
        <ele>45</ele>
        <time>2015-12-07T21:19:04Z</time>
      </trkpt>
      <trkpt lat="48.86459" lon="2.35323">
        <ele>45.20000076294</ele>
        <time>2015-12-07T21:19:11Z</time>
      </trkpt>
      <trkpt lat="48.86441" lon="2.3532">
        <ele>45.20000076294</ele>
        <time>2015-12-07T21:19:17Z</time>
      </trkpt>
      <trkpt lat="48.86422" lon="2.35314">
        <ele>45.20000076294</ele>
        <time>2015-12-07T21:19:23Z</time>
      </trkpt>
      <trkpt lat="48.86404" lon="2.35309">
        <ele>45.20000076294</ele>
        <time>2015-12-07T21:19:28Z</time>
      </trkpt>
      <trkpt lat="48.86386" lon="2.35302">
        <ele>45</ele>
        <time>2015-12-07T21:19:33Z</time>
      </trkpt>
      <trkpt lat="48.86365" lon="2.35303">
        <ele>44.79999923706</ele>
        <time>2015-12-07T21:19:39Z</time>
      </trkpt>
      <trkpt lat="48.86347" lon="2.35289">
        <ele>45.20000076294</ele>
        <time>2015-12-07T21:19:44Z</time>
      </trkpt>
      <trkpt lat="48.8633" lon="2.35268">
        <ele>46.20000076294</ele>
        <time>2015-12-07T21:19:48Z</time>
      </trkpt>
      <trkpt lat="48.86318" lon="2.35256">
        <ele>46.79999923706</ele>
        <time>2015-12-07T21:19:51Z</time>
      </trkpt>
      <trkpt lat="48.86316" lon="2.35243">
        <ele>47</ele>
        <time>2015-12-07T21:20:04Z</time>
      </trkpt>
      <trkpt lat="48.86309" lon="2.35235">
        <ele>47.400001525879</ele>
        <time>2015-12-07T21:20:08Z</time>
      </trkpt>
      <trkpt lat="48.86291" lon="2.35231">
        <ele>48</ele>
        <time>2015-12-07T21:20:14Z</time>
      </trkpt>
      <trkpt lat="48.86269" lon="2.35225">
        <ele>48.400001525879</ele>
        <time>2015-12-07T21:20:20Z</time>
      </trkpt>
      <trkpt lat="48.8625" lon="2.35211">
        <ele>47.79999923706</ele>
        <time>2015-12-07T21:20:26Z</time>
      </trkpt>
      <trkpt lat="48.86231" lon="2.35204">
        <ele>47</ele>
        <time>2015-12-07T21:20:31Z</time>
      </trkpt>
      <trkpt lat="48.86213" lon="2.35203">
        <ele>46.400001525879</ele>
        <time>2015-12-07T21:20:37Z</time>
      </trkpt>
      <trkpt lat="48.86196" lon="2.35195">
        <ele>45.79999923706</ele>
        <time>2015-12-07T21:20:42Z</time>
      </trkpt>
      <trkpt lat="48.86174" lon="2.35189">
        <ele>45.79999923706</ele>
        <time>2015-12-07T21:20:48Z</time>
      </trkpt>
      <trkpt lat="48.86156" lon="2.35184">
        <ele>46.20000076294</ele>
        <time>2015-12-07T21:20:53Z</time>
      </trkpt>
      <trkpt lat="48.86139" lon="2.35173">
        <ele>46.599998474121</ele>
        <time>2015-12-07T21:20:57Z</time>
      </trkpt>
      <trkpt lat="48.8612" lon="2.35164">
        <ele>46.79999923706</ele>
        <time>2015-12-07T21:21:02Z</time>
      </trkpt>
      <trkpt lat="48.86099" lon="2.35158">
        <ele>46.79999923706</ele>
        <time>2015-12-07T21:21:08Z</time>
      </trkpt>
      <trkpt lat="48.86078" lon="2.35159">
        <ele>47</ele>
        <time>2015-12-07T21:21:14Z</time>
      </trkpt>
      <trkpt lat="48.86059" lon="2.35156">
        <ele>47.20000076294</ele>
        <time>2015-12-07T21:21:19Z</time>
      </trkpt>
      <trkpt lat="48.86038" lon="2.35157">
        <ele>47.400001525879</ele>
        <time>2015-12-07T21:21:25Z</time>
      </trkpt>
      <trkpt lat="48.86027" lon="2.35134">
        <ele>46.599998474121</ele>
        <time>2015-12-07T21:21:29Z</time>
      </trkpt>
      <trkpt lat="48.86024" lon="2.35107">
        <ele>45.20000076294</ele>
        <time>2015-12-07T21:21:37Z</time>
      </trkpt>
      <trkpt lat="48.8603" lon="2.35078">
        <ele>44.20000076294</ele>
        <time>2015-12-07T21:21:42Z</time>
      </trkpt>
      <trkpt lat="48.86034" lon="2.35046">
        <ele>45.599998474121</ele>
        <time>2015-12-07T21:21:48Z</time>
      </trkpt>
      <trkpt lat="48.86042" lon="2.3502">
        <ele>47</ele>
        <time>2015-12-07T21:21:54Z</time>
      </trkpt>
      <trkpt lat="48.86052" lon="2.34994">
        <ele>47.400001525879</ele>
        <time>2015-12-07T21:22:02Z</time>
      </trkpt>
      <trkpt lat="48.86052" lon="2.34979">
        <ele>47.599998474121</ele>
        <time>2015-12-07T21:22:08Z</time>
      </trkpt>
      <trkpt lat="48.86053" lon="2.34975">
        <ele>47.599998474121</ele>
        <time>2015-12-07T21:22:10Z</time>
      </trkpt>
      <trkpt lat="48.86052" lon="2.34955">
        <ele>47.79999923706</ele>
        <time>2015-12-07T21:22:22Z</time>
      </trkpt>
      <trkpt lat="48.86051" lon="2.3494">
        <ele>48</ele>
        <time>2015-12-07T21:22:39Z</time>
      </trkpt>
      <trkpt lat="48.86053" lon="2.34934">
        <ele>48</ele>
        <time>2015-12-07T21:22:45Z</time>
      </trkpt>
      <trkpt lat="48.86064" lon="2.34909">
        <ele>48</ele>
        <time>2015-12-07T21:22:57Z</time>
      </trkpt>
      <trkpt lat="48.86072" lon="2.34883">
        <ele>47.400001525879</ele>
        <time>2015-12-07T21:23:05Z</time>
      </trkpt>
      <trkpt lat="48.86072" lon="2.34871">
        <ele>47.20000076294</ele>
        <time>2015-12-07T21:23:09Z</time>
      </trkpt>
      <trkpt lat="48.86055" lon="2.34856">
        <ele>47.400001525879</ele>
        <time>2015-12-07T21:23:16Z</time>
      </trkpt>
      <trkpt lat="48.86038" lon="2.34845">
        <ele>47.79999923706</ele>
        <time>2015-12-07T21:23:23Z</time>
      </trkpt>
      <trkpt lat="48.86016" lon="2.34839">
        <ele>48</ele>
        <time>2015-12-07T21:23:32Z</time>
      </trkpt>
      <trkpt lat="48.85998" lon="2.34833">
        <ele>48</ele>
        <time>2015-12-07T21:23:38Z</time>
      </trkpt>
      <trkpt lat="48.85981" lon="2.34816">
        <ele>47.20000076294</ele>
        <time>2015-12-07T21:23:43Z</time>
      </trkpt>
      <trkpt lat="48.85965" lon="2.34803">
        <ele>46.599998474121</ele>
        <time>2015-12-07T21:23:51Z</time>
      </trkpt>
      <trkpt lat="48.85959" lon="2.34801">
        <ele>46.599998474121</ele>
        <time>2015-12-07T21:23:56Z</time>
      </trkpt>
      <trkpt lat="48.85963" lon="2.34792">
        <ele>46.20000076294</ele>
        <time>2015-12-07T21:24:02Z</time>
      </trkpt>
      <trkpt lat="48.85968" lon="2.34774">
        <ele>45.20000076294</ele>
        <time>2015-12-07T21:24:07Z</time>
      </trkpt>
      <trkpt lat="48.85966" lon="2.34745">
        <ele>44.400001525879</ele>
        <time>2015-12-07T21:24:20Z</time>
      </trkpt>
      <trkpt lat="48.85962" lon="2.34732">
        <ele>44.79999923706</ele>
        <time>2015-12-07T21:24:34Z</time>
      </trkpt>
    </trkseg>
  </trk>
</gpx>